Darstellungsparameter: Aktuell verwendete Einstellungen:
Skalierung der Graphiken ... ?
xyx+y,   Skalierungsfaktor:      Skalierung: Modus: x, Faktor: 1
Darstellungszeitraum ... ?
Vom - - bis: - -   Zeitraum: 20.03.2019 - 19.09.2019
Min/Max/Avg-Anzeige ... ?
Zeige MMA aktuell
Zeige MMA Monat
Zeige MMA alles
Zeige --A aktuell
Zeige --A Monat
Zeige --A alles
Keine MMA-Anzeige
MMA:
Keine MMA-Graphiken
MMA-Basis: 20.03.2019 - 19.09.2019
Quicknavigation für Darstellung... ?
Tage:      1T, 2T, 3T, 5T -1T -2T -3T -5T +1T +2T +3T +5T
Wochen: 1W, 2W, 3W -1W -2W -3W +1W +2W +3W
Monate: 1M, 3M, 6M -1M -3M -6M +1M +3M +6M
Jahre:    1J, 3J, 5J, 10J -1J -3J -5J -10J +1J +3J +5J +10J
Nutze für die Darstellung ... ?
Originaldaten oder Mittelwerte auf ...
Stundenbasis Tagesbasis Wochenbasis
Monatsbasis Jahresbasis      Datenbasis: Original-Daten
Darstellen als:
Statistik (Auto) Statistik J:M      Darstellung:
Zur Graphik,    zurück zur Übersicht aller Sensoren.
 
Tabellarische Datenbersicht: ?
 
Sensor: Nr:Datum:Temp:Feuchte:Taupunkt:
Aussen-T/F 1 20-03-2019 00:00:00 1.2 C 88 % -0.56 C
2 20-03-2019 00:05:00 1.2 C 89 % -0.41 C
3 20-03-2019 00:10:00 1.2 C 89 % -0.41 C
4 20-03-2019 00:15:00 1.1 C 89 % -0.51 C
5 20-03-2019 00:20:00 0.9 C 88 % -0.86 C
6 20-03-2019 00:25:00 0.8 C 89 % -0.8 C
7 20-03-2019 00:30:00 0.7 C 89 % -0.9 C
8 20-03-2019 00:35:00 0.6 C 89 % -1 C
9 20-03-2019 00:40:00 0.6 C 90 % -0.85 C
10 20-03-2019 00:45:00 0.5 C 90 % -0.95 C
11 20-03-2019 00:50:00 0.4 C 90 % -1.04 C
12 20-03-2019 00:55:00 0.4 C 90 % -1.04 C
13 20-03-2019 01:00:00 0.4 C 90 % -1.04 C
14 20-03-2019 01:05:00 0.4 C 91 % -0.89 C
15 20-03-2019 01:10:00 0.5 C 91 % -0.79 C
16 20-03-2019 01:15:00 0.5 C 91 % -0.79 C
17 20-03-2019 01:20:00 0.4 C 91 % -0.89 C
18 20-03-2019 01:25:00 0.4 C 91 % -0.89 C
19 20-03-2019 01:30:00 0.4 C 91 % -0.89 C
20 20-03-2019 01:35:00 0.4 C 91 % -0.89 C
21 20-03-2019 01:40:00 0.3 C 91 % -0.99 C
22 20-03-2019 01:45:00 0.3 C 91 % -0.99 C
23 20-03-2019 01:50:00 0.2 C 91 % -1.09 C
24 20-03-2019 01:55:00 0.1 C 90 % -1.34 C
25 20-03-2019 02:00:00 -0.1 C 91 % -1.39 C
Sensor: Nr:Datum:Temp:Feuchte:Taupunkt:
Aussen-T/F 26 20-03-2019 02:05:00 -0.1 C 91 % -1.39 C
27 20-03-2019 02:10:00 -0.1 C 91 % -1.39 C
28 20-03-2019 02:15:00 0 C 92 % -1.14 C
29 20-03-2019 02:20:00 -0.1 C 91 % -1.39 C
30 20-03-2019 02:25:00 -0.2 C 91 % -1.49 C
31 20-03-2019 02:30:00 -0.2 C 91 % -1.49 C
32 20-03-2019 02:35:00 -0.3 C 91 % -1.59 C
33 20-03-2019 02:40:00 -0.3 C 92 % -1.44 C
34 20-03-2019 02:45:00 -0.2 C 92 % -1.34 C
35 20-03-2019 02:50:00 -0.2 C 92 % -1.34 C
36 20-03-2019 02:55:00 -0.2 C 92 % -1.34 C
37 20-03-2019 03:00:00 -0.3 C 92 % -1.44 C
38 20-03-2019 03:05:00 -0.4 C 92 % -1.54 C
39 20-03-2019 03:10:00 -0.4 C 92 % -1.54 C
40 20-03-2019 03:15:00 -0.4 C 92 % -1.54 C
41 20-03-2019 03:20:00 -0.4 C 92 % -1.54 C
42 20-03-2019 03:25:00 -0.5 C 92 % -1.64 C
43 20-03-2019 03:30:00 -0.6 C 92 % -1.74 C
44 20-03-2019 03:35:00 -0.7 C 92 % -1.83 C
45 20-03-2019 03:40:00 -0.7 C 92 % -1.83 C
46 20-03-2019 03:45:00 -0.7 C 92 % -1.83 C
47 20-03-2019 03:50:00 -0.7 C 92 % -1.83 C
48 20-03-2019 03:55:00 -0.8 C 92 % -1.93 C
49 20-03-2019 04:00:00 -0.8 C 92 % -1.93 C
50 20-03-2019 04:05:00 -0.8 C 92 % -1.93 C
Sensor: Nr:Datum:Temp:Feuchte:Taupunkt:
Aussen-T/F 51 20-03-2019 04:10:00 -0.9 C 92 % -2.03 C
52 20-03-2019 04:15:00 -0.9 C 93 % -1.89 C
53 20-03-2019 04:20:00 -0.9 C 93 % -1.89 C
54 20-03-2019 04:25:00 -0.9 C 93 % -1.89 C
55 20-03-2019 04:30:00 -1 C 93 % -1.99 C
56 20-03-2019 04:35:00 -1 C 93 % -1.99 C
57 20-03-2019 04:40:00 -1 C 93 % -1.99 C
58 20-03-2019 04:45:00 -0.9 C 93 % -1.89 C
59 20-03-2019 04:50:00 -0.9 C 93 % -1.89 C
60 20-03-2019 04:55:00 -0.9 C 93 % -1.89 C
61 20-03-2019 05:00:00 -0.9 C 93 % -1.89 C
62 20-03-2019 05:05:00 -1 C 93 % -1.99 C
63 20-03-2019 05:10:00 -1 C 93 % -1.99 C
64 20-03-2019 05:15:00 -1.1 C 93 % -2.09 C
65 20-03-2019 05:20:00 -1.1 C 93 % -2.09 C
66 20-03-2019 05:25:00 -1.2 C 93 % -2.18 C
67 20-03-2019 05:30:00 -1.2 C 93 % -2.18 C
68 20-03-2019 05:35:00 -1.2 C 93 % -2.18 C
69 20-03-2019 05:40:00 -1.1 C 94 % -1.94 C
70 20-03-2019 05:45:00 -1.1 C 93 % -2.09 C
71 20-03-2019 05:50:00 -1.2 C 93 % -2.18 C
72 20-03-2019 05:55:00 -1.2 C 93 % -2.18 C
73 20-03-2019 06:00:00 -1.3 C 93 % -2.28 C
74 20-03-2019 06:05:00 -1.3 C 93 % -2.28 C
75 20-03-2019 06:10:00 -1.3 C 93 % -2.28 C
Sensor: Nr:Datum:Temp:Feuchte:Taupunkt:
Aussen-T/F 76 20-03-2019 06:15:00 -1.3 C 94 % -2.14 C
77 20-03-2019 06:20:00 -1.2 C 94 % -2.04 C
78 20-03-2019 06:25:00 -1.1 C 94 % -1.94 C
79 20-03-2019 06:30:00 -1.1 C 94 % -1.94 C
80 20-03-2019 06:35:00 -1.1 C 94 % -1.94 C
81 20-03-2019 06:40:00 -1.2 C 94 % -2.04 C
82 20-03-2019 06:45:00 -1.2 C 94 % -2.04 C
83 20-03-2019 06:50:00 -1.3 C 94 % -2.14 C
84 20-03-2019 06:55:00 -1.3 C 94 % -2.14 C
85 20-03-2019 07:00:00 -1.2 C 94 % -2.04 C
86 20-03-2019 07:05:00 -1.2 C 94 % -2.04 C
87 20-03-2019 07:10:00 -1.2 C 94 % -2.04 C
88 20-03-2019 07:15:00 -1.2 C 94 % -2.04 C
89 20-03-2019 07:20:00 -1.1 C 94 % -1.94 C
90 20-03-2019 07:25:00 -1.1 C 94 % -1.94 C
91 20-03-2019 07:30:00 -1.1 C 94 % -1.94 C
92 20-03-2019 07:35:00 -1 C 94 % -1.84 C
93 20-03-2019 07:40:00 -1.1 C 94 % -1.94 C
94 20-03-2019 07:45:00 -1 C 94 % -1.84 C
95 20-03-2019 07:50:00 -0.9 C 94 % -1.74 C
96 20-03-2019 07:55:00 -0.9 C 94 % -1.74 C
97 20-03-2019 08:00:00 -0.9 C 94 % -1.74 C
98 20-03-2019 08:05:00 -0.9 C 94 % -1.74 C
99 20-03-2019 08:10:00 -0.9 C 94 % -1.74 C
100 20-03-2019 08:15:00 -0.9 C 94 % -1.74 C
Sensor: Nr:Datum:Temp:Feuchte:Taupunkt:
Aussen-T/F 101 20-03-2019 08:20:00 -0.8 C 94 % -1.64 C
102 20-03-2019 08:25:00 -0.8 C 94 % -1.64 C
103 20-03-2019 08:30:00 -0.7 C 95 % -1.4 C
104 20-03-2019 08:35:00 -0.6 C 95 % -1.3 C
105 20-03-2019 08:40:00 -0.6 C 95 % -1.3 C
106 20-03-2019 08:45:00 -0.4 C 95 % -1.1 C
107 20-03-2019 08:50:00 -0.3 C 95 % -1 C
108 20-03-2019 08:55:00 -0.3 C 95 % -1 C
109 20-03-2019 09:00:00 -0.2 C 95 % -0.9 C
110 20-03-2019 09:05:00 -0.1 C 95 % -0.8 C
111 20-03-2019 09:10:00 0.1 C 95 % -0.6 C
112 20-03-2019 09:15:00 0.2 C 95 % -0.5 C
113 20-03-2019 09:20:00 0.3 C 95 % -0.4 C
114 20-03-2019 09:25:00 0.4 C 95 % -0.31 C
115 20-03-2019 09:30:00 0.6 C 95 % -0.11 C
116 20-03-2019 09:35:00 0.7 C 95 % -0.01 C
117 20-03-2019 09:40:00 0.8 C 95 % 0.09 C
118 20-03-2019 09:45:00 1.1 C 95 % 0.39 C
119 20-03-2019 09:50:00 1.3 C 95 % 0.59 C
120 20-03-2019 09:55:00 1.7 C 95 % 0.99 C
121 20-03-2019 10:00:00 2.1 C 95 % 1.38 C
122 20-03-2019 10:05:00 2.6 C 95 % 1.88 C
123 20-03-2019 10:10:00 3.1 C 94 % 2.23 C
124 20-03-2019 10:15:00 3.4 C 94 % 2.53 C
125 20-03-2019 10:20:00 3.8 C 93 % 2.77 C
Sensor: Nr:Datum:Temp:Feuchte:Taupunkt:
Aussen-T/F 126 20-03-2019 10:25:00 4.1 C 92 % 2.92 C
127 20-03-2019 10:30:00 4.3 C 90 % 2.81 C
128 20-03-2019 10:35:00 4.7 C 89 % 3.05 C
129 20-03-2019 10:40:00 5.1 C 87 % 3.12 C
130 20-03-2019 10:45:00 5.6 C 86 % 3.45 C
131 20-03-2019 10:50:00 6 C 83 % 3.34 C
132 20-03-2019 10:55:00 6.4 C 81 % 3.38 C
133 20-03-2019 11:00:00 6.8 C 78 % 3.24 C
134 20-03-2019 11:05:00 7.1 C 78 % 3.53 C
135 20-03-2019 11:10:00 7.4 C 77 % 3.64 C
136 20-03-2019 11:15:00 7.8 C 76 % 3.84 C
137 20-03-2019 11:20:00 8.2 C 73 % 3.66 C
138 20-03-2019 11:25:00 8.7 C 71 % 3.74 C
139 20-03-2019 11:30:00 9.2 C 69 % 3.82 C
140 20-03-2019 11:35:00 9.6 C 67 % 3.78 C
141 20-03-2019 11:40:00 10 C 64 % 3.51 C
142 20-03-2019 11:45:00 10.3 C 61 % 3.12 C
143 20-03-2019 11:50:00 10.6 C 59 % 2.93 C
144 20-03-2019 11:55:00 10.8 C 59 % 3.12 C
145 20-03-2019 12:00:00 11 C 59 % 3.31 C
146 20-03-2019 12:05:00 11.1 C 58 % 3.16 C
147 20-03-2019 12:10:00 11.2 C 58 % 3.25 C
148 20-03-2019 12:15:00 11.3 C 57 % 3.1 C
149 20-03-2019 12:20:00 11.4 C 58 % 3.44 C
150 20-03-2019 12:25:00 11.6 C 58 % 3.63 C
Sensor: Nr:Datum:Temp:Feuchte:Taupunkt:
Aussen-T/F 151 20-03-2019 12:30:00 11.8 C 56 % 3.32 C
152 20-03-2019 12:35:00 11.8 C 56 % 3.32 C
153 20-03-2019 12:40:00 12 C 56 % 3.51 C
154 20-03-2019 12:45:00 12.1 C 53 % 2.82 C
155 20-03-2019 12:50:00 12.1 C 54 % 3.09 C
156 20-03-2019 12:55:00 12.2 C 56 % 3.69 C
157 20-03-2019 13:00:00 12.3 C 54 % 3.27 C
158 20-03-2019 13:05:00 12.6 C 54 % 3.55 C
159 20-03-2019 13:10:00 12.8 C 55 % 4 C
160 20-03-2019 13:15:00 13 C 51 % 3.11 C
161 20-03-2019 13:20:00 13.2 C 49 % 2.73 C
162 20-03-2019 13:25:00 13.2 C 50 % 3.02 C
163 20-03-2019 13:30:00 13.2 C 46 % 1.85 C
164 20-03-2019 13:35:00 13.3 C 44 % 1.32 C
165 20-03-2019 13:40:00 13.4 C 46 % 2.03 C
166 20-03-2019 13:45:00 13.6 C 45 % 1.91 C
167 20-03-2019 13:50:00 13.6 C 43 % 1.27 C
168 20-03-2019 13:55:00 13.7 C 43 % 1.36 C
169 20-03-2019 14:00:00 13.8 C 43 % 1.45 C
170 20-03-2019 14:05:00 13.8 C 47 % 2.7 C
171 20-03-2019 14:10:00 13.8 C 48 % 2.99 C
172 20-03-2019 14:15:00 13.8 C 45 % 2.09 C
173 20-03-2019 14:20:00 13.8 C 47 % 2.7 C
174 20-03-2019 14:25:00 13.8 C 47 % 2.7 C
175 20-03-2019 14:30:00 13.8 C 46 % 2.4 C
Sensor: Nr:Datum:Temp:Feuchte:Taupunkt:
Aussen-T/F 176 20-03-2019 14:35:00 13.8 C 47 % 2.7 C
177 20-03-2019 14:40:00 13.8 C 46 % 2.4 C
178 20-03-2019 14:45:00 13.7 C 48 % 2.9 C
179 20-03-2019 14:50:00 13.6 C 46 % 2.21 C
180 20-03-2019 14:55:00 13.6 C 47 % 2.51 C
181 20-03-2019 15:00:00 13.5 C 48 % 2.72 C
182 20-03-2019 15:05:00 13.6 C 47 % 2.51 C
183 20-03-2019 15:10:00 13.6 C 48 % 2.81 C
184 20-03-2019 15:15:00 13.6 C 48 % 2.81 C
185 20-03-2019 15:20:00 13.6 C 47 % 2.51 C
186 20-03-2019 15:25:00 13.6 C 47 % 2.51 C
187 20-03-2019 15:30:00 13.6 C 48 % 2.81 C
188 20-03-2019 15:35:00 13.6 C 47 % 2.51 C
189 20-03-2019 15:40:00 13.7 C 48 % 2.9 C
190 20-03-2019 15:45:00 13.7 C 49 % 3.19 C
191 20-03-2019 15:50:00 13.8 C 47 % 2.7 C
192 20-03-2019 15:55:00 13.8 C 47 % 2.7 C
193 20-03-2019 16:00:00 13.8 C 48 % 2.99 C
194 20-03-2019 16:05:00 13.8 C 47 % 2.7 C
195 20-03-2019 16:10:00 13.9 C 48 % 3.08 C
196 20-03-2019 16:15:00 14 C 49 % 3.47 C
197 20-03-2019 16:20:00 14 C 48 % 3.18 C
198 20-03-2019 16:25:00 14.1 C 49 % 3.56 C
199 20-03-2019 16:30:00 14.1 C 49 % 3.56 C
200 20-03-2019 16:35:00 14.3 C 49 % 3.74 C
Sensor: Nr:Datum:Temp:Feuchte:Taupunkt:
Aussen-T/F 201 20-03-2019 16:40:00 14.4 C 48 % 3.54 C
202 20-03-2019 16:45:00 14.4 C 48 % 3.54 C
203 20-03-2019 16:50:00 14.3 C 47 % 3.15 C
204 20-03-2019 16:55:00 14.3 C 49 % 3.74 C
205 20-03-2019 17:00:00 14.6 C 49 % 4.02 C
206 20-03-2019 17:05:00 14.9 C 49 % 4.29 C
207 20-03-2019 17:10:00 15 C 46 % 3.49 C
208 20-03-2019 17:15:00 14.9 C 46 % 3.4 C
209 20-03-2019 17:20:00 14.8 C 46 % 3.31 C
210 20-03-2019 17:25:00 14.7 C 47 % 3.52 C
211 20-03-2019 17:30:00 14.7 C 47 % 3.52 C
212 20-03-2019 17:35:00 14.8 C 48 % 3.91 C
213 20-03-2019 17:40:00 14.8 C 54 % 5.59 C
214 20-03-2019 17:45:00 14.9 C 53 % 5.42 C
215 20-03-2019 17:50:00 15 C 54 % 5.78 C
216 20-03-2019 17:55:00 14.9 C 55 % 5.95 C
217 20-03-2019 18:00:00 14.7 C 56 % 6.02 C
218 20-03-2019 18:05:00 14.4 C 57 % 6 C
219 20-03-2019 18:10:00 13.7 C 58 % 5.6 C
220 20-03-2019 18:15:00 13.1 C 59 % 5.28 C
221 20-03-2019 18:20:00 12.6 C 61 % 5.29 C
222 20-03-2019 18:25:00 12.1 C 64 % 5.51 C
223 20-03-2019 18:30:00 11.5 C 65 % 5.16 C
224 20-03-2019 18:35:00 10.9 C 66 % 4.81 C
225 20-03-2019 18:40:00 10.4 C 67 % 4.55 C
Sensor: Nr:Datum:Temp:Feuchte:Taupunkt:
Aussen-T/F 226 20-03-2019 18:45:00 10.1 C 68 % 4.47 C
227 20-03-2019 18:50:00 9.7 C 69 % 4.3 C
228 20-03-2019 18:55:00 9.4 C 70 % 4.21 C
229 20-03-2019 19:00:00 9.3 C 71 % 4.32 C
230 20-03-2019 19:05:00 9.1 C 71 % 4.13 C
231 20-03-2019 19:10:00 9 C 72 % 4.23 C
232 20-03-2019 19:15:00 8.8 C 72 % 4.04 C
233 20-03-2019 19:20:00 8.6 C 73 % 4.04 C
234 20-03-2019 19:25:00 8.5 C 73 % 3.95 C
235 20-03-2019 19:30:00 8.4 C 73 % 3.85 C
236 20-03-2019 19:35:00 8.3 C 74 % 3.95 C
237 20-03-2019 19:40:00 8.2 C 75 % 4.04 C
238 20-03-2019 19:45:00 8.1 C 75 % 3.94 C
239 20-03-2019 19:50:00 7.9 C 75 % 3.75 C
240 20-03-2019 19:55:00 7.8 C 76 % 3.84 C
241 20-03-2019 20:00:00 7.7 C 77 % 3.93 C
242 20-03-2019 20:05:00 7.5 C 78 % 3.92 C
243 20-03-2019 20:10:00 7.3 C 78 % 3.73 C
244 20-03-2019 20:15:00 7.2 C 78 % 3.63 C
245 20-03-2019 20:20:00 7.1 C 78 % 3.53 C
246 20-03-2019 20:25:00 7 C 79 % 3.61 C
247 20-03-2019 20:30:00 6.8 C 79 % 3.42 C
248 20-03-2019 20:35:00 6.6 C 79 % 3.23 C
249 20-03-2019 20:40:00 6.4 C 80 % 3.21 C
250 20-03-2019 20:45:00 6.3 C 81 % 3.29 C
Sensor: Nr:Datum:Temp:Feuchte:Taupunkt:
Aussen-T/F 251 20-03-2019 20:50:00 6.2 C 82 % 3.36 C
252 20-03-2019 20:55:00 6.1 C 82 % 3.26 C
253 20-03-2019 21:00:00 6 C 82 % 3.17 C
254 20-03-2019 21:05:00 5.8 C 83 % 3.14 C
255 20-03-2019 21:10:00 5.7 C 84 % 3.21 C
256 20-03-2019 21:15:00 5.5 C 83 % 2.85 C
257 20-03-2019 21:20:00 5.4 C 83 % 2.75 C
258 20-03-2019 21:25:00 5.4 C 83 % 2.75 C
259 20-03-2019 21:30:00 5.4 C 83 % 2.75 C
260 20-03-2019 21:35:00 5.3 C 83 % 2.65 C
261 20-03-2019 21:40:00 5.3 C 84 % 2.82 C
262 20-03-2019 21:45:00 5.2 C 85 % 2.89 C
263 20-03-2019 21:50:00 5.1 C 85 % 2.79 C
264 20-03-2019 21:55:00 5.1 C 86 % 2.96 C
265 20-03-2019 22:00:00 5 C 85 % 2.69 C
266 20-03-2019 22:05:00 4.9 C 85 % 2.6 C
267 20-03-2019 22:10:00 4.8 C 85 % 2.5 C
268 20-03-2019 22:15:00 4.8 C 85 % 2.5 C
269 20-03-2019 22:20:00 4.8 C 86 % 2.66 C
270 20-03-2019 22:25:00 4.8 C 86 % 2.66 C
271 20-03-2019 22:30:00 4.8 C 86 % 2.66 C
272 20-03-2019 22:35:00 4.7 C 85 % 2.4 C
273 20-03-2019 22:40:00 4.6 C 86 % 2.47 C
274 20-03-2019 22:45:00 4.6 C 86 % 2.47 C
275 20-03-2019 22:50:00 4.6 C 86 % 2.47 C
Sensor: Nr:Datum:Temp:Feuchte:Taupunkt:
Aussen-T/F 276 20-03-2019 22:55:00 4.3 C 85 % 2.01 C
277 20-03-2019 23:00:00 4.2 C 86 % 2.07 C
278 20-03-2019 23:05:00 4.1 C 86 % 1.97 C
279 20-03-2019 23:10:00 3.9 C 87 % 1.94 C
280 20-03-2019 23:15:00 3.9 C 87 % 1.94 C
281 20-03-2019 23:20:00 3.8 C 87 % 1.84 C
282 20-03-2019 23:25:00 3.8 C 88 % 2 C
283 20-03-2019 23:30:00 3.8 C 88 % 2 C
284 20-03-2019 23:35:00 3.8 C 88 % 2 C
285 20-03-2019 23:40:00 3.7 C 88 % 1.9 C
286 20-03-2019 23:45:00 3.7 C 88 % 1.9 C
287 20-03-2019 23:50:00 3.6 C 88 % 1.8 C
288 20-03-2019 23:55:00 3.5 C 88 % 1.7 C
289 21-03-2019 00:00:00 3.4 C 88 % 1.61 C
290 21-03-2019 00:05:00 3.5 C 89 % 1.86 C
291 21-03-2019 00:10:00 3.5 C 89 % 1.86 C
292 21-03-2019 00:15:00 3.4 C 88 % 1.61 C
293 21-03-2019 00:20:00 3.3 C 88 % 1.51 C
294 21-03-2019 00:25:00 3.3 C 88 % 1.51 C
295 21-03-2019 00:30:00 3.3 C 89 % 1.67 C
296 21-03-2019 00:35:00 3.3 C 89 % 1.67 C
297 21-03-2019 00:40:00 3.2 C 89 % 1.57 C
298 21-03-2019 00:45:00 3.2 C 89 % 1.57 C
299 21-03-2019 00:50:00 3.2 C 89 % 1.57 C
300 21-03-2019 00:55:00 3.2 C 89 % 1.57 C
Sensor: Nr:Datum:Temp:Feuchte:Taupunkt:
Aussen-T/F 301 21-03-2019 01:00:00 3.1 C 88 % 1.31 C
302 21-03-2019 01:05:00 2.9 C 88 % 1.11 C
303 21-03-2019 01:10:00 2.8 C 89 % 1.17 C
304 21-03-2019 01:15:00 2.7 C 88 % 0.92 C
305 21-03-2019 01:20:00 2.6 C 89 % 0.97 C
306 21-03-2019 01:25:00 2.6 C 89 % 0.97 C
307 21-03-2019 01:30:00 2.4 C 89 % 0.78 C
308 21-03-2019 01:35:00 2.4 C 90 % 0.93 C
309 21-03-2019 01:40:00 2.3 C 89 % 0.68 C
310 21-03-2019 01:45:00 2.3 C 90 % 0.83 C
311 21-03-2019 01:50:00 2.3 C 90 % 0.83 C
312 21-03-2019 01:55:00 2.2 C 90 % 0.73 C
313 21-03-2019 02:00:00 2 C 90 % 0.54 C
314 21-03-2019 02:05:00 1.9 C 90 % 0.44 C
315 21-03-2019 02:10:00 1.8 C 90 % 0.34 C
316 21-03-2019 02:15:00 1.8 C 91 % 0.49 C
317 21-03-2019 02:20:00 1.8 C 91 % 0.49 C
318 21-03-2019 02:25:00 1.8 C 91 % 0.49 C
319 21-03-2019 02:30:00 1.8 C 91 % 0.49 C
320 21-03-2019 02:35:00 1.9 C 92 % 0.74 C
321 21-03-2019 02:40:00 1.9 C 92 % 0.74 C
322 21-03-2019 02:45:00 1.8 C 91 % 0.49 C
323 21-03-2019 02:50:00 1.7 C 91 % 0.39 C
324 21-03-2019 02:55:00 1.6 C 91 % 0.29 C
325 21-03-2019 03:00:00 1.6 C 91 % 0.29 C
Sensor: Nr:Datum:Temp:Feuchte:Taupunkt:
Aussen-T/F 326 21-03-2019 03:05:00 1.5 C 91 % 0.19 C
327 21-03-2019 03:10:00 1.5 C 92 % 0.35 C
328 21-03-2019 03:15:00 1.4 C 92 % 0.25 C
329 21-03-2019 03:20:00 1.4 C 92 % 0.25 C
330 21-03-2019 03:25:00 1.3 C 92 % 0.15 C
331 21-03-2019 03:30:00 1.2 C 92 % 0.05 C
332 21-03-2019 03:35:00 1.2 C 92 % 0.05 C
333 21-03-2019 03:40:00 1.2 C 92 % 0.05 C
334 21-03-2019 03:45:00 1.2 C 92 % 0.05 C
335 21-03-2019 03:50:00 1.1 C 92 % -0.05 C
336 21-03-2019 03:55:00 1.1 C 92 % -0.05 C
337 21-03-2019 04:00:00 1.1 C 93 % 0.1 C
338 21-03-2019 04:05:00 1 C 93 % 0 C
339 21-03-2019 04:10:00 0.9 C 92 % -0.25 C
340 21-03-2019 04:15:00 0.9 C 93 % -0.1 C
341 21-03-2019 04:20:00 0.9 C 93 % -0.1 C
342 21-03-2019 04:25:00 1 C 93 % 0 C
343 21-03-2019 04:30:00 1.1 C 93 % 0.1 C
344 21-03-2019 04:35:00 1.2 C 93 % 0.2 C
345 21-03-2019 04:40:00 1.2 C 93 % 0.2 C
346 21-03-2019 04:45:00 1.1 C 93 % 0.1 C
347 21-03-2019 04:50:00 0.8 C 92 % -0.35 C
348 21-03-2019 04:55:00 0.7 C 93 % -0.3 C
349 21-03-2019 05:00:00 0.7 C 93 % -0.3 C
350 21-03-2019 05:05:00 0.7 C 93 % -0.3 C
Sensor: Nr:Datum:Temp:Feuchte:Taupunkt:
Aussen-T/F 351 21-03-2019 05:10:00 0.6 C 93 % -0.4 C
352 21-03-2019 05:15:00 0.6 C 93 % -0.4 C
353 21-03-2019 05:20:00 0.7 C 94 % -0.15 C
354 21-03-2019 05:25:00 0.7 C 94 % -0.15 C
355 21-03-2019 05:30:00 0.8 C 94 % -0.05 C
356 21-03-2019 05:35:00 0.7 C 94 % -0.15 C
357 21-03-2019 05:40:00 0.6 C 93 % -0.4 C
358 21-03-2019 05:45:00 0.5 C 93 % -0.5 C
359 21-03-2019 05:50:00 0.4 C 93 % -0.6 C
360 21-03-2019 05:55:00 0.4 C 93 % -0.6 C
361 21-03-2019 06:00:00 0.3 C 93 % -0.7 C
362 21-03-2019 06:05:00 0.3 C 94 % -0.55 C
363 21-03-2019 06:10:00 0.3 C 94 % -0.55 C
364 21-03-2019 06:15:00 0.5 C 94 % -0.35 C
365 21-03-2019 06:20:00 0.5 C 94 % -0.35 C
366 21-03-2019 06:25:00 0.4 C 94 % -0.45 C
367 21-03-2019 06:30:00 0.4 C 94 % -0.45 C
368 21-03-2019 06:35:00 0.3 C 94 % -0.55 C
369 21-03-2019 06:40:00 0.3 C 94 % -0.55 C
370 21-03-2019 06:45:00 0.2 C 94 % -0.65 C
371 21-03-2019 06:50:00 0.2 C 94 % -0.65 C
372 21-03-2019 06:55:00 0.3 C 94 % -0.55 C
373 21-03-2019 07:00:00 0.3 C 94 % -0.55 C
374 21-03-2019 07:05:00 0.3 C 94 % -0.55 C
375 21-03-2019 07:10:00 0.3 C 94 % -0.55 C
Sensor: Nr:Datum:Temp:Feuchte:Taupunkt:
Aussen-T/F 376 21-03-2019 07:15:00 0.3 C 94 % -0.55 C
377 21-03-2019 07:20:00 0.4 C 94 % -0.45 C
378 21-03-2019 07:25:00 0.7 C 95 % -0.01 C
379 21-03-2019 07:30:00 0.8 C 95 % 0.09 C
380 21-03-2019 07:35:00 0.8 C 95 % 0.09 C
381 21-03-2019 07:40:00 0.8 C 95 % 0.09 C
382 21-03-2019 07:45:00 0.8 C 94 % -0.05 C
383 21-03-2019 07:50:00 0.8 C 94 % -0.05 C
384 21-03-2019 07:55:00 0.9 C 94 % 0.05 C
385 21-03-2019 08:00:00 0.9 C 94 % 0.05 C
386 21-03-2019 08:05:00 0.9 C 95 % 0.19 C
387 21-03-2019 08:10:00 1 C 95 % 0.29 C
388 21-03-2019 08:15:00 1.1 C 95 % 0.39 C
389 21-03-2019 08:20:00 1.1 C 95 % 0.39 C
390 21-03-2019 08:25:00 1.2 C 95 % 0.49 C
391 21-03-2019 08:30:00 1.3 C 95 % 0.59 C
392 21-03-2019 08:35:00 1.3 C 95 % 0.59 C
393 21-03-2019 08:40:00 1.4 C 95 % 0.69 C
394 21-03-2019 08:45:00 1.4 C 95 % 0.69 C
395 21-03-2019 08:50:00 1.6 C 95 % 0.89 C
396 21-03-2019 08:55:00 1.7 C 95 % 0.99 C
397 21-03-2019 09:00:00 1.8 C 95 % 1.09 C
398 21-03-2019 09:05:00 1.8 C 95 % 1.09 C
399 21-03-2019 09:10:00 1.9 C 95 % 1.19 C
400 21-03-2019 09:15:00 2.1 C 95 % 1.38 C
Sensor: Nr:Datum:Temp:Feuchte:Taupunkt:
Aussen-T/F 401 21-03-2019 09:20:00 2.2 C 95 % 1.48 C
402 21-03-2019 09:25:00 2.3 C 95 % 1.58 C
403 21-03-2019 09:30:00 2.5 C 95 % 1.78 C
404 21-03-2019 09:35:00 2.6 C 95 % 1.88 C
405 21-03-2019 09:40:00 2.8 C 95 % 2.08 C
406 21-03-2019 09:45:00 3.1 C 95 % 2.38 C
407 21-03-2019 09:50:00 3.3 C 95 % 2.58 C
408 21-03-2019 09:55:00 3.7 C 95 % 2.98 C
409 21-03-2019 10:00:00 4 C 95 % 3.27 C
410 21-03-2019 10:05:00 4.3 C 95 % 3.57 C
411 21-03-2019 10:10:00 4.6 C 94 % 3.72 C
412 21-03-2019 10:15:00 4.8 C 93 % 3.77 C
413 21-03-2019 10:20:00 5.1 C 92 % 3.91 C
414 21-03-2019 10:25:00 5.4 C 91 % 4.05 C
415 21-03-2019 10:30:00 5.7 C 90 % 4.19 C
416 21-03-2019 10:35:00 5.9 C 89 % 4.23 C
417 21-03-2019 10:40:00 6.2 C 88 % 4.36 C
418 21-03-2019 10:45:00 6.5 C 87 % 4.5 C
419 21-03-2019 10:50:00 6.8 C 86 % 4.63 C
420 21-03-2019 10:55:00 7.2 C 85 % 4.85 C
421 21-03-2019 11:00:00 7.4 C 85 % 5.05 C
422 21-03-2019 11:05:00 7.7 C 84 % 5.17 C
423 21-03-2019 11:10:00 8.1 C 82 % 5.22 C
424 21-03-2019 11:15:00 8.5 C 82 % 5.61 C
425 21-03-2019 11:20:00 8.8 C 79 % 5.36 C
Sensor: Nr:Datum:Temp:Feuchte:Taupunkt:
Aussen-T/F 426 21-03-2019 11:25:00 9.2 C 80 % 5.94 C
427 21-03-2019 11:30:00 9.4 C 75 % 5.2 C
428 21-03-2019 11:35:00 9.7 C 74 % 5.3 C
429 21-03-2019 11:40:00 10.1 C 70 % 4.89 C
430 21-03-2019 11:45:00 10.4 C 69 % 4.97 C
431 21-03-2019 11:50:00 10.8 C 65 % 4.49 C
432 21-03-2019 11:55:00 11.2 C 62 % 4.2 C
433 21-03-2019 12:00:00 11.6 C 61 % 4.35 C
434 21-03-2019 12:05:00 11.9 C 60 % 4.39 C
435 21-03-2019 12:10:00 12.1 C 57 % 3.85 C
436 21-03-2019 12:15:00 12.4 C 57 % 4.13 C
437 21-03-2019 12:20:00 12.7 C 56 % 4.16 C
438 21-03-2019 12:25:00 13 C 56 % 4.44 C
439 21-03-2019 12:30:00 13.2 C 54 % 4.11 C
440 21-03-2019 12:35:00 13.4 C 56 % 4.81 C
441 21-03-2019 12:40:00 13.6 C 48 % 2.81 C
442 21-03-2019 12:45:00 13.8 C 50 % 3.57 C
443 21-03-2019 12:50:00 14 C 46 % 2.58 C
444 21-03-2019 12:55:00 14.2 C 46 % 2.76 C
445 21-03-2019 13:00:00 14.4 C 47 % 3.25 C
446 21-03-2019 13:05:00 14.8 C 44 % 2.68 C
447 21-03-2019 13:10:00 15.1 C 45 % 3.27 C
448 21-03-2019 13:15:00 15.2 C 44 % 3.04 C
449 21-03-2019 13:20:00 15.3 C 46 % 3.76 C
450 21-03-2019 13:25:00 15.4 C 43 % 2.9 C
Sensor: Nr:Datum:Temp:Feuchte:Taupunkt:
Aussen-T/F 451 21-03-2019 13:30:00 15.4 C 43 % 2.9 C
452 21-03-2019 13:35:00 15.6 C 43 % 3.08 C
453 21-03-2019 13:40:00 15.8 C 41 % 2.59 C
454 21-03-2019 13:45:00 15.9 C 43 % 3.35 C
455 21-03-2019 13:50:00 16.1 C 42 % 3.2 C
456 21-03-2019 13:55:00 16.2 C 41 % 2.95 C
457 21-03-2019 14:00:00 16.2 C 39 % 2.25 C
458 21-03-2019 14:05:00 16.3 C 39 % 2.34 C
459 21-03-2019 14:10:00 16.3 C 39 % 2.34 C
460 21-03-2019 14:15:00 16.3 C 41 % 3.04 C
461 21-03-2019 14:20:00 16.3 C 40 % 2.69 C
462 21-03-2019 14:25:00 16.3 C 38 % 1.97 C
463 21-03-2019 14:30:00 16.2 C 39 % 2.25 C
464 21-03-2019 14:35:00 16.3 C 39 % 2.34 C
465 21-03-2019 14:40:00 16.2 C 39 % 2.25 C
466 21-03-2019 14:45:00 16.2 C 39 % 2.25 C
467 21-03-2019 14:50:00 16.1 C 41 % 2.86 C
468 21-03-2019 14:55:00 16.1 C 40 % 2.51 C
469 21-03-2019 15:00:00 16.1 C 39 % 2.16 C
470 21-03-2019 15:05:00 16.2 C 39 % 2.25 C
471 21-03-2019 15:10:00 16.3 C 40 % 2.69 C
472 21-03-2019 15:15:00 16.3 C 39 % 2.34 C
473 21-03-2019 15:20:00 16.3 C 40 % 2.69 C
474 21-03-2019 15:25:00 16.3 C 39 % 2.34 C
475 21-03-2019 15:30:00 16.4 C 39 % 2.43 C
Sensor: Nr:Datum:Temp:Feuchte:Taupunkt:
Aussen-T/F 476 21-03-2019 15:35:00 16.6 C 39 % 2.6 C
477 21-03-2019 15:40:00 16.6 C 39 % 2.6 C
478 21-03-2019 15:45:00 16.6 C 38 % 2.24 C
479 21-03-2019 15:50:00 16.7 C 38 % 2.33 C
480 21-03-2019 15:55:00 16.8 C 39 % 2.78 C
481 21-03-2019 16:00:00 16.9 C 38 % 2.51 C
482 21-03-2019 16:05:00 17.2 C 39 % 3.14 C
483 21-03-2019 16:10:00 17.3 C 38 % 2.86 C
484 21-03-2019 16:15:00 17.3 C 39 % 3.23 C
485 21-03-2019 16:20:00 17.4 C 38 % 2.95 C
486 21-03-2019 16:25:00 17.6 C 38 % 3.13 C
487 21-03-2019 16:30:00 17.7 C 37 % 2.84 C
488 21-03-2019 16:35:00 17.8 C 37 % 2.93 C
489 21-03-2019 16:40:00 17.9 C 37 % 3.02 C
490 21-03-2019 16:45:00 18.1 C 38 % 3.57 C
491 21-03-2019 16:50:00 18.1 C 37 % 3.2 C
492 21-03-2019 16:55:00 18.2 C 37 % 3.29 C
493 21-03-2019 17:00:00 18.2 C 36 % 2.9 C
494 21-03-2019 17:05:00 18.2 C 36 % 2.9 C
495 21-03-2019 17:10:00 18.2 C 36 % 2.9 C
496 21-03-2019 17:15:00 18.3 C 35 % 2.59 C
497 21-03-2019 17:20:00 18.2 C 37 % 3.29 C
498 21-03-2019 17:25:00 18.1 C 36 % 2.81 C
499 21-03-2019 17:30:00 18 C 37 % 3.11 C
500 21-03-2019 17:35:00 17.9 C 37 % 3.02 C
Sensor: Nr:Datum:Temp:Feuchte:Taupunkt:
Aussen-T/F 501 21-03-2019 17:40:00 17.9 C 38 % 3.4 C
502 21-03-2019 17:45:00 17.8 C 42 % 4.73 C
503 21-03-2019 17:50:00 17.8 C 44 % 5.4 C
504 21-03-2019 17:55:00 17.6 C 42 % 4.55 C
505 21-03-2019 18:00:00 17.4 C 46 % 5.67 C
506 21-03-2019 18:05:00 17.1 C 47 % 5.71 C
507 21-03-2019 18:10:00 16.6 C 48 % 5.56 C
508 21-03-2019 18:15:00 16 C 50 % 5.59 C
509 21-03-2019 18:20:00 15.3 C 51 % 5.23 C
510 21-03-2019 18:25:00 14.8 C 52 % 5.05 C
511 21-03-2019 18:30:00 14.2 C 54 % 5.04 C
512 21-03-2019 18:35:00 13.7 C 55 % 4.83 C
513 21-03-2019 18:40:00 13.3 C 56 % 4.72 C
514 21-03-2019 18:45:00 12.9 C 57 % 4.6 C
515 21-03-2019 18:50:00 12.6 C 57 % 4.32 C
516 21-03-2019 18:55:00 12.3 C 59 % 4.53 C
517 21-03-2019 19:00:00 12.1 C 59 % 4.34 C
518 21-03-2019 19:05:00 11.9 C 60 % 4.39 C
519 21-03-2019 19:10:00 11.7 C 61 % 4.44 C
520 21-03-2019 19:15:00 11.4 C 62 % 4.39 C
521 21-03-2019 19:20:00 11.2 C 63 % 4.43 C
522 21-03-2019 19:25:00 10.9 C 64 % 4.37 C
523 21-03-2019 19:30:00 10.8 C 66 % 4.71 C
524 21-03-2019 19:35:00 10.6 C 66 % 4.52 C
525 21-03-2019 19:40:00 10.4 C 66 % 4.33 C
Sensor: Nr:Datum:Temp:Feuchte:Taupunkt:
Aussen-T/F 526 21-03-2019 19:45:00 10.3 C 67 % 4.45 C
527 21-03-2019 19:50:00 10.2 C 68 % 4.57 C
528 21-03-2019 19:55:00 10.1 C 69 % 4.68 C
529 21-03-2019 20:00:00 9.8 C 69 % 4.39 C
530 21-03-2019 20:05:00 9.7 C 70 % 4.5 C
531 21-03-2019 20:10:00 9.6 C 70 % 4.41 C
532 21-03-2019 20:15:00 9.4 C 72 % 4.62 C
533 21-03-2019 20:20:00 9.3 C 72 % 4.52 C
534 21-03-2019 20:25:00 9.2 C 72 % 4.42 C
535 21-03-2019 20:30:00 9.2 C 72 % 4.42 C
536 21-03-2019 20:35:00 9.1 C 72 % 4.33 C
537 21-03-2019 20:40:00 9 C 73 % 4.43 C
538 21-03-2019 20:45:00 8.8 C 72 % 4.04 C
539 21-03-2019 20:50:00 8.8 C 73 % 4.24 C
540 21-03-2019 20:55:00 8.6 C 74 % 4.24 C
541 21-03-2019 21:00:00 8.4 C 74 % 4.04 C
542 21-03-2019 21:05:00 8.3 C 74 % 3.95 C
543 21-03-2019 21:10:00 8.2 C 74 % 3.85 C
544 21-03-2019 21:15:00 8.1 C 74 % 3.75 C
545 21-03-2019 21:20:00 7.8 C 73 % 3.27 C
546 21-03-2019 21:25:00 7.7 C 74 % 3.37 C
547 21-03-2019 21:30:00 7.6 C 73 % 3.08 C
548 21-03-2019 21:35:00 7.6 C 73 % 3.08 C
549 21-03-2019 21:40:00 7.3 C 75 % 3.17 C
550 21-03-2019 21:45:00 7.2 C 77 % 3.45 C
Sensor: Nr:Datum:Temp:Feuchte:Taupunkt:
Aussen-T/F 551 21-03-2019 21:50:00 6.9 C 78 % 3.34 C
552 21-03-2019 21:55:00 6.7 C 79 % 3.32 C
553 21-03-2019 22:00:00 6.5 C 78 % 2.95 C
554 21-03-2019 22:05:00 6.5 C 78 % 2.95 C
555 21-03-2019 22:10:00 6.6 C 78 % 3.05 C
556 21-03-2019 22:15:00 6.6 C 76 % 2.68 C
557 21-03-2019 22:20:00 6.6 C 76 % 2.68 C
558 21-03-2019 22:25:00 6.4 C 77 % 2.67 C
559 21-03-2019 22:30:00 6.1 C 78 % 2.56 C
560 21-03-2019 22:35:00 5.8 C 79 % 2.45 C
561 21-03-2019 22:40:00 5.7 C 81 % 2.7 C
562 21-03-2019 22:45:00 5.7 C 81 % 2.7 C
563 21-03-2019 22:50:00 5.7 C 81 % 2.7 C
564 21-03-2019 22:55:00 5.7 C 81 % 2.7 C
565 21-03-2019 23:00:00 5.6 C 81 % 2.6 C
566 21-03-2019 23:05:00 5.6 C 81 % 2.6 C
567 21-03-2019 23:10:00 5.6 C 81 % 2.6 C
568 21-03-2019 23:15:00 5.4 C 81 % 2.41 C
569 21-03-2019 23:20:00 5.4 C 81 % 2.41 C
570 21-03-2019 23:25:00 5.3 C 82 % 2.48 C
571 21-03-2019 23:30:00 5.2 C 82 % 2.39 C
572 21-03-2019 23:35:00 5.1 C 83 % 2.46 C
573 21-03-2019 23:40:00 5.1 C 83 % 2.46 C
574 21-03-2019 23:45:00 5 C 83 % 2.36 C
575 21-03-2019 23:50:00 5 C 83 % 2.36 C
Sensor: Nr:Datum:Temp:Feuchte:Taupunkt:
Aussen-T/F 576 21-03-2019 23:55:00 4.9 C 83 % 2.26 C
577 22-03-2019 00:00:00 4.8 C 83 % 2.16 C
578 22-03-2019 00:05:00 4.7 C 84 % 2.23 C
579 22-03-2019 00:10:00 4.7 C 84 % 2.23 C
580 22-03-2019 00:15:00 4.7 C 84 % 2.23 C
581 22-03-2019 00:20:00 4.6 C 84 % 2.14 C
582 22-03-2019 00:25:00 4.4 C 85 % 2.11 C
583 22-03-2019 00:30:00 4.3 C 85 % 2.01 C
584 22-03-2019 00:35:00 4.3 C 85 % 2.01 C
585 22-03-2019 00:40:00 4.2 C 85 % 1.91 C
586 22-03-2019 00:45:00 4.1 C 86 % 1.97 C
587 22-03-2019 00:50:00 4.2 C 86 % 2.07 C
588 22-03-2019 00:55:00 4.1 C 86 % 1.97 C
589 22-03-2019 01:00:00 4 C 86 % 1.88 C
590 22-03-2019 01:05:00 4 C 86 % 1.88 C
591 22-03-2019 01:10:00 3.9 C 86 % 1.78 C
592 22-03-2019 01:15:00 3.8 C 86 % 1.68 C
593 22-03-2019 01:20:00 3.7 C 87 % 1.74 C
594 22-03-2019 01:25:00 3.6 C 88 % 1.8 C
595 22-03-2019 01:30:00 3.7 C 88 % 1.9 C
596 22-03-2019 01:35:00 3.6 C 88 % 1.8 C
597 22-03-2019 01:40:00 3.6 C 88 % 1.8 C
598 22-03-2019 01:45:00 3.6 C 88 % 1.8 C
599 22-03-2019 01:50:00 3.4 C 88 % 1.61 C
600 22-03-2019 01:55:00 3.4 C 88 % 1.61 C
Sensor: Nr:Datum:Temp:Feuchte:Taupunkt:
Aussen-T/F 601 22-03-2019 02:00:00 3.4 C 88 % 1.61 C
602 22-03-2019 02:05:00 3.4 C 88 % 1.61 C
603 22-03-2019 02:10:00 3.3 C 88 % 1.51 C
604 22-03-2019 02:15:00 3.2 C 88 % 1.41 C
605 22-03-2019 02:20:00 3.2 C 88 % 1.41 C
606 22-03-2019 02:25:00 3.1 C 88 % 1.31 C
607 22-03-2019 02:30:00 3 C 88 % 1.21 C
608 22-03-2019 02:35:00 2.9 C 88 % 1.11 C
609 22-03-2019 02:40:00 2.8 C 89 % 1.17 C
610 22-03-2019 02:45:00 2.7 C 89 % 1.07 C
611 22-03-2019 02:50:00 2.7 C 89 % 1.07 C
612 22-03-2019 02:55:00 2.7 C 90 % 1.23 C
613 22-03-2019 03:00:00 2.7 C 90 % 1.23 C
614 22-03-2019 03:05:00 2.6 C 89 % 0.97 C
615 22-03-2019 03:10:00 2.4 C 89 % 0.78 C
616 22-03-2019 03:15:00 2.3 C 89 % 0.68 C
617 22-03-2019 03:20:00 2.2 C 90 % 0.73 C
618 22-03-2019 03:25:00 2.2 C 91 % 0.89 C
619 22-03-2019 03:30:00 2.3 C 91 % 0.99 C
620 22-03-2019 03:35:00 2.2 C 90 % 0.73 C
621 22-03-2019 03:40:00 2.1 C 90 % 0.64 C
622 22-03-2019 03:45:00 1.9 C 90 % 0.44 C
623 22-03-2019 03:50:00 1.8 C 91 % 0.49 C
624 22-03-2019 03:55:00 1.8 C 91 % 0.49 C
625 22-03-2019 04:00:00 1.9 C 92 % 0.74 C
Sensor: Nr:Datum:Temp:Feuchte:Taupunkt:
Aussen-T/F 626 22-03-2019 04:05:00 1.9 C 91 % 0.59 C
627 22-03-2019 04:10:00 1.9 C 92 % 0.74 C
628 22-03-2019 04:15:00 1.8 C 91 % 0.49 C
629 22-03-2019 04:20:00 1.8 C 92 % 0.64 C
630 22-03-2019 04:25:00 1.7 C 92 % 0.54 C
631 22-03-2019 04:30:00 1.7 C 92 % 0.54 C
632 22-03-2019 04:35:00 1.7 C 92 % 0.54 C
633 22-03-2019 04:40:00 1.6 C 92 % 0.44 C
634 22-03-2019 04:45:00 1.6 C 92 % 0.44 C
635 22-03-2019 04:50:00 1.6 C 93 % 0.59 C
636 22-03-2019 04:55:00 1.7 C 93 % 0.69 C
637 22-03-2019 05:00:00 1.7 C 93 % 0.69 C
638 22-03-2019 05:05:00 1.8 C 93 % 0.79 C
639 22-03-2019 05:10:00 1.7 C 92 % 0.54 C
640 22-03-2019 05:15:00 1.6 C 93 % 0.59 C
641 22-03-2019 05:20:00 1.7 C 93 % 0.69 C
642 22-03-2019 05:25:00 1.6 C 93 % 0.59 C
643 22-03-2019 05:30:00 1.6 C 93 % 0.59 C
644 22-03-2019 05:35:00 1.5 C 93 % 0.49 C
645 22-03-2019 05:40:00 1.4 C 93 % 0.4 C
646 22-03-2019 05:45:00 1.3 C 93 % 0.3 C
647 22-03-2019 05:50:00 1.3 C 93 % 0.3 C
648 22-03-2019 05:55:00 1.2 C 93 % 0.2 C
649 22-03-2019 06:00:00 1.3 C 93 % 0.3 C
650 22-03-2019 06:05:00 1.3 C 93 % 0.3 C
Sensor: Nr:Datum:Temp:Feuchte:Taupunkt:
Aussen-T/F 651 22-03-2019 06:10:00 1.3 C 93 % 0.3 C
652 22-03-2019 06:15:00 1.3 C 93 % 0.3 C
653 22-03-2019 06:20:00 1.2 C 93 % 0.2 C
654 22-03-2019 06:25:00 1.1 C 93 % 0.1 C
655 22-03-2019 06:30:00 1 C 93 % 0 C
656 22-03-2019 06:35:00 0.8 C 93 % -0.2 C
657 22-03-2019 06:40:00 0.8 C 93 % -0.2 C
658 22-03-2019 06:45:00 0.8 C 93 % -0.2 C
659 22-03-2019 06:50:00 0.9 C 94 % 0.05 C
660 22-03-2019 06:55:00 1 C 94 % 0.15 C
661 22-03-2019 07:00:00 1.2 C 94 % 0.34 C
662 22-03-2019 07:05:00 1.2 C 94 % 0.34 C
663 22-03-2019 07:10:00 1.2 C 94 % 0.34 C
664 22-03-2019 07:15:00 1.2 C 94 % 0.34 C
665 22-03-2019 07:20:00 1.3 C 94 % 0.44 C
666 22-03-2019 07:25:00 1.3 C 94 % 0.44 C
667 22-03-2019 07:30:00 1.2 C 94 % 0.34 C
668 22-03-2019 07:35:00 1.2 C 94 % 0.34 C
669 22-03-2019 07:40:00 1.2 C 94 % 0.34 C
670 22-03-2019 07:45:00 1.3 C 94 % 0.44 C
671 22-03-2019 07:50:00 1.3 C 94 % 0.44 C
672 22-03-2019 07:55:00 1.3 C 94 % 0.44 C
673 22-03-2019 08:00:00 1.4 C 94 % 0.54 C
674 22-03-2019 08:05:00 1.5 C 95 % 0.79 C
675 22-03-2019 08:10:00 1.7 C 95 % 0.99 C
Sensor: Nr:Datum:Temp:Feuchte:Taupunkt:
Aussen-T/F 676 22-03-2019 08:15:00 1.7 C 95 % 0.99 C
677 22-03-2019 08:20:00 1.8 C 95 % 1.09 C
678 22-03-2019 08:25:00 1.9 C 95 % 1.19 C
679 22-03-2019 08:30:00 1.9 C 95 % 1.19 C
680 22-03-2019 08:35:00 2.1 C 95 % 1.38 C
681 22-03-2019 08:40:00 2.2 C 95 % 1.48 C
682 22-03-2019 08:45:00 2.3 C 95 % 1.58 C
683 22-03-2019 08:50:00 2.4 C 95 % 1.68 C
684 22-03-2019 08:55:00 2.6 C 95 % 1.88 C
685 22-03-2019 09:00:00 2.7 C 95 % 1.98 C
686 22-03-2019 09:05:00 2.8 C 95 % 2.08 C
687 22-03-2019 09:10:00 2.9 C 95 % 2.18 C
688 22-03-2019 09:15:00 3.1 C 95 % 2.38 C
689 22-03-2019 09:20:00 3.3 C 95 % 2.58 C
690 22-03-2019 09:25:00 3.5 C 96 % 2.92 C
691 22-03-2019 09:30:00 3.7 C 95 % 2.98 C
692 22-03-2019 09:35:00 3.9 C 96 % 3.32 C
693 22-03-2019 09:40:00 4.2 C 96 % 3.62 C
694 22-03-2019 09:45:00 4.5 C 95 % 3.77 C
695 22-03-2019 09:50:00 4.8 C 96 % 4.22 C
696 22-03-2019 09:55:00 5.1 C 95 % 4.37 C
697 22-03-2019 10:00:00 5.4 C 94 % 4.51 C
698 22-03-2019 10:05:00 5.7 C 94 % 4.81 C
699 22-03-2019 10:10:00 6 C 93 % 4.96 C
700 22-03-2019 10:15:00 6.3 C 92 % 5.1 C
Sensor: Nr:Datum:Temp:Feuchte:Taupunkt:
Aussen-T/F 701 22-03-2019 10:20:00 6.5 C 92 % 5.3 C
702 22-03-2019 10:25:00 6.8 C 91 % 5.44 C
703 22-03-2019 10:30:00 7.1 C 90 % 5.57 C
704 22-03-2019 10:35:00 7.4 C 90 % 5.87 C
705 22-03-2019 10:40:00 7.8 C 89 % 6.1 C
706 22-03-2019 10:45:00 8.2 C 88 % 6.33 C
707 22-03-2019 10:50:00 8.6 C 86 % 6.39 C
708 22-03-2019 10:55:00 9 C 83 % 6.27 C
709 22-03-2019 11:00:00 9.4 C 82 % 6.49 C
710 22-03-2019 11:05:00 9.8 C 81 % 6.7 C
711 22-03-2019 11:10:00 10.3 C 78 % 6.64 C
712 22-03-2019 11:15:00 10.9 C 75 % 6.65 C
713 22-03-2019 11:20:00 11.3 C 74 % 6.84 C
714 22-03-2019 11:25:00 11.7 C 72 % 6.83 C
715 22-03-2019 11:30:00 12.1 C 71 % 7.01 C
716 22-03-2019 11:35:00 12.4 C 70 % 7.09 C
717 22-03-2019 11:40:00 12.7 C 70 % 7.38 C
718 22-03-2019 11:45:00 13 C 68 % 7.24 C
719 22-03-2019 11:50:00 13.3 C 68 % 7.53 C
720 22-03-2019 11:55:00 13.6 C 66 % 7.38 C
721 22-03-2019 12:00:00 13.9 C 62 % 6.75 C
722 22-03-2019 12:05:00 14.3 C 62 % 7.13 C
723 22-03-2019 12:10:00 14.6 C 60 % 6.93 C
724 22-03-2019 12:15:00 14.9 C 55 % 5.95 C
725 22-03-2019 12:20:00 15.2 C 54 % 5.96 C
Sensor: Nr:Datum:Temp:Feuchte:Taupunkt:
Aussen-T/F 726 22-03-2019 12:25:00 15.6 C 53 % 6.06 C
727 22-03-2019 12:30:00 15.9 C 50 % 5.5 C
728 22-03-2019 12:35:00 16.2 C 52 % 6.34 C
729 22-03-2019 12:40:00 16.4 C 50 % 5.96 C
730 22-03-2019 12:45:00 16.8 C 47 % 5.44 C
731 22-03-2019 12:50:00 16.9 C 46 % 5.22 C
732 22-03-2019 12:55:00 17.1 C 46 % 5.4 C
733 22-03-2019 13:00:00 17.3 C 45 % 5.27 C
734 22-03-2019 13:05:00 17.6 C 43 % 4.89 C
735 22-03-2019 13:10:00 17.8 C 44 % 5.4 C
736 22-03-2019 13:15:00 17.9 C 43 % 5.16 C
737 22-03-2019 13:20:00 17.9 C 45 % 5.81 C
738 22-03-2019 13:25:00 18 C 42 % 4.91 C
739 22-03-2019 13:30:00 18.1 C 41 % 4.66 C
740 22-03-2019 13:35:00 18.2 C 42 % 5.09 C
741 22-03-2019 13:40:00 18.3 C 39 % 4.12 C
742 22-03-2019 13:45:00 18.4 C 39 % 4.21 C
743 22-03-2019 13:50:00 18.8 C 40 % 4.93 C
744 22-03-2019 13:55:00 19.1 C 39 % 4.84 C
745 22-03-2019 14:00:00 19.2 C 38 % 4.55 C
746 22-03-2019 14:05:00 19.3 C 36 % 3.87 C
747 22-03-2019 14:10:00 19.4 C 37 % 4.35 C
748 22-03-2019 14:15:00 19.3 C 36 % 3.87 C
749 22-03-2019 14:20:00 19.2 C 38 % 4.55 C
750 22-03-2019 14:25:00 19.2 C 35 % 3.38 C
Sensor: Nr:Datum:Temp:Feuchte:Taupunkt:
Aussen-T/F 751 22-03-2019 14:30:00 19.3 C 35 % 3.47 C
752 22-03-2019 14:35:00 19.3 C 35 % 3.47 C
753 22-03-2019 14:40:00 19.3 C 36 % 3.87 C
754 22-03-2019 14:45:00 19.3 C 35 % 3.47 C
755 22-03-2019 14:50:00 19.4 C 36 % 3.96 C
756 22-03-2019 14:55:00 19.3 C 35 % 3.47 C
757 22-03-2019 15:00:00 19.4 C 35 % 3.56 C
758 22-03-2019 15:05:00 19.4 C 34 % 3.15 C
759 22-03-2019 15:10:00 19.5 C 37 % 4.44 C
760 22-03-2019 15:15:00 19.3 C 39 % 5.01 C
761 22-03-2019 15:20:00 19.3 C 40 % 5.38 C
762 22-03-2019 15:25:00 19.2 C 39 % 4.92 C
763 22-03-2019 15:30:00 19.2 C 40 % 5.29 C
764 22-03-2019 15:35:00 19.1 C 40 % 5.2 C
765 22-03-2019 15:40:00 19.2 C 40 % 5.29 C
766 22-03-2019 15:45:00 19.2 C 41 % 5.64 C
767 22-03-2019 15:50:00 19.2 C 40 % 5.29 C
768 22-03-2019 15:55:00 19.2 C 39 % 4.92 C
769 22-03-2019 16:00:00 19.2 C 40 % 5.29 C
770 22-03-2019 16:05:00 19.3 C 39 % 5.01 C
771 22-03-2019 16:10:00 19.3 C 40 % 5.38 C
772 22-03-2019 16:15:00 19.3 C 39 % 5.01 C
773 22-03-2019 16:20:00 19.3 C 39 % 5.01 C
774 22-03-2019 16:25:00 19.5 C 38 % 4.82 C
775 22-03-2019 16:30:00 19.7 C 38 % 5 C
Sensor: Nr:Datum:Temp:Feuchte:Taupunkt:
Aussen-T/F 776 22-03-2019 16:35:00 19.9 C 38 % 5.18 C
777 22-03-2019 16:40:00 20.3 C 37 % 5.15 C
778 22-03-2019 16:45:00 20.6 C 36 % 5.02 C
779 22-03-2019 16:50:00 20.8 C 34 % 4.38 C
780 22-03-2019 16:55:00 20.8 C 35 % 4.79 C
781 22-03-2019 17:00:00 21.1 C 36 % 5.46 C
782 22-03-2019 17:05:00 21.3 C 34 % 4.82 C
783 22-03-2019 17:10:00 21.3 C 34 % 4.82 C
784 22-03-2019 17:15:00 21.3 C 35 % 5.23 C
785 22-03-2019 17:20:00 21.3 C 35 % 5.23 C
786 22-03-2019 17:25:00 21.2 C 33 % 4.3 C
787 22-03-2019 17:30:00 20.9 C 32 % 3.61 C
788 22-03-2019 17:35:00 20.8 C 37 % 5.59 C
789 22-03-2019 17:40:00 20.7 C 33 % 3.87 C
790 22-03-2019 17:45:00 20.7 C 39 % 6.26 C
791 22-03-2019 17:50:00 20.6 C 37 % 5.41 C
792 22-03-2019 17:55:00 20.3 C 40 % 6.27 C
793 22-03-2019 18:00:00 19.9 C 43 % 6.96 C
794 22-03-2019 18:05:00 19.4 C 44 % 6.84 C
795 22-03-2019 18:10:00 18.9 C 44 % 6.39 C
796 22-03-2019 18:15:00 18.4 C 46 % 6.58 C
797 22-03-2019 18:20:00 17.7 C 47 % 6.26 C
798 22-03-2019 18:25:00 17 C 49 % 6.22 C
799 22-03-2019 18:30:00 16.4 C 51 % 6.25 C
800 22-03-2019 18:35:00 15.7 C 53 % 6.16 C
Sensor: Nr:Datum:Temp:Feuchte:Taupunkt:
Aussen-T/F 801 22-03-2019 18:40:00 14.9 C 55 % 5.95 C
802 22-03-2019 18:45:00 14.4 C 57 % 6 C
803 22-03-2019 18:50:00 14 C 58 % 5.88 C
804 22-03-2019 18:55:00 13.7 C 60 % 6.09 C
805 22-03-2019 19:00:00 13.3 C 61 % 5.95 C
806 22-03-2019 19:05:00 13.1 C 61 % 5.76 C
807 22-03-2019 19:10:00 12.7 C 62 % 5.62 C
808 22-03-2019 19:15:00 12.6 C 62 % 5.52 C
809 22-03-2019 19:20:00 12.3 C 63 % 5.47 C
810 22-03-2019 19:25:00 12.2 C 63 % 5.37 C
811 22-03-2019 19:30:00 12.1 C 64 % 5.51 C
812 22-03-2019 19:35:00 11.9 C 64 % 5.32 C
813 22-03-2019 19:40:00 11.8 C 65 % 5.44 C
814 22-03-2019 19:45:00 11.7 C 65 % 5.35 C
815 22-03-2019 19:50:00 11.6 C 66 % 5.47 C
816 22-03-2019 19:55:00 11.4 C 66 % 5.28 C
817 22-03-2019 20:00:00 11.3 C 67 % 5.4 C
818 22-03-2019 20:05:00 11.2 C 67 % 5.31 C
819 22-03-2019 20:10:00 11.1 C 67 % 5.21 C
820 22-03-2019 20:15:00 11 C 67 % 5.12 C
821 22-03-2019 20:20:00 10.9 C 68 % 5.23 C
822 22-03-2019 20:25:00 10.9 C 68 % 5.23 C
823 22-03-2019 20:30:00 10.8 C 68 % 5.14 C
824 22-03-2019 20:35:00 10.8 C 68 % 5.14 C
825 22-03-2019 20:40:00 10.7 C 69 % 5.25 C
Sensor: Nr:Datum:Temp:Feuchte:Taupunkt:
Aussen-T/F 826 22-03-2019 20:45:00 10.5 C 69 % 5.06 C
827 22-03-2019 20:50:00 10.4 C 69 % 4.97 C
828 22-03-2019 20:55:00 10.3 C 70 % 5.08 C
829 22-03-2019 21:00:00 10.1 C 70 % 4.89 C
830 22-03-2019 21:05:00 9.9 C 70 % 4.69 C
831 22-03-2019 21:10:00 9.7 C 71 % 4.7 C
832 22-03-2019 21:15:00 9.5 C 73 % 4.91 C
833 22-03-2019 21:20:00 9.3 C 73 % 4.72 C
834 22-03-2019 21:25:00 9.1 C 73 % 4.52 C
835 22-03-2019 21:30:00 8.9 C 74 % 4.53 C
836 22-03-2019 21:35:00 8.8 C 74 % 4.43 C
837 22-03-2019 21:40:00 8.7 C 74 % 4.33 C
838 22-03-2019 21:45:00 8.6 C 74 % 4.24 C
839 22-03-2019 21:50:00 8.4 C 73 % 3.85 C
840 22-03-2019 21:55:00 8.2 C 74 % 3.85 C
841 22-03-2019 22:00:00 8.2 C 75 % 4.04 C
842 22-03-2019 22:05:00 8.1 C 74 % 3.75 C
843 22-03-2019 22:10:00 7.8 C 76 % 3.84 C
844 22-03-2019 22:15:00 7.7 C 78 % 4.11 C
845 22-03-2019 22:20:00 7.6 C 79 % 4.2 C
846 22-03-2019 22:25:00 7.6 C 79 % 4.2 C
847 22-03-2019 22:30:00 7.6 C 80 % 4.38 C
848 22-03-2019 22:35:00 7.7 C 80 % 4.47 C
849 22-03-2019 22:40:00 7.8 C 79 % 4.39 C
850 22-03-2019 22:45:00 7.8 C 79 % 4.39 C
Sensor: Nr:Datum:Temp:Feuchte:Taupunkt:
Aussen-T/F 851 22-03-2019 22:50:00 7.7 C 78 % 4.11 C
852 22-03-2019 22:55:00 7.7 C 78 % 4.11 C
853 22-03-2019 23:00:00 7.4 C 78 % 3.82 C
854 22-03-2019 23:05:00 7.2 C 79 % 3.81 C
855 22-03-2019 23:10:00 6.9 C 80 % 3.7 C
856 22-03-2019 23:15:00 6.8 C 80 % 3.6 C
857 22-03-2019 23:20:00 6.7 C 80 % 3.5 C
858 22-03-2019 23:25:00 6.6 C 80 % 3.4 C
859 22-03-2019 23:30:00 6.5 C 81 % 3.48 C
860 22-03-2019 23:35:00 6.5 C 81 % 3.48 C
861 22-03-2019 23:40:00 6.6 C 81 % 3.58 C
862 22-03-2019 23:45:00 6.4 C 80 % 3.21 C
863 22-03-2019 23:50:00 6.3 C 81 % 3.29 C
864 22-03-2019 23:55:00 6.1 C 82 % 3.26 C
865 23-03-2019 00:00:00 6.1 C 82 % 3.26 C
866 23-03-2019 00:05:00 6 C 82 % 3.17 C
867 23-03-2019 00:10:00 5.8 C 82 % 2.97 C
868 23-03-2019 00:15:00 5.7 C 83 % 3.04 C
869 23-03-2019 00:20:00 5.7 C 83 % 3.04 C
870 23-03-2019 00:25:00 5.6 C 82 % 2.78 C
871 23-03-2019 00:30:00 5.5 C 82 % 2.68 C
872 23-03-2019 00:35:00 5.3 C 83 % 2.65 C
873 23-03-2019 00:40:00 5.2 C 84 % 2.72 C
874 23-03-2019 00:45:00 5.1 C 84 % 2.63 C
875 23-03-2019 00:50:00 5.1 C 85 % 2.79 C
Sensor: Nr:Datum:Temp:Feuchte:Taupunkt:
Aussen-T/F 876 23-03-2019 00:55:00 4.9 C 84 % 2.43 C
877 23-03-2019 01:00:00 4.8 C 85 % 2.5 C
878 23-03-2019 01:05:00 4.8 C 85 % 2.5 C
879 23-03-2019 01:10:00 4.9 C 86 % 2.76 C
880 23-03-2019 01:15:00 5.1 C 86 % 2.96 C
881 23-03-2019 01:20:00 5.2 C 85 % 2.89 C
882 23-03-2019 01:25:00 5 C 85 % 2.69 C
883 23-03-2019 01:30:00 4.8 C 85 % 2.5 C
884 23-03-2019 01:35:00 4.7 C 85 % 2.4 C
885 23-03-2019 01:40:00 4.6 C 85 % 2.3 C
886 23-03-2019 01:45:00 4.4 C 86 % 2.27 C
887 23-03-2019 01:50:00 4.3 C 86 % 2.17 C
888 23-03-2019 01:55:00 4.3 C 87 % 2.33 C
889 23-03-2019 02:00:00 4.2 C 87 % 2.23 C
890 23-03-2019 02:05:00 4.2 C 87 % 2.23 C
891 23-03-2019 02:10:00 4.1 C 87 % 2.14 C
892 23-03-2019 02:15:00 4.1 C 88 % 2.3 C
893 23-03-2019 02:20:00 4 C 88 % 2.2 C
894 23-03-2019 02:25:00 3.9 C 88 % 2.1 C
895 23-03-2019 02:30:00 3.9 C 89 % 2.26 C
896 23-03-2019 02:35:00 3.9 C 89 % 2.26 C
897 23-03-2019 02:40:00 3.9 C 88 % 2.1 C
898 23-03-2019 02:45:00 4 C 89 % 2.36 C
899 23-03-2019 02:50:00 4.2 C 89 % 2.55 C
900 23-03-2019 02:55:00 4.2 C 89 % 2.55 C
Sensor: Nr:Datum:Temp:Feuchte:Taupunkt:
Aussen-T/F 901 23-03-2019 03:00:00 4.2 C 89 % 2.55 C
902 23-03-2019 03:05:00 4.1 C 88 % 2.3 C
903 23-03-2019 03:10:00 4 C 88 % 2.2 C
904 23-03-2019 03:15:00 4 C 89 % 2.36 C
905 23-03-2019 03:20:00 3.8 C 88 % 2 C
906 23-03-2019 03:25:00 3.7 C 88 % 1.9 C
907 23-03-2019 03:30:00 3.6 C 89 % 1.96 C
908 23-03-2019 03:35:00 3.5 C 89 % 1.86 C
909 23-03-2019 03:40:00 3.3 C 89 % 1.67 C
910 23-03-2019 03:45:00 3.3 C 90 % 1.82 C
911 23-03-2019 03:50:00 3.4 C 90 % 1.92 C
912 23-03-2019 03:55:00 3.4 C 90 % 1.92 C
913 23-03-2019 04:00:00 3.4 C 90 % 1.92 C
914 23-03-2019 04:05:00 3.4 C 90 % 1.92 C
915 23-03-2019 04:10:00 3.4 C 90 % 1.92 C
916 23-03-2019 04:15:00 3.3 C 90 % 1.82 C
917 23-03-2019 04:20:00 3.3 C 90 % 1.82 C
918 23-03-2019 04:25:00 3.4 C 90 % 1.92 C
919 23-03-2019 04:30:00 3.5 C 91 % 2.17 C
920 23-03-2019 04:35:00 3.6 C 91 % 2.27 C
921 23-03-2019 04:40:00 3.6 C 90 % 2.12 C
922 23-03-2019 04:45:00 3.5 C 89 % 1.86 C
923 23-03-2019 04:50:00 3.4 C 90 % 1.92 C
924 23-03-2019 04:55:00 3.3 C 90 % 1.82 C
925 23-03-2019 05:00:00 3.5 C 91 % 2.17 C
Sensor: Nr:Datum:Temp:Feuchte:Taupunkt:
Aussen-T/F 926 23-03-2019 05:05:00 3.6 C 90 % 2.12 C
927 23-03-2019 05:10:00 3.5 C 90 % 2.02 C
928 23-03-2019 05:15:00 3.3 C 89 % 1.67 C
929 23-03-2019 05:20:00 3.3 C 90 % 1.82 C
930 23-03-2019 05:25:00 3.3 C 90 % 1.82 C
931 23-03-2019 05:30:00 3.4 C 90 % 1.92 C
932 23-03-2019 05:35:00 3.4 C 90 % 1.92 C
933 23-03-2019 05:40:00 3.3 C 90 % 1.82 C
934 23-03-2019 05:45:00 3.1 C 89 % 1.47 C
935 23-03-2019 05:50:00 2.9 C 89 % 1.27 C
936 23-03-2019 05:55:00 2.8 C 90 % 1.33 C
937 23-03-2019 06:00:00 2.7 C 90 % 1.23 C
938 23-03-2019 06:05:00 2.6 C 90 % 1.13 C
939 23-03-2019 06:10:00 2.4 C 90 % 0.93 C
940 23-03-2019 06:15:00 2.4 C 91 % 1.08 C
941 23-03-2019 06:20:00 2.4 C 91 % 1.08 C
942 23-03-2019 06:25:00 2.4 C 91 % 1.08 C
943 23-03-2019 06:30:00 2.4 C 92 % 1.24 C
944 23-03-2019 06:35:00 2.6 C 92 % 1.43 C
945 23-03-2019 06:40:00 2.6 C 92 % 1.43 C
946 23-03-2019 06:45:00 2.7 C 92 % 1.53 C
947 23-03-2019 06:50:00 2.6 C 92 % 1.43 C
948 23-03-2019 06:55:00 2.5 C 91 % 1.18 C
949 23-03-2019 07:00:00 2.4 C 92 % 1.24 C
950 23-03-2019 07:05:00 2.4 C 92 % 1.24 C
Sensor: Nr:Datum:Temp:Feuchte:Taupunkt:
Aussen-T/F 951 23-03-2019 07:10:00 2.5 C 92 % 1.34 C
952 23-03-2019 07:15:00 2.7 C 93 % 1.68 C
953 23-03-2019 07:20:00 3.5 C 95 % 2.78 C
954 23-03-2019 07:25:00 4.2 C 96 % 3.62 C
955 23-03-2019 07:30:00 4.7 C 96 % 4.12 C
956 23-03-2019 07:35:00 4.9 C 95 % 4.17 C
957 23-03-2019 07:40:00 5 C 95 % 4.27 C
958 23-03-2019 07:45:00 5.2 C 95 % 4.47 C
959 23-03-2019 07:50:00 5.6 C 95 % 4.86 C
960 23-03-2019 07:55:00 5.7 C 95 % 4.96 C
961 23-03-2019 08:00:00 5.9 C 95 % 5.16 C
962 23-03-2019 08:05:00 6 C 95 % 5.26 C
963 23-03-2019 08:10:00 6.1 C 95 % 5.36 C
964 23-03-2019 08:15:00 6.1 C 95 % 5.36 C
965 23-03-2019 08:20:00 6.2 C 95 % 5.46 C
966 23-03-2019 08:25:00 6.2 C 95 % 5.46 C
967 23-03-2019 08:30:00 6.3 C 95 % 5.56 C
968 23-03-2019 08:35:00 6.3 C 95 % 5.56 C
969 23-03-2019 08:40:00 6.3 C 95 % 5.56 C
970 23-03-2019 08:45:00 6.4 C 95 % 5.66 C
971 23-03-2019 08:50:00 6.3 C 95 % 5.56 C
972 23-03-2019 08:55:00 6.4 C 95 % 5.66 C
973 23-03-2019 09:00:00 6.4 C 95 % 5.66 C
974 23-03-2019 09:05:00 6.5 C 95 % 5.76 C
975 23-03-2019 09:10:00 6.5 C 95 % 5.76 C
Sensor: Nr:Datum:Temp:Feuchte:Taupunkt:
Aussen-T/F 976 23-03-2019 09:15:00 6.6 C 95 % 5.86 C
977 23-03-2019 09:20:00 6.6 C 94 % 5.71 C
978 23-03-2019 09:25:00 6.6 C 94 % 5.71 C
979 23-03-2019 09:30:00 6.6 C 94 % 5.71 C
980 23-03-2019 09:35:00 6.7 C 94 % 5.8 C
981 23-03-2019 09:40:00 6.7 C 94 % 5.8 C
982 23-03-2019 09:45:00 6.7 C 94 % 5.8 C
983 23-03-2019 09:50:00 6.8 C 94 % 5.9 C
984 23-03-2019 09:55:00 6.9 C 94 % 6 C
985 23-03-2019 10:00:00 7 C 94 % 6.1 C
986 23-03-2019 10:05:00 7.1 C 94 % 6.2 C
987 23-03-2019 10:10:00 7.1 C 94 % 6.2 C
988 23-03-2019 10:15:00 7.1 C 94 % 6.2 C
989 23-03-2019 10:20:00 7.2 C 94 % 6.3 C
990 23-03-2019 10:25:00 7.2 C 94 % 6.3 C
991 23-03-2019 10:30:00 7.2 C 94 % 6.3 C
992 23-03-2019 10:35:00 7.2 C 94 % 6.3 C
993 23-03-2019 10:40:00 7.2 C 94 % 6.3 C
994 23-03-2019 10:45:00 7.3 C 93 % 6.25 C
995 23-03-2019 10:50:00 7.3 C 93 % 6.25 C
996 23-03-2019 10:55:00 7.3 C 93 % 6.25 C
997 23-03-2019 11:00:00 7.3 C 93 % 6.25 C
998 23-03-2019 11:05:00 7.3 C 93 % 6.25 C
999 23-03-2019 11:10:00 7.3 C 93 % 6.25 C
1000 23-03-2019 11:15:00 7.4 C 93 % 6.34 C
Sensor: Nr:Datum:Temp:Feuchte:Taupunkt:
Aussen-T/F 1001 23-03-2019 11:20:00 7.4 C 93 % 6.34 C
1002 23-03-2019 11:25:00 7.5 C 93 % 6.44 C
1003 23-03-2019 11:30:00 7.6 C 93 % 6.54 C
1004 23-03-2019 11:35:00 7.6 C 92 % 6.39 C
1005 23-03-2019 11:40:00 7.7 C 92 % 6.48 C
1006 23-03-2019 11:45:00 7.7 C 92 % 6.48 C
1007 23-03-2019 11:50:00 7.8 C 92 % 6.58 C
1008 23-03-2019 11:55:00 7.8 C 92 % 6.58 C
1009 23-03-2019 12:00:00 7.8 C 92 % 6.58 C
1010 23-03-2019 12:05:00 7.9 C 91 % 6.52 C
1011 23-03-2019 12:10:00 7.9 C 91 % 6.52 C
1012 23-03-2019 12:15:00 8 C 91 % 6.62 C
1013 23-03-2019 12:20:00 8.1 C 90 % 6.56 C
1014 23-03-2019 12:25:00 8.1 C 90 % 6.56 C
1015 23-03-2019 12:30:00 8.2 C 90 % 6.66 C
1016 23-03-2019 12:35:00 8.2 C 89 % 6.5 C
1017 23-03-2019 12:40:00 8.3 C 89 % 6.6 C
1018 23-03-2019 12:45:00 8.3 C 89 % 6.6 C
1019 23-03-2019 12:50:00 8.3 C 89 % 6.6 C
1020 23-03-2019 12:55:00 8.4 C 89 % 6.7 C
1021 23-03-2019 13:00:00 8.4 C 88 % 6.53 C
1022 23-03-2019 13:05:00 8.5 C 88 % 6.63 C
1023 23-03-2019 13:10:00 8.6 C 88 % 6.73 C
1024 23-03-2019 13:15:00 8.6 C 87 % 6.56 C
1025 23-03-2019 13:20:00 8.7 C 86 % 6.49 C
Sensor: Nr:Datum:Temp:Feuchte:Taupunkt:
Aussen-T/F 1026 23-03-2019 13:25:00 8.7 C 87 % 6.66 C
1027 23-03-2019 13:30:00 8.8 C 87 % 6.76 C
1028 23-03-2019 13:35:00 8.9 C 86 % 6.69 C
1029 23-03-2019 13:40:00 8.9 C 85 % 6.52 C
1030 23-03-2019 13:45:00 9 C 85 % 6.62 C
1031 23-03-2019 13:50:00 9.1 C 85 % 6.72 C
1032 23-03-2019 13:55:00 9.1 C 84 % 6.54 C
1033 23-03-2019 14:00:00 9.2 C 83 % 6.47 C
1034 23-03-2019 14:05:00 9.3 C 83 % 6.57 C
1035 23-03-2019 14:10:00 9.3 C 83 % 6.57 C
1036 23-03-2019 14:15:00 9.3 C 82 % 6.39 C
1037 23-03-2019 14:20:00 9.3 C 82 % 6.39 C
1038 23-03-2019 14:25:00 9.4 C 82 % 6.49 C
1039 23-03-2019 14:30:00 9.4 C 82 % 6.49 C
1040 23-03-2019 14:35:00 9.4 C 81 % 6.31 C
1041 23-03-2019 14:40:00 9.6 C 81 % 6.5 C
1042 23-03-2019 14:45:00 9.7 C 80 % 6.42 C
1043 23-03-2019 14:50:00 9.7 C 79 % 6.24 C
1044 23-03-2019 14:55:00 9.8 C 79 % 6.34 C
1045 23-03-2019 15:00:00 9.8 C 80 % 6.52 C
1046 23-03-2019 15:05:00 9.9 C 79 % 6.43 C
1047 23-03-2019 15:10:00 9.9 C 79 % 6.43 C
1048 23-03-2019 15:15:00 9.9 C 78 % 6.25 C
1049 23-03-2019 15:20:00 9.9 C 77 % 6.06 C
1050 23-03-2019 15:25:00 10.1 C 78 % 6.44 C
Sensor: Nr:Datum:Temp:Feuchte:Taupunkt:
Aussen-T/F 1051 23-03-2019 15:30:00 10.1 C 77 % 6.26 C
1052 23-03-2019 15:35:00 10.2 C 77 % 6.35 C
1053 23-03-2019 15:40:00 10.3 C 76 % 6.26 C
1054 23-03-2019 15:45:00 10.3 C 76 % 6.26 C
1055 23-03-2019 15:50:00 10.3 C 77 % 6.45 C
1056 23-03-2019 15:55:00 10.3 C 76 % 6.26 C
1057 23-03-2019 16:00:00 10.3 C 75 % 6.07 C
1058 23-03-2019 16:05:00 10.3 C 75 % 6.07 C
1059 23-03-2019 16:10:00 10.3 C 75 % 6.07 C
1060 23-03-2019 16:15:00 10.4 C 75 % 6.17 C
1061 23-03-2019 16:20:00 10.3 C 75 % 6.07 C
1062 23-03-2019 16:25:00 10.4 C 75 % 6.17 C
1063 23-03-2019 16:30:00 10.4 C 75 % 6.17 C
1064 23-03-2019 16:35:00 10.5 C 75 % 6.26 C
1065 23-03-2019 16:40:00 10.5 C 74 % 6.07 C
1066 23-03-2019 16:45:00 10.6 C 74 % 6.17 C
1067 23-03-2019 16:50:00 10.6 C 74 % 6.17 C
1068 23-03-2019 16:55:00 10.5 C 74 % 6.07 C
1069 23-03-2019 17:00:00 10.5 C 74 % 6.07 C
1070 23-03-2019 17:05:00 10.5 C 75 % 6.26 C
1071 23-03-2019 17:10:00 10.6 C 74 % 6.17 C
1072 23-03-2019 17:15:00 10.7 C 74 % 6.26 C
1073 23-03-2019 17:20:00 10.7 C 73 % 6.07 C
1074 23-03-2019 17:25:00 10.6 C 74 % 6.17 C
1075 23-03-2019 17:30:00 10.6 C 74 % 6.17 C
Sensor: Nr:Datum:Temp:Feuchte:Taupunkt:
Aussen-T/F 1076 23-03-2019 17:35:00 10.4 C 74 % 5.97 C
1077 23-03-2019 17:40:00 10.3 C 74 % 5.88 C
1078 23-03-2019 17:45:00 10.1 C 74 % 5.68 C
1079 23-03-2019 17:50:00 10.1 C 75 % 5.88 C
1080 23-03-2019 17:55:00 10 C 75 % 5.78 C
1081 23-03-2019 18:00:00 10.1 C 75 % 5.88 C
1082 23-03-2019 18:05:00 10 C 75 % 5.78 C
1083 23-03-2019 18:10:00 10 C 75 % 5.78 C
1084 23-03-2019 18:15:00 9.9 C 75 % 5.68 C
1085 23-03-2019 18:20:00 9.7 C 76 % 5.68 C
1086 23-03-2019 18:25:00 9.6 C 76 % 5.58 C
1087 23-03-2019 18:30:00 9.3 C 77 % 5.48 C
1088 23-03-2019 18:35:00 8.9 C 78 % 5.28 C
1089 23-03-2019 18:40:00 8.6 C 79 % 5.17 C
1090 23-03-2019 18:45:00 8.2 C 80 % 4.96 C
1091 23-03-2019 18:50:00 8 C 81 % 4.94 C
1092 23-03-2019 18:55:00 7.8 C 82 % 4.92 C
1093 23-03-2019 19:00:00 7.6 C 82 % 4.73 C
1094 23-03-2019 19:05:00 7.4 C 83 % 4.71 C
1095 23-03-2019 19:10:00 7.2 C 84 % 4.68 C
1096 23-03-2019 19:15:00 7.1 C 84 % 4.58 C
1097 23-03-2019 19:20:00 6.9 C 85 % 4.56 C
1098 23-03-2019 19:25:00 6.8 C 85 % 4.46 C
1099 23-03-2019 19:30:00 6.7 C 85 % 4.36 C
1100 23-03-2019 19:35:00 6.6 C 86 % 4.43 C
Sensor: Nr:Datum:Temp:Feuchte:Taupunkt:
Aussen-T/F 1101 23-03-2019 19:40:00 6.5 C 86 % 4.33 C
1102 23-03-2019 19:45:00 6.4 C 87 % 4.4 C
1103 23-03-2019 19:50:00 6.3 C 87 % 4.3 C
1104 23-03-2019 19:55:00 6.2 C 87 % 4.2 C
1105 23-03-2019 20:00:00 6.1 C 87 % 4.1 C
1106 23-03-2019 20:05:00 5.9 C 87 % 3.91 C
1107 23-03-2019 20:10:00 5.7 C 88 % 3.87 C
1108 23-03-2019 20:15:00 5.7 C 89 % 4.03 C
1109 23-03-2019 20:20:00 5.6 C 88 % 3.77 C
1110 23-03-2019 20:25:00 5.3 C 88 % 3.48 C
1111 23-03-2019 20:30:00 5.2 C 89 % 3.54 C
1112 23-03-2019 20:35:00 5.1 C 89 % 3.44 C
1113 23-03-2019 20:40:00 5.1 C 90 % 3.6 C
1114 23-03-2019 20:45:00 5.1 C 90 % 3.6 C
1115 23-03-2019 20:50:00 5 C 90 % 3.5 C
1116 23-03-2019 20:55:00 4.8 C 90 % 3.3 C
1117 23-03-2019 21:00:00 4.7 C 90 % 3.2 C
1118 23-03-2019 21:05:00 4.6 C 90 % 3.1 C
1119 23-03-2019 21:10:00 4.5 C 91 % 3.16 C
1120 23-03-2019 21:15:00 4.5 C 91 % 3.16 C
1121 23-03-2019 21:20:00 4.5 C 92 % 3.32 C
1122 23-03-2019 21:25:00 4.4 C 92 % 3.22 C
1123 23-03-2019 21:30:00 4.3 C 91 % 2.96 C
1124 23-03-2019 21:35:00 4.2 C 91 % 2.87 C
1125 23-03-2019 21:40:00 4.1 C 91 % 2.77 C
Sensor: Nr:Datum:Temp:Feuchte:Taupunkt:
Aussen-T/F 1126 23-03-2019 21:45:00 4.1 C 92 % 2.92 C
1127 23-03-2019 21:50:00 4.1 C 92 % 2.92 C
1128 23-03-2019 21:55:00 4 C 92 % 2.82 C
1129 23-03-2019 22:00:00 3.9 C 92 % 2.72 C
1130 23-03-2019 22:05:00 3.9 C 92 % 2.72 C
1131 23-03-2019 22:10:00 3.9 C 93 % 2.87 C
1132 23-03-2019 22:15:00 3.8 C 93 % 2.77 C
1133 23-03-2019 22:20:00 3.6 C 92 % 2.42 C
1134 23-03-2019 22:25:00 3.6 C 93 % 2.58 C
1135 23-03-2019 22:30:00 3.4 C 93 % 2.38 C
1136 23-03-2019 22:35:00 3.3 C 93 % 2.28 C
1137 23-03-2019 22:40:00 3.3 C 93 % 2.28 C
1138 23-03-2019 22:45:00 3.3 C 93 % 2.28 C
1139 23-03-2019 22:50:00 3.3 C 94 % 2.43 C
1140 23-03-2019 22:55:00 3.4 C 94 % 2.53 C
1141 23-03-2019 23:00:00 3.3 C 94 % 2.43 C
1142 23-03-2019 23:05:00 3.3 C 94 % 2.43 C
1143 23-03-2019 23:10:00 3.2 C 94 % 2.33 C
1144 23-03-2019 23:15:00 3.2 C 94 % 2.33 C
1145 23-03-2019 23:20:00 3.2 C 94 % 2.33 C
1146 23-03-2019 23:25:00 3.2 C 94 % 2.33 C
1147 23-03-2019 23:30:00 3.1 C 94 % 2.23 C
1148 23-03-2019 23:35:00 3.1 C 94 % 2.23 C
1149 23-03-2019 23:40:00 2.9 C 94 % 2.03 C
1150 23-03-2019 23:45:00 2.8 C 94 % 1.93 C
Sensor: Nr:Datum:Temp:Feuchte:Taupunkt:
Aussen-T/F 1151 23-03-2019 23:50:00 2.8 C 94 % 1.93 C
1152 23-03-2019 23:55:00 2.8 C 94 % 1.93 C
1153 24-03-2019 00:00:00 2.7 C 94 % 1.83 C
1154 24-03-2019 00:05:00 2.6 C 94 % 1.73 C
1155 24-03-2019 00:10:00 2.4 C 94 % 1.54 C
1156 24-03-2019 00:15:00 2.3 C 94 % 1.44 C
1157 24-03-2019 00:20:00 2.4 C 94 % 1.54 C
1158 24-03-2019 00:25:00 2.3 C 94 % 1.44 C
1159 24-03-2019 00:30:00 2.3 C 94 % 1.44 C
1160 24-03-2019 00:35:00 2.2 C 94 % 1.34 C
1161 24-03-2019 00:40:00 2.2 C 95 % 1.48 C
1162 24-03-2019 00:45:00 2.4 C 95 % 1.68 C
1163 24-03-2019 00:50:00 2.6 C 95 % 1.88 C
1164 24-03-2019 00:55:00 2.4 C 95 % 1.68 C
1165 24-03-2019 01:00:00 2.4 C 95 % 1.68 C
1166 24-03-2019 01:05:00 2.3 C 95 % 1.58 C
1167 24-03-2019 01:10:00 2.2 C 95 % 1.48 C
1168 24-03-2019 01:15:00 2.1 C 94 % 1.24 C
1169 24-03-2019 01:20:00 1.9 C 94 % 1.04 C
1170 24-03-2019 01:25:00 1.8 C 95 % 1.09 C
1171 24-03-2019 01:30:00 1.8 C 95 % 1.09 C
1172 24-03-2019 01:35:00 1.7 C 95 % 0.99 C
1173 24-03-2019 01:40:00 1.6 C 95 % 0.89 C
1174 24-03-2019 01:45:00 1.7 C 95 % 0.99 C
1175 24-03-2019 01:50:00 1.7 C 95 % 0.99 C
Sensor: Nr:Datum:Temp:Feuchte:Taupunkt:
Aussen-T/F 1176 24-03-2019 01:55:00 1.6 C 95 % 0.89 C
1177 24-03-2019 02:00:00 1.4 C 95 % 0.69 C
1178 24-03-2019 02:05:00 1.5 C 95 % 0.79 C
1179 24-03-2019 02:10:00 1.6 C 95 % 0.89 C
1180 24-03-2019 02:15:00 1.7 C 95 % 0.99 C
1181 24-03-2019 02:20:00 1.7 C 95 % 0.99 C
1182 24-03-2019 02:25:00 1.5 C 95 % 0.79 C
1183 24-03-2019 02:30:00 1.4 C 95 % 0.69 C
1184 24-03-2019 02:35:00 1.3 C 95 % 0.59 C
1185 24-03-2019 02:40:00 1.2 C 95 % 0.49 C
1186 24-03-2019 02:45:00 1.3 C 95 % 0.59 C
1187 24-03-2019 02:50:00 1.3 C 95 % 0.59 C
1188 24-03-2019 02:55:00 1.2 C 95 % 0.49 C
1189 24-03-2019 03:00:00 1.1 C 95 % 0.39 C
1190 24-03-2019 03:05:00 1.2 C 95 % 0.49 C
1191 24-03-2019 03:10:00 1.2 C 95 % 0.49 C
1192 24-03-2019 03:15:00 1.1 C 95 % 0.39 C
1193 24-03-2019 03:20:00 1 C 95 % 0.29 C
1194 24-03-2019 03:25:00 1 C 95 % 0.29 C
1195 24-03-2019 03:30:00 0.9 C 95 % 0.19 C
1196 24-03-2019 03:35:00 1 C 95 % 0.29 C
1197 24-03-2019 03:40:00 0.9 C 95 % 0.19 C
1198 24-03-2019 03:45:00 0.8 C 95 % 0.09 C
1199 24-03-2019 03:50:00 0.7 C 95 % -0.01 C
1200 24-03-2019 03:55:00 0.7 C 95 % -0.01 C
Sensor: Nr:Datum:Temp:Feuchte:Taupunkt:
Aussen-T/F 1201 24-03-2019 04:00:00 0.6 C 95 % -0.11 C
1202 24-03-2019 04:05:00 0.6 C 95 % -0.11 C
1203 24-03-2019 04:10:00 0.6 C 96 % 0.04 C
1204 24-03-2019 04:15:00 0.7 C 96 % 0.14 C
1205 24-03-2019 04:20:00 0.8 C 96 % 0.24 C
1206 24-03-2019 04:25:00 0.9 C 96 % 0.34 C
1207 24-03-2019 04:30:00 0.9 C 96 % 0.34 C
1208 24-03-2019 04:35:00 0.9 C 96 % 0.34 C
1209 24-03-2019 04:40:00 1 C 96 % 0.44 C
1210 24-03-2019 04:45:00 1.1 C 96 % 0.54 C
1211 24-03-2019 04:50:00 1.2 C 96 % 0.63 C
1212 24-03-2019 04:55:00 1.4 C 96 % 0.83 C
1213 24-03-2019 05:00:00 1.5 C 96 % 0.93 C
1214 24-03-2019 05:05:00 1.6 C 96 % 1.03 C
1215 24-03-2019 05:10:00 1.6 C 96 % 1.03 C
1216 24-03-2019 05:15:00 1.7 C 96 % 1.13 C
1217 24-03-2019 05:20:00 1.8 C 96 % 1.23 C
1218 24-03-2019 05:25:00 1.8 C 96 % 1.23 C
1219 24-03-2019 05:30:00 1.9 C 96 % 1.33 C
1220 24-03-2019 05:35:00 1.9 C 96 % 1.33 C
1221 24-03-2019 07:05:00 2.6 C 96 % 2.03 C
1222 24-03-2019 07:10:00 2.6 C 96 % 2.03 C
1223 24-03-2019 07:15:00 2.7 C 96 % 2.13 C
1224 24-03-2019 07:20:00 2.7 C 96 % 2.13 C
1225 24-03-2019 07:25:00 2.7 C 96 % 2.13 C
Sensor: Nr:Datum:Temp:Feuchte:Taupunkt:
Aussen-T/F 1226 24-03-2019 07:30:00 2.7 C 96 % 2.13 C
1227 24-03-2019 07:35:00 2.8 C 96 % 2.23 C
1228 24-03-2019 07:40:00 2.8 C 96 % 2.23 C
1229 24-03-2019 07:45:00 2.9 C 96 % 2.33 C
1230 24-03-2019 07:50:00 3 C 96 % 2.43 C
1231 24-03-2019 07:55:00 3.1 C 96 % 2.53 C
1232 24-03-2019 08:00:00 3.2 C 97 % 2.77 C
1233 24-03-2019 08:05:00 3.3 C 97 % 2.87 C
1234 24-03-2019 08:10:00 3.3 C 96 % 2.72 C
1235 24-03-2019 08:15:00 3.4 C 97 % 2.97 C
1236 24-03-2019 08:20:00 3.5 C 97 % 3.07 C
1237 24-03-2019 08:25:00 3.6 C 97 % 3.17 C
1238 24-03-2019 08:30:00 3.6 C 96 % 3.02 C
1239 24-03-2019 08:35:00 3.7 C 96 % 3.12 C
1240 24-03-2019 08:40:00 3.9 C 97 % 3.47 C
1241 24-03-2019 08:45:00 4.1 C 97 % 3.67 C
1242 24-03-2019 08:50:00 4.2 C 97 % 3.77 C
1243 24-03-2019 08:55:00 4.2 C 97 % 3.77 C
1244 24-03-2019 09:00:00 4.3 C 96 % 3.72 C
1245 24-03-2019 09:05:00 4.3 C 96 % 3.72 C
1246 24-03-2019 09:10:00 4.5 C 96 % 3.92 C
1247 24-03-2019 09:15:00 4.6 C 96 % 4.02 C
1248 24-03-2019 09:20:00 4.7 C 96 % 4.12 C
1249 24-03-2019 09:25:00 4.8 C 96 % 4.22 C
1250 24-03-2019 09:30:00 4.8 C 96 % 4.22 C
Sensor: Nr:Datum:Temp:Feuchte:Taupunkt:
Aussen-T/F 1251 24-03-2019 09:35:00 4.9 C 96 % 4.32 C
1252 24-03-2019 09:40:00 5.1 C 95 % 4.37 C
1253 24-03-2019 09:45:00 5.2 C 95 % 4.47 C
1254 24-03-2019 09:50:00 5.4 C 95 % 4.66 C
1255 24-03-2019 09:55:00 5.6 C 95 % 4.86 C
1256 24-03-2019 10:00:00 5.7 C 95 % 4.96 C
1257 24-03-2019 10:05:00 5.9 C 95 % 5.16 C
1258 24-03-2019 10:10:00 6.2 C 95 % 5.46 C
1259 24-03-2019 10:15:00 6.3 C 94 % 5.41 C
1260 24-03-2019 10:20:00 6.5 C 93 % 5.45 C
1261 24-03-2019 10:25:00 6.8 C 93 % 5.75 C
1262 24-03-2019 10:30:00 6.9 C 92 % 5.69 C
1263 24-03-2019 10:35:00 7.2 C 92 % 5.99 C
1264 24-03-2019 10:40:00 7.4 C 91 % 6.03 C
1265 24-03-2019 10:45:00 7.7 C 90 % 6.17 C
1266 24-03-2019 10:50:00 7.8 C 90 % 6.27 C
1267 24-03-2019 10:55:00 8.1 C 89 % 6.4 C
1268 24-03-2019 11:00:00 8.3 C 89 % 6.6 C
1269 24-03-2019 11:05:00 8.7 C 89 % 6.99 C
1270 24-03-2019 11:10:00 8.9 C 88 % 7.02 C
1271 24-03-2019 11:15:00 9.1 C 87 % 7.05 C
1272 24-03-2019 11:20:00 9.2 C 86 % 6.98 C
1273 24-03-2019 11:25:00 9.4 C 86 % 7.18 C
1274 24-03-2019 11:30:00 9.6 C 85 % 7.21 C
1275 24-03-2019 11:35:00 9.7 C 85 % 7.3 C
Sensor: Nr:Datum:Temp:Feuchte:Taupunkt:
Aussen-T/F 1276 24-03-2019 11:40:00 10 C 84 % 7.43 C
1277 24-03-2019 11:45:00 10.3 C 83 % 7.54 C
1278 24-03-2019 11:50:00 10.5 C 81 % 7.38 C
1279 24-03-2019 11:55:00 10.8 C 82 % 7.85 C
1280 24-03-2019 12:00:00 11.2 C 80 % 7.88 C
1281 24-03-2019 12:05:00 11.3 C 79 % 7.8 C
1282 24-03-2019 12:10:00 11.4 C 79 % 7.89 C
1283 24-03-2019 12:15:00 11.6 C 78 % 7.9 C
1284 24-03-2019 12:20:00 11.7 C 77 % 7.81 C
1285 24-03-2019 12:25:00 11.8 C 76 % 7.71 C
1286 24-03-2019 12:30:00 11.9 C 76 % 7.81 C
1287 24-03-2019 12:35:00 12.1 C 76 % 8 C
1288 24-03-2019 12:40:00 12.1 C 76 % 8 C
1289 24-03-2019 12:45:00 12.1 C 74 % 7.61 C
1290 24-03-2019 12:50:00 12 C 75 % 7.71 C
1291 24-03-2019 12:55:00 11.7 C 77 % 7.81 C
1292 24-03-2019 13:00:00 11.4 C 78 % 7.71 C
1293 24-03-2019 13:05:00 11.2 C 79 % 7.7 C
1294 24-03-2019 13:10:00 11 C 81 % 7.87 C
1295 24-03-2019 13:15:00 10.9 C 81 % 7.77 C
1296 24-03-2019 13:20:00 10.8 C 82 % 7.85 C
1297 24-03-2019 13:25:00 10.7 C 82 % 7.76 C
1298 24-03-2019 13:30:00 10.7 C 81 % 7.58 C
1299 24-03-2019 13:35:00 10.7 C 82 % 7.76 C
1300 24-03-2019 13:40:00 10.7 C 82 % 7.76 C
Sensor: Nr:Datum:Temp:Feuchte:Taupunkt:
Aussen-T/F 1301 24-03-2019 13:45:00 10.8 C 82 % 7.85 C
1302 24-03-2019 13:50:00 10.8 C 83 % 8.03 C
1303 24-03-2019 13:55:00 10.9 C 82 % 7.95 C
1304 24-03-2019 14:00:00 10.7 C 82 % 7.76 C
1305 24-03-2019 14:05:00 10.6 C 83 % 7.84 C
1306 24-03-2019 14:10:00 10.5 C 84 % 7.91 C
1307 24-03-2019 14:15:00 10.6 C 84 % 8.01 C
1308 24-03-2019 14:20:00 10.6 C 84 % 8.01 C
1309 24-03-2019 14:25:00 10.6 C 82 % 7.66 C
1310 24-03-2019 14:30:00 10.6 C 83 % 7.84 C
1311 24-03-2019 14:35:00 10.7 C 83 % 7.93 C
1312 24-03-2019 14:40:00 10.7 C 82 % 7.76 C
1313 24-03-2019 14:45:00 10.7 C 82 % 7.76 C
1314 24-03-2019 14:50:00 10.7 C 81 % 7.58 C
1315 24-03-2019 14:55:00 10.7 C 81 % 7.58 C
1316 24-03-2019 15:00:00 10.7 C 81 % 7.58 C
1317 24-03-2019 15:05:00 10.7 C 81 % 7.58 C
1318 24-03-2019 15:10:00 10.7 C 80 % 7.4 C
1319 24-03-2019 15:15:00 10.8 C 80 % 7.49 C
1320 24-03-2019 15:20:00 10.8 C 79 % 7.31 C
1321 24-03-2019 15:25:00 10.9 C 79 % 7.41 C
1322 24-03-2019 15:30:00 11.1 C 78 % 7.41 C
1323 24-03-2019 15:35:00 11.2 C 78 % 7.51 C
1324 24-03-2019 15:40:00 11.4 C 77 % 7.52 C
1325 24-03-2019 15:45:00 11.6 C 76 % 7.52 C
Sensor: Nr:Datum:Temp:Feuchte:Taupunkt:
Aussen-T/F 1326 24-03-2019 15:50:00 11.6 C 74 % 7.13 C
1327 24-03-2019 15:55:00 11.6 C 76 % 7.52 C
1328 24-03-2019 16:00:00 11.6 C 75 % 7.33 C
1329 24-03-2019 16:05:00 11.8 C 75 % 7.52 C
1330 24-03-2019 16:10:00 12 C 75 % 7.71 C
1331 24-03-2019 16:15:00 12.2 C 74 % 7.71 C
1332 24-03-2019 16:20:00 12.3 C 72 % 7.4 C
1333 24-03-2019 16:25:00 12.1 C 72 % 7.21 C
1334 24-03-2019 16:30:00 12.1 C 72 % 7.21 C
1335 24-03-2019 16:35:00 12.2 C 71 % 7.1 C
1336 24-03-2019 16:40:00 12.2 C 70 % 6.9 C
1337 24-03-2019 16:45:00 12.1 C 69 % 6.59 C
1338 24-03-2019 16:50:00 12 C 67 % 6.07 C
1339 24-03-2019 16:55:00 11.8 C 68 % 6.09 C
1340 24-03-2019 17:00:00 11.7 C 68 % 6 C
1341 24-03-2019 17:05:00 11.8 C 69 % 6.31 C
1342 24-03-2019 17:10:00 11.9 C 68 % 6.19 C
1343 24-03-2019 17:15:00 12.1 C 67 % 6.17 C
1344 24-03-2019 17:20:00 12.3 C 66 % 6.14 C
1345 24-03-2019 17:25:00 12.5 C 65 % 6.11 C
1346 24-03-2019 17:30:00 12.6 C 64 % 5.98 C
1347 24-03-2019 17:35:00 12.6 C 64 % 5.98 C
1348 24-03-2019 17:40:00 12.6 C 64 % 5.98 C
1349 24-03-2019 17:45:00 12.5 C 62 % 5.43 C
1350 24-03-2019 17:50:00 12.4 C 62 % 5.33 C
Sensor: Nr:Datum:Temp:Feuchte:Taupunkt:
Aussen-T/F 1351 24-03-2019 17:55:00 12.4 C 61 % 5.1 C
1352 24-03-2019 18:00:00 12.2 C 61 % 4.91 C
1353 24-03-2019 18:05:00 12.1 C 61 % 4.82 C
1354 24-03-2019 18:10:00 11.9 C 62 % 4.86 C
1355 24-03-2019 18:15:00 11.9 C 62 % 4.86 C
1356 24-03-2019 18:20:00 11.8 C 63 % 5 C
1357 24-03-2019 18:25:00 11.7 C 62 % 4.67 C
1358 24-03-2019 18:30:00 11.4 C 62 % 4.39 C
1359 24-03-2019 18:35:00 11.1 C 62 % 4.11 C
1360 24-03-2019 18:40:00 10.8 C 63 % 4.05 C
1361 24-03-2019 18:45:00 10.5 C 63 % 3.77 C
1362 24-03-2019 18:50:00 10.3 C 64 % 3.8 C
1363 24-03-2019 18:55:00 10 C 64 % 3.51 C
1364 24-03-2019 19:00:00 9.8 C 64 % 3.32 C
1365 24-03-2019 19:05:00 9.6 C 65 % 3.35 C
1366 24-03-2019 19:10:00 9.4 C 65 % 3.16 C
1367 24-03-2019 19:15:00 9.3 C 64 % 2.85 C
1368 24-03-2019 19:20:00 9.2 C 65 % 2.97 C
1369 24-03-2019 19:25:00 8.9 C 65 % 2.69 C
1370 24-03-2019 19:30:00 8.8 C 66 % 2.81 C
1371 24-03-2019 19:35:00 8.8 C 66 % 2.81 C
1372 24-03-2019 19:40:00 8.9 C 65 % 2.69 C
1373 24-03-2019 19:45:00 8.8 C 64 % 2.38 C
1374 24-03-2019 19:50:00 8.8 C 66 % 2.81 C
1375 24-03-2019 19:55:00 8.6 C 66 % 2.62 C
Sensor: Nr:Datum:Temp:Feuchte:Taupunkt:
Aussen-T/F 1376 24-03-2019 20:00:00 8.2 C 67 % 2.45 C
1377 24-03-2019 20:05:00 7.9 C 69 % 2.57 C
1378 24-03-2019 20:10:00 7.7 C 69 % 2.38 C
1379 24-03-2019 20:15:00 7.5 C 69 % 2.19 C
1380 24-03-2019 20:20:00 7.3 C 70 % 2.2 C
1381 24-03-2019 20:25:00 7.2 C 70 % 2.11 C
1382 24-03-2019 20:30:00 7.1 C 71 % 2.21 C
1383 24-03-2019 20:35:00 6.9 C 72 % 2.21 C
1384 24-03-2019 20:40:00 6.7 C 73 % 2.21 C
1385 24-03-2019 20:45:00 6.7 C 73 % 2.21 C
1386 24-03-2019 20:50:00 6.6 C 73 % 2.12 C
1387 24-03-2019 20:55:00 6.4 C 74 % 2.11 C
1388 24-03-2019 21:00:00 6.3 C 74 % 2.02 C
1389 24-03-2019 21:05:00 6.2 C 74 % 1.92 C
1390 24-03-2019 21:10:00 6 C 74 % 1.73 C
1391 24-03-2019 21:15:00 5.8 C 75 % 1.72 C
1392 24-03-2019 21:20:00 5.8 C 76 % 1.91 C
1393 24-03-2019 21:25:00 5.6 C 77 % 1.89 C
1394 24-03-2019 21:30:00 5.4 C 77 % 1.7 C
1395 24-03-2019 21:35:00 5.4 C 77 % 1.7 C
1396 24-03-2019 21:40:00 5.3 C 78 % 1.78 C
1397 24-03-2019 21:45:00 5.3 C 78 % 1.78 C
1398 24-03-2019 21:50:00 5.1 C 78 % 1.59 C
1399 24-03-2019 21:55:00 4.9 C 78 % 1.39 C
1400 24-03-2019 22:00:00 4.8 C 79 % 1.47 C
Sensor: Nr:Datum:Temp:Feuchte:Taupunkt:
Aussen-T/F 1401 24-03-2019 22:05:00 4.7 C 80 % 1.55 C
1402 24-03-2019 22:10:00 4.6 C 80 % 1.46 C
1403 24-03-2019 22:15:00 4.5 C 80 % 1.36 C
1404 24-03-2019 22:20:00 4.3 C 80 % 1.16 C
1405 24-03-2019 22:25:00 4.2 C 81 % 1.24 C
1406 24-03-2019 22:30:00 4.1 C 81 % 1.14 C
1407 24-03-2019 22:35:00 4.1 C 81 % 1.14 C
1408 24-03-2019 22:40:00 4 C 81 % 1.04 C
1409 24-03-2019 22:45:00 3.9 C 82 % 1.12 C
1410 24-03-2019 22:50:00 3.8 C 82 % 1.02 C
1411 24-03-2019 22:55:00 3.8 C 82 % 1.02 C
1412 24-03-2019 23:00:00 3.7 C 82 % 0.92 C
1413 24-03-2019 23:05:00 3.7 C 83 % 1.09 C
1414 24-03-2019 23:10:00 3.7 C 83 % 1.09 C
1415 24-03-2019 23:15:00 3.6 C 83 % 0.99 C
1416 24-03-2019 23:20:00 3.6 C 83 % 0.99 C
1417 24-03-2019 23:25:00 3.6 C 83 % 0.99 C
1418 24-03-2019 23:30:00 3.6 C 83 % 0.99 C
1419 24-03-2019 23:35:00 3.5 C 83 % 0.89 C
1420 24-03-2019 23:40:00 3.4 C 82 % 0.63 C
1421 24-03-2019 23:45:00 3.4 C 83 % 0.79 C
1422 24-03-2019 23:50:00 3.5 C 83 % 0.89 C
1423 24-03-2019 23:55:00 3.5 C 82 % 0.72 C
1424 25-03-2019 00:00:00 3.6 C 82 % 0.82 C
1425 25-03-2019 00:05:00 3.6 C 82 % 0.82 C
Sensor: Nr:Datum:Temp:Feuchte:Taupunkt:
Aussen-T/F 1426 25-03-2019 00:10:00 3.6 C 82 % 0.82 C
1427 25-03-2019 00:15:00 3.5 C 82 % 0.72 C
1428 25-03-2019 00:20:00 3.6 C 82 % 0.82 C
1429 25-03-2019 00:25:00 3.6 C 82 % 0.82 C
1430 25-03-2019 00:30:00 3.6 C 82 % 0.82 C
1431 25-03-2019 00:35:00 3.4 C 82 % 0.63 C
1432 25-03-2019 00:40:00 3.2 C 82 % 0.43 C
1433 25-03-2019 00:45:00 3 C 83 % 0.4 C
1434 25-03-2019 00:50:00 2.8 C 84 % 0.37 C
1435 25-03-2019 00:55:00 2.7 C 85 % 0.44 C
1436 25-03-2019 01:00:00 2.7 C 85 % 0.44 C
1437 25-03-2019 01:05:00 2.6 C 85 % 0.34 C
1438 25-03-2019 01:10:00 2.4 C 85 % 0.14 C
1439 25-03-2019 01:15:00 2.2 C 85 % -0.05 C
1440 25-03-2019 01:20:00 1.9 C 85 % -0.35 C
1441 25-03-2019 01:25:00 1.8 C 86 % -0.29 C
1442 25-03-2019 01:30:00 1.7 C 86 % -0.38 C
1443 25-03-2019 01:35:00 1.6 C 87 % -0.32 C
1444 25-03-2019 01:40:00 1.4 C 87 % -0.52 C
1445 25-03-2019 01:45:00 1.4 C 88 % -0.36 C
1446 25-03-2019 01:50:00 1.4 C 89 % -0.21 C
1447 25-03-2019 01:55:00 1.4 C 89 % -0.21 C
1448 25-03-2019 02:00:00 1.4 C 89 % -0.21 C
1449 25-03-2019 02:05:00 1.6 C 89 % -0.01 C
1450 25-03-2019 02:10:00 1.6 C 89 % -0.01 C
Sensor: Nr:Datum:Temp:Feuchte:Taupunkt:
Aussen-T/F 1451 25-03-2019 02:15:00 1.7 C 89 % 0.09 C
1452 25-03-2019 02:20:00 1.8 C 89 % 0.19 C
1453 25-03-2019 02:25:00 1.9 C 89 % 0.28 C
1454 25-03-2019 02:30:00 1.9 C 89 % 0.28 C
1455 25-03-2019 02:35:00 2 C 89 % 0.38 C
1456 25-03-2019 02:40:00 2.1 C 89 % 0.48 C
1457 25-03-2019 02:45:00 2.2 C 89 % 0.58 C
1458 25-03-2019 02:50:00 2.2 C 89 % 0.58 C
1459 25-03-2019 02:55:00 2.3 C 88 % 0.52 C
1460 25-03-2019 03:00:00 2.2 C 88 % 0.42 C
1461 25-03-2019 03:05:00 2.2 C 88 % 0.42 C
1462 25-03-2019 03:10:00 2.2 C 88 % 0.42 C
1463 25-03-2019 03:15:00 2.3 C 88 % 0.52 C
1464 25-03-2019 03:20:00 2.3 C 88 % 0.52 C
1465 25-03-2019 03:25:00 2.3 C 88 % 0.52 C
1466 25-03-2019 03:30:00 2.2 C 88 % 0.42 C
1467 25-03-2019 03:35:00 2.3 C 88 % 0.52 C
1468 25-03-2019 03:40:00 2.3 C 88 % 0.52 C
1469 25-03-2019 03:45:00 2.4 C 88 % 0.62 C
1470 25-03-2019 03:50:00 2.4 C 88 % 0.62 C
1471 25-03-2019 03:55:00 2.4 C 88 % 0.62 C
1472 25-03-2019 04:00:00 2.4 C 87 % 0.46 C
1473 25-03-2019 04:05:00 2.4 C 87 % 0.46 C
1474 25-03-2019 04:10:00 2.4 C 87 % 0.46 C
1475 25-03-2019 04:15:00 2.4 C 88 % 0.62 C
Sensor: Nr:Datum:Temp:Feuchte:Taupunkt:
Aussen-T/F 1476 25-03-2019 04:20:00 2.6 C 88 % 0.82 C
1477 25-03-2019 04:25:00 2.7 C 88 % 0.92 C
1478 25-03-2019 04:30:00 2.9 C 87 % 0.96 C
1479 25-03-2019 04:35:00 3.1 C 86 % 0.99 C
1480 25-03-2019 04:40:00 3.3 C 85 % 1.03 C
1481 25-03-2019 04:45:00 3.4 C 84 % 0.96 C
1482 25-03-2019 04:50:00 3.3 C 83 % 0.7 C
1483 25-03-2019 04:55:00 3.4 C 83 % 0.79 C
1484 25-03-2019 05:00:00 3.4 C 83 % 0.79 C
1485 25-03-2019 05:05:00 3.5 C 83 % 0.89 C
1486 25-03-2019 05:10:00 3.6 C 83 % 0.99 C
1487 25-03-2019 05:15:00 3.6 C 83 % 0.99 C
1488 25-03-2019 05:20:00 3.7 C 83 % 1.09 C
1489 25-03-2019 05:25:00 3.8 C 82 % 1.02 C
1490 25-03-2019 05:30:00 3.9 C 81 % 0.95 C
1491 25-03-2019 05:35:00 3.8 C 82 % 1.02 C
1492 25-03-2019 05:40:00 3.7 C 82 % 0.92 C
1493 25-03-2019 05:45:00 3.7 C 82 % 0.92 C
1494 25-03-2019 05:50:00 3.7 C 82 % 0.92 C
1495 25-03-2019 05:55:00 3.7 C 83 % 1.09 C
1496 25-03-2019 06:00:00 3.7 C 83 % 1.09 C
1497 25-03-2019 06:05:00 3.7 C 83 % 1.09 C
1498 25-03-2019 06:10:00 3.7 C 83 % 1.09 C
1499 25-03-2019 06:15:00 3.7 C 83 % 1.09 C
1500 25-03-2019 06:20:00 3.7 C 83 % 1.09 C
Sensor: Nr:Datum:Temp:Feuchte:Taupunkt:
Aussen-T/F 1501 25-03-2019 06:25:00 3.7 C 83 % 1.09 C
1502 25-03-2019 06:30:00 3.7 C 83 % 1.09 C
1503 25-03-2019 06:35:00 3.8 C 83 % 1.19 C
1504 25-03-2019 06:40:00 3.8 C 83 % 1.19 C
1505 25-03-2019 06:45:00 3.8 C 83 % 1.19 C
1506 25-03-2019 06:50:00 3.8 C 83 % 1.19 C
1507 25-03-2019 06:55:00 3.8 C 84 % 1.35 C
1508 25-03-2019 07:00:00 3.9 C 84 % 1.45 C
1509 25-03-2019 07:05:00 4 C 84 % 1.55 C
1510 25-03-2019 07:10:00 4.2 C 84 % 1.74 C
1511 25-03-2019 07:15:00 4.4 C 84 % 1.94 C
1512 25-03-2019 07:20:00 4.6 C 84 % 2.14 C
1513 25-03-2019 07:25:00 4.7 C 84 % 2.23 C
1514 25-03-2019 07:30:00 4.6 C 84 % 2.14 C
1515 25-03-2019 07:35:00 4.5 C 85 % 2.2 C
1516 25-03-2019 07:40:00 4.5 C 86 % 2.37 C
1517 25-03-2019 07:45:00 4.4 C 86 % 2.27 C
1518 25-03-2019 07:50:00 4.4 C 87 % 2.43 C
1519 25-03-2019 07:55:00 4.4 C 86 % 2.27 C
1520 25-03-2019 08:00:00 4.3 C 87 % 2.33 C
1521 25-03-2019 08:05:00 4.3 C 89 % 2.65 C
1522 25-03-2019 08:10:00 4.3 C 90 % 2.81 C
1523 25-03-2019 08:15:00 4.3 C 90 % 2.81 C
1524 25-03-2019 08:20:00 4.3 C 91 % 2.96 C
1525 25-03-2019 08:25:00 4.4 C 92 % 3.22 C
Sensor: Nr:Datum:Temp:Feuchte:Taupunkt:
Aussen-T/F 1526 25-03-2019 08:30:00 4.6 C 92 % 3.42 C
1527 25-03-2019 08:35:00 4.7 C 92 % 3.51 C
1528 25-03-2019 08:40:00 4.8 C 92 % 3.61 C
1529 25-03-2019 08:45:00 4.8 C 92 % 3.61 C
1530 25-03-2019 08:50:00 4.9 C 92 % 3.71 C
1531 25-03-2019 08:55:00 5.1 C 93 % 4.06 C
1532 25-03-2019 09:00:00 5.4 C 93 % 4.36 C
1533 25-03-2019 09:05:00 5.7 C 90 % 4.19 C
1534 25-03-2019 09:10:00 5.9 C 88 % 4.07 C
1535 25-03-2019 09:15:00 6 C 87 % 4 C
1536 25-03-2019 09:20:00 6.1 C 86 % 3.94 C
1537 25-03-2019 09:25:00 6.1 C 86 % 3.94 C
1538 25-03-2019 09:30:00 6.2 C 86 % 4.04 C
1539 25-03-2019 09:35:00 6.2 C 82 % 3.36 C
1540 25-03-2019 09:40:00 6.3 C 82 % 3.46 C
1541 25-03-2019 09:45:00 6.4 C 82 % 3.56 C
1542 25-03-2019 09:50:00 6.6 C 81 % 3.58 C
1543 25-03-2019 09:55:00 6.9 C 80 % 3.7 C
1544 25-03-2019 10:00:00 7.1 C 76 % 3.16 C
1545 25-03-2019 10:05:00 7.3 C 77 % 3.54 C
1546 25-03-2019 10:10:00 7.4 C 74 % 3.08 C
1547 25-03-2019 10:15:00 7.4 C 71 % 2.5 C
1548 25-03-2019 10:20:00 7.5 C 72 % 2.79 C
1549 25-03-2019 10:25:00 7.5 C 72 % 2.79 C
1550 25-03-2019 10:30:00 7.6 C 72 % 2.88 C
Sensor: Nr:Datum:Temp:Feuchte:Taupunkt:
Aussen-T/F 1551 25-03-2019 10:35:00 7.8 C 72 % 3.08 C
1552 25-03-2019 10:40:00 7.7 C 75 % 3.56 C
1553 25-03-2019 10:45:00 7.4 C 76 % 3.45 C
1554 25-03-2019 10:50:00 7.1 C 77 % 3.35 C
1555 25-03-2019 10:55:00 7.2 C 78 % 3.63 C
1556 25-03-2019 11:00:00 7.3 C 76 % 3.36 C
1557 25-03-2019 11:05:00 7.5 C 75 % 3.36 C
1558 25-03-2019 11:10:00 7.6 C 75 % 3.46 C
1559 25-03-2019 11:15:00 7.6 C 73 % 3.08 C
1560 25-03-2019 11:20:00 7.8 C 73 % 3.27 C
1561 25-03-2019 11:25:00 7.8 C 71 % 2.88 C
1562 25-03-2019 11:30:00 7.7 C 71 % 2.78 C
1563 25-03-2019 11:35:00 7.2 C 76 % 3.26 C
1564 25-03-2019 11:40:00 6.9 C 79 % 3.52 C
1565 25-03-2019 11:45:00 6.9 C 80 % 3.7 C
1566 25-03-2019 11:50:00 7 C 81 % 3.97 C
1567 25-03-2019 11:55:00 7.2 C 78 % 3.63 C
1568 25-03-2019 12:00:00 7.7 C 77 % 3.93 C
1569 25-03-2019 12:05:00 7.9 C 75 % 3.75 C
1570 25-03-2019 12:10:00 7.8 C 75 % 3.65 C
1571 25-03-2019 12:15:00 7.4 C 79 % 4 C
1572 25-03-2019 12:20:00 7.3 C 79 % 3.91 C
1573 25-03-2019 12:25:00 7.5 C 80 % 4.28 C
1574 25-03-2019 12:30:00 7.8 C 78 % 4.21 C
1575 25-03-2019 12:35:00 8.2 C 77 % 4.42 C
Sensor: Nr:Datum:Temp:Feuchte:Taupunkt:
Aussen-T/F 1576 25-03-2019 12:40:00 8.4 C 75 % 4.23 C
1577 25-03-2019 12:45:00 8.2 C 75 % 4.04 C
1578 25-03-2019 12:50:00 7.4 C 80 % 4.18 C
1579 25-03-2019 12:55:00 7.1 C 82 % 4.24 C
1580 25-03-2019 13:00:00 7.2 C 84 % 4.68 C
1581 25-03-2019 13:05:00 7.2 C 82 % 4.34 C
1582 25-03-2019 13:10:00 6.7 C 83 % 4.02 C
1583 25-03-2019 13:15:00 6.5 C 85 % 4.17 C
1584 25-03-2019 13:20:00 6.7 C 87 % 4.69 C
1585 25-03-2019 13:25:00 7.1 C 85 % 4.75 C
1586 25-03-2019 13:30:00 7.5 C 81 % 4.46 C
1587 25-03-2019 13:35:00 7.8 C 79 % 4.39 C
1588 25-03-2019 13:40:00 8.2 C 78 % 4.6 C
1589 25-03-2019 13:45:00 8.5 C 75 % 4.33 C
1590 25-03-2019 13:50:00 8.6 C 75 % 4.43 C
1591 25-03-2019 13:55:00 8.6 C 74 % 4.24 C
1592 25-03-2019 14:00:00 8.4 C 73 % 3.85 C
1593 25-03-2019 14:05:00 8.2 C 73 % 3.66 C
1594 25-03-2019 14:10:00 7.8 C 73 % 3.27 C
1595 25-03-2019 14:15:00 7.2 C 76 % 3.26 C
1596 25-03-2019 14:20:00 7 C 77 % 3.25 C
1597 25-03-2019 14:25:00 7.1 C 79 % 3.71 C
1598 25-03-2019 14:30:00 7.4 C 79 % 4 C
1599 25-03-2019 14:35:00 7.7 C 79 % 4.3 C
1600 25-03-2019 14:40:00 7.8 C 78 % 4.21 C
Sensor: Nr:Datum:Temp:Feuchte:Taupunkt:
Aussen-T/F 1601 25-03-2019 14:45:00 7.8 C 77 % 4.03 C
1602 25-03-2019 14:50:00 7.8 C 78 % 4.21 C
1603 25-03-2019 14:55:00 7.7 C 79 % 4.3 C
1604 25-03-2019 15:00:00 7.8 C 79 % 4.39 C
1605 25-03-2019 15:05:00 7.8 C 77 % 4.03 C
1606 25-03-2019 15:10:00 7.8 C 77 % 4.03 C
1607 25-03-2019 15:15:00 7.6 C 79 % 4.2 C
1608 25-03-2019 15:20:00 6.8 C 82 % 3.95 C
1609 25-03-2019 15:25:00 6.4 C 84 % 3.9 C
1610 25-03-2019 15:30:00 6.6 C 88 % 4.76 C
1611 25-03-2019 15:35:00 6.7 C 88 % 4.86 C
1612 25-03-2019 15:40:00 7.1 C 90 % 5.57 C
1613 25-03-2019 15:45:00 7.2 C 87 % 5.19 C
1614 25-03-2019 15:50:00 7.2 C 87 % 5.19 C
1615 25-03-2019 15:55:00 7.2 C 87 % 5.19 C
1616 25-03-2019 16:00:00 7.2 C 85 % 4.85 C
1617 25-03-2019 16:05:00 7.3 C 84 % 4.78 C
1618 25-03-2019 16:10:00 7.3 C 85 % 4.95 C
1619 25-03-2019 16:15:00 7.4 C 84 % 4.88 C
1620 25-03-2019 16:20:00 7.5 C 84 % 4.98 C
1621 25-03-2019 16:25:00 7.6 C 83 % 4.9 C
1622 25-03-2019 16:30:00 7.6 C 83 % 4.9 C
1623 25-03-2019 16:35:00 7.6 C 83 % 4.9 C
1624 25-03-2019 16:40:00 7.6 C 83 % 4.9 C
1625 25-03-2019 16:45:00 7.1 C 84 % 4.58 C
Sensor: Nr:Datum:Temp:Feuchte:Taupunkt:
Aussen-T/F 1626 25-03-2019 16:50:00 6.7 C 85 % 4.36 C
1627 25-03-2019 16:55:00 6.6 C 86 % 4.43 C
1628 25-03-2019 17:00:00 6.4 C 87 % 4.4 C
1629 25-03-2019 17:05:00 6.3 C 87 % 4.3 C
1630 25-03-2019 17:10:00 6.2 C 88 % 4.36 C
1631 25-03-2019 17:15:00 5.9 C 89 % 4.23 C
1632 25-03-2019 17:20:00 5.6 C 89 % 3.93 C
1633 25-03-2019 17:25:00 5.6 C 90 % 4.09 C
1634 25-03-2019 17:30:00 5.6 C 91 % 4.25 C
1635 25-03-2019 17:35:00 5.5 C 91 % 4.15 C
1636 25-03-2019 17:40:00 5.4 C 91 % 4.05 C
1637 25-03-2019 17:45:00 5.4 C 92 % 4.21 C
1638 25-03-2019 17:50:00 5.4 C 92 % 4.21 C
1639 25-03-2019 17:55:00 5.3 C 92 % 4.11 C
1640 25-03-2019 18:00:00 5.3 C 92 % 4.11 C
1641 25-03-2019 18:05:00 5.3 C 93 % 4.26 C
1642 25-03-2019 18:10:00 5.3 C 93 % 4.26 C
1643 25-03-2019 18:15:00 5.3 C 93 % 4.26 C
1644 25-03-2019 18:20:00 5.3 C 93 % 4.26 C
1645 25-03-2019 18:25:00 5.3 C 93 % 4.26 C
1646 25-03-2019 18:30:00 5.3 C 93 % 4.26 C
1647 25-03-2019 18:35:00 5.3 C 93 % 4.26 C
1648 25-03-2019 18:40:00 5.3 C 94 % 4.41 C
1649 25-03-2019 18:45:00 5.3 C 94 % 4.41 C
1650 25-03-2019 18:50:00 5.3 C 94 % 4.41 C
Sensor: Nr:Datum:Temp:Feuchte:Taupunkt:
Aussen-T/F 1651 25-03-2019 18:55:00 5.3 C 94 % 4.41 C
1652 25-03-2019 19:00:00 5.3 C 94 % 4.41 C
1653 25-03-2019 19:05:00 5.3 C 94 % 4.41 C
1654 25-03-2019 19:10:00 5.3 C 94 % 4.41 C
1655 25-03-2019 19:15:00 5.2 C 94 % 4.32 C
1656 25-03-2019 19:20:00 5.1 C 93 % 4.06 C
1657 25-03-2019 19:25:00 4.9 C 93 % 3.87 C
1658 25-03-2019 19:30:00 4.8 C 94 % 3.92 C
1659 25-03-2019 19:35:00 4.8 C 94 % 3.92 C
1660 25-03-2019 19:40:00 4.9 C 94 % 4.02 C
1661 25-03-2019 19:45:00 4.9 C 94 % 4.02 C
1662 25-03-2019 19:50:00 5 C 94 % 4.12 C
1663 25-03-2019 19:55:00 5 C 94 % 4.12 C
1664 25-03-2019 20:00:00 5.1 C 94 % 4.22 C
1665 25-03-2019 20:05:00 5.1 C 94 % 4.22 C
1666 25-03-2019 20:10:00 5.1 C 94 % 4.22 C
1667 25-03-2019 20:15:00 5.1 C 95 % 4.37 C
1668 25-03-2019 20:20:00 5.1 C 95 % 4.37 C
1669 25-03-2019 20:25:00 5.1 C 95 % 4.37 C
1670 25-03-2019 20:30:00 5.1 C 95 % 4.37 C
1671 25-03-2019 20:35:00 5 C 95 % 4.27 C
1672 25-03-2019 20:40:00 5 C 95 % 4.27 C
1673 25-03-2019 20:45:00 5.1 C 95 % 4.37 C
1674 25-03-2019 20:50:00 5.2 C 95 % 4.47 C
1675 25-03-2019 20:55:00 5.2 C 95 % 4.47 C
Sensor: Nr:Datum:Temp:Feuchte:Taupunkt:
Aussen-T/F 1676 25-03-2019 21:00:00 5.3 C 95 % 4.57 C
1677 25-03-2019 21:05:00 5.3 C 95 % 4.57 C
1678 25-03-2019 21:10:00 5.3 C 95 % 4.57 C
1679 25-03-2019 21:15:00 5.3 C 95 % 4.57 C
1680 25-03-2019 21:20:00 5.3 C 95 % 4.57 C
1681 25-03-2019 21:25:00 5.3 C 95 % 4.57 C
1682 25-03-2019 21:30:00 5.2 C 95 % 4.47 C
1683 25-03-2019 21:35:00 5.2 C 95 % 4.47 C
1684 25-03-2019 21:40:00 5.2 C 95 % 4.47 C
1685 25-03-2019 21:45:00 5.2 C 95 % 4.47 C
1686 25-03-2019 21:50:00 5.2 C 95 % 4.47 C
1687 25-03-2019 21:55:00 5.1 C 95 % 4.37 C
1688 25-03-2019 22:00:00 5.2 C 94 % 4.32 C
1689 25-03-2019 22:05:00 5.3 C 94 % 4.41 C
1690 25-03-2019 22:10:00 5.3 C 93 % 4.26 C
1691 25-03-2019 22:15:00 5.2 C 93 % 4.16 C
1692 25-03-2019 22:20:00 5.2 C 92 % 4.01 C
1693 25-03-2019 22:25:00 5.1 C 93 % 4.06 C
1694 25-03-2019 22:30:00 5.1 C 93 % 4.06 C
1695 25-03-2019 22:35:00 5.1 C 93 % 4.06 C
1696 25-03-2019 22:40:00 5.1 C 93 % 4.06 C
1697 25-03-2019 22:45:00 5.1 C 93 % 4.06 C
1698 25-03-2019 22:50:00 5.1 C 93 % 4.06 C
1699 25-03-2019 22:55:00 5.1 C 93 % 4.06 C
1700 25-03-2019 23:00:00 5 C 93 % 3.96 C
Sensor: Nr:Datum:Temp:Feuchte:Taupunkt:
Aussen-T/F 1701 25-03-2019 23:05:00 5 C 93 % 3.96 C
1702 25-03-2019 23:10:00 4.9 C 93 % 3.87 C
1703 25-03-2019 23:15:00 4.9 C 93 % 3.87 C
1704 25-03-2019 23:20:00 4.8 C 93 % 3.77 C
1705 25-03-2019 23:25:00 4.7 C 93 % 3.67 C
1706 25-03-2019 23:30:00 4.6 C 93 % 3.57 C
1707 25-03-2019 23:35:00 4.5 C 93 % 3.47 C
1708 25-03-2019 23:40:00 4.4 C 94 % 3.52 C
1709 25-03-2019 23:45:00 4.4 C 94 % 3.52 C
1710 25-03-2019 23:50:00 4.3 C 94 % 3.42 C
1711 25-03-2019 23:55:00 4.3 C 94 % 3.42 C
1712 26-03-2019 00:00:00 4.3 C 94 % 3.42 C
1713 26-03-2019 00:05:00 4.3 C 94 % 3.42 C
1714 26-03-2019 00:10:00 4.3 C 94 % 3.42 C
1715 26-03-2019 00:15:00 4.4 C 94 % 3.52 C
1716 26-03-2019 00:20:00 4.4 C 94 % 3.52 C
1717 26-03-2019 00:25:00 4.4 C 95 % 3.67 C
1718 26-03-2019 00:30:00 4.6 C 95 % 3.87 C
1719 26-03-2019 00:35:00 4.6 C 95 % 3.87 C
1720 26-03-2019 00:40:00 4.6 C 95 % 3.87 C
1721 26-03-2019 00:45:00 4.6 C 95 % 3.87 C
1722 26-03-2019 00:50:00 4.7 C 95 % 3.97 C
1723 26-03-2019 00:55:00 4.7 C 95 % 3.97 C
1724 26-03-2019 01:00:00 4.7 C 94 % 3.82 C
1725 26-03-2019 01:05:00 4.7 C 94 % 3.82 C
Sensor: Nr:Datum:Temp:Feuchte:Taupunkt:
Aussen-T/F 1726 26-03-2019 01:10:00 4.7 C 94 % 3.82 C
1727 26-03-2019 01:15:00 4.7 C 94 % 3.82 C
1728 26-03-2019 01:20:00 4.7 C 94 % 3.82 C
1729 26-03-2019 01:25:00 4.6 C 94 % 3.72 C
1730 26-03-2019 01:30:00 4.6 C 94 % 3.72 C
1731 26-03-2019 01:35:00 4.4 C 94 % 3.52 C
1732 26-03-2019 01:40:00 4.3 C 94 % 3.42 C
1733 26-03-2019 01:45:00 4.3 C 94 % 3.42 C
1734 26-03-2019 01:50:00 4.3 C 94 % 3.42 C
1735 26-03-2019 01:55:00 4.3 C 94 % 3.42 C
1736 26-03-2019 02:00:00 4.3 C 94 % 3.42 C
1737 26-03-2019 02:05:00 4.3 C 95 % 3.57 C
1738 26-03-2019 02:10:00 4.3 C 95 % 3.57 C
1739 26-03-2019 02:15:00 4.4 C 95 % 3.67 C
1740 26-03-2019 02:20:00 4.4 C 95 % 3.67 C
1741 26-03-2019 02:25:00 4.4 C 95 % 3.67 C
1742 26-03-2019 02:30:00 4.4 C 95 % 3.67 C
1743 26-03-2019 02:35:00 4.4 C 95 % 3.67 C
1744 26-03-2019 02:40:00 4.4 C 95 % 3.67 C
1745 26-03-2019 02:45:00 4.4 C 95 % 3.67 C
1746 26-03-2019 02:50:00 4.4 C 95 % 3.67 C
1747 26-03-2019 02:55:00 4.4 C 95 % 3.67 C
1748 26-03-2019 03:00:00 4.5 C 95 % 3.77 C
1749 26-03-2019 03:05:00 4.5 C 95 % 3.77 C
1750 26-03-2019 03:10:00 4.6 C 95 % 3.87 C
Sensor: Nr:Datum:Temp:Feuchte:Taupunkt:
Aussen-T/F 1751 26-03-2019 03:15:00 4.6 C 95 % 3.87 C
1752 26-03-2019 03:20:00 4.6 C 95 % 3.87 C
1753 26-03-2019 03:25:00 4.6 C 95 % 3.87 C
1754 26-03-2019 03:30:00 4.6 C 95 % 3.87 C
1755 26-03-2019 03:35:00 4.7 C 95 % 3.97 C
1756 26-03-2019 03:40:00 4.7 C 95 % 3.97 C
1757 26-03-2019 03:45:00 4.7 C 95 % 3.97 C
1758 26-03-2019 03:50:00 4.8 C 95 % 4.07 C
1759 26-03-2019 03:55:00 4.8 C 95 % 4.07 C
1760 26-03-2019 04:00:00 4.8 C 95 % 4.07 C
1761 26-03-2019 04:05:00 4.8 C 95 % 4.07 C
1762 26-03-2019 04:10:00 4.8 C 95 % 4.07 C
1763 26-03-2019 04:15:00 4.8 C 95 % 4.07 C
1764 26-03-2019 04:20:00 4.8 C 95 % 4.07 C
1765 26-03-2019 04:25:00 4.9 C 95 % 4.17 C
1766 26-03-2019 04:30:00 4.9 C 95 % 4.17 C
1767 26-03-2019 04:35:00 5 C 95 % 4.27 C
1768 26-03-2019 04:40:00 5 C 95 % 4.27 C
1769 26-03-2019 04:45:00 5 C 95 % 4.27 C
1770 26-03-2019 04:50:00 5.1 C 95 % 4.37 C
1771 26-03-2019 04:55:00 5.1 C 95 % 4.37 C
1772 26-03-2019 05:00:00 5.1 C 94 % 4.22 C
1773 26-03-2019 05:05:00 5 C 94 % 4.12 C
1774 26-03-2019 05:10:00 5 C 94 % 4.12 C
1775 26-03-2019 05:15:00 5 C 94 % 4.12 C
Sensor: Nr:Datum:Temp:Feuchte:Taupunkt:
Aussen-T/F 1776 26-03-2019 05:20:00 5 C 94 % 4.12 C
1777 26-03-2019 05:25:00 5 C 94 % 4.12 C
1778 26-03-2019 05:30:00 5 C 94 % 4.12 C
1779 26-03-2019 05:35:00 5 C 94 % 4.12 C
1780 26-03-2019 05:40:00 5 C 94 % 4.12 C
1781 26-03-2019 05:45:00 5 C 93 % 3.96 C
1782 26-03-2019 05:50:00 5 C 93 % 3.96 C
1783 26-03-2019 05:55:00 5 C 93 % 3.96 C
1784 26-03-2019 06:00:00 5 C 93 % 3.96 C
1785 26-03-2019 06:05:00 4.9 C 93 % 3.87 C
1786 26-03-2019 06:10:00 4.9 C 93 % 3.87 C
1787 26-03-2019 06:15:00 4.9 C 92 % 3.71 C
1788 26-03-2019 06:20:00 4.9 C 92 % 3.71 C
1789 26-03-2019 06:25:00 5 C 92 % 3.81 C
1790 26-03-2019 06:30:00 5 C 91 % 3.66 C
1791 26-03-2019 06:35:00 5 C 91 % 3.66 C
1792 26-03-2019 06:40:00 5.1 C 91 % 3.76 C
1793 26-03-2019 06:45:00 5.1 C 91 % 3.76 C
1794 26-03-2019 06:50:00 5.1 C 91 % 3.76 C
1795 26-03-2019 06:55:00 5 C 91 % 3.66 C
1796 26-03-2019 07:00:00 5 C 91 % 3.66 C
1797 26-03-2019 07:05:00 5 C 91 % 3.66 C
1798 26-03-2019 07:10:00 5 C 91 % 3.66 C
1799 26-03-2019 07:15:00 5 C 90 % 3.5 C
1800 26-03-2019 07:20:00 5 C 90 % 3.5 C
Sensor: Nr:Datum:Temp:Feuchte:Taupunkt:
Aussen-T/F 1801 26-03-2019 07:25:00 5.1 C 90 % 3.6 C
1802 26-03-2019 07:30:00 5.1 C 90 % 3.6 C
1803 26-03-2019 07:35:00 5.1 C 90 % 3.6 C
1804 26-03-2019 07:40:00 5.1 C 90 % 3.6 C
1805 26-03-2019 07:45:00 5.1 C 90 % 3.6 C
1806 26-03-2019 07:50:00 5.1 C 89 % 3.44 C
1807 26-03-2019 07:55:00 5.2 C 89 % 3.54 C
1808 26-03-2019 08:00:00 5.2 C 89 % 3.54 C
1809 26-03-2019 08:05:00 5.2 C 88 % 3.38 C
1810 26-03-2019 08:10:00 5.3 C 87 % 3.32 C
1811 26-03-2019 08:15:00 5.3 C 86 % 3.15 C
1812 26-03-2019 08:20:00 5.4 C 85 % 3.09 C
1813 26-03-2019 08:25:00 5.6 C 85 % 3.28 C
1814 26-03-2019 08:30:00 5.6 C 85 % 3.28 C
1815 26-03-2019 08:35:00 5.7 C 84 % 3.21 C
1816 26-03-2019 08:40:00 5.7 C 83 % 3.04 C
1817 26-03-2019 08:45:00 5.8 C 84 % 3.31 C
1818 26-03-2019 08:50:00 5.9 C 83 % 3.24 C
1819 26-03-2019 08:55:00 5.9 C 83 % 3.24 C
1820 26-03-2019 09:00:00 6.1 C 84 % 3.61 C
1821 26-03-2019 09:05:00 6.1 C 82 % 3.26 C
1822 26-03-2019 09:10:00 6.1 C 80 % 2.92 C
1823 26-03-2019 09:15:00 6.1 C 80 % 2.92 C
1824 26-03-2019 09:20:00 6.1 C 79 % 2.74 C
1825 26-03-2019 09:25:00 6.1 C 79 % 2.74 C
Sensor: Nr:Datum:Temp:Feuchte:Taupunkt:
Aussen-T/F 1826 26-03-2019 09:30:00 6.2 C 80 % 3.01 C
1827 26-03-2019 09:35:00 6.2 C 80 % 3.01 C
1828 26-03-2019 09:40:00 6.3 C 79 % 2.93 C
1829 26-03-2019 09:45:00 6.4 C 80 % 3.21 C
1830 26-03-2019 09:50:00 6.4 C 79 % 3.03 C
1831 26-03-2019 09:55:00 6.6 C 80 % 3.4 C
1832 26-03-2019 10:00:00 6.6 C 80 % 3.4 C
1833 26-03-2019 10:05:00 6.7 C 78 % 3.14 C
1834 26-03-2019 10:10:00 6.7 C 79 % 3.32 C
1835 26-03-2019 10:15:00 6.8 C 79 % 3.42 C
1836 26-03-2019 10:20:00 6.9 C 78 % 3.34 C
1837 26-03-2019 10:25:00 7 C 76 % 3.07 C
1838 26-03-2019 10:30:00 7.1 C 76 % 3.16 C
1839 26-03-2019 10:35:00 7.2 C 75 % 3.07 C
1840 26-03-2019 10:40:00 7.2 C 75 % 3.07 C
1841 26-03-2019 10:45:00 7.2 C 74 % 2.89 C
1842 26-03-2019 10:50:00 7.2 C 73 % 2.69 C
1843 26-03-2019 10:55:00 7.2 C 74 % 2.89 C
1844 26-03-2019 11:00:00 7.2 C 73 % 2.69 C
1845 26-03-2019 11:05:00 7.1 C 73 % 2.6 C
1846 26-03-2019 11:10:00 7.1 C 73 % 2.6 C
1847 26-03-2019 11:15:00 7.1 C 74 % 2.79 C
1848 26-03-2019 11:20:00 7.1 C 75 % 2.98 C
1849 26-03-2019 11:25:00 6.9 C 72 % 2.21 C
1850 26-03-2019 11:30:00 7 C 72 % 2.31 C
Sensor: Nr:Datum:Temp:Feuchte:Taupunkt:
Aussen-T/F 1851 26-03-2019 11:35:00 7.2 C 71 % 2.3 C
1852 26-03-2019 11:40:00 7.3 C 71 % 2.4 C
1853 26-03-2019 11:45:00 7.6 C 69 % 2.29 C
1854 26-03-2019 11:50:00 7.7 C 69 % 2.38 C
1855 26-03-2019 11:55:00 7.9 C 70 % 2.78 C
1856 26-03-2019 12:00:00 8.1 C 70 % 2.97 C
1857 26-03-2019 12:05:00 8.2 C 70 % 3.06 C
1858 26-03-2019 12:10:00 8.3 C 70 % 3.16 C
1859 26-03-2019 12:15:00 8.3 C 70 % 3.16 C
1860 26-03-2019 12:20:00 8.3 C 69 % 2.96 C
1861 26-03-2019 12:25:00 8.3 C 70 % 3.16 C
1862 26-03-2019 12:30:00 8.4 C 70 % 3.26 C
1863 26-03-2019 12:35:00 8.7 C 71 % 3.74 C
1864 26-03-2019 12:40:00 8.8 C 69 % 3.44 C
1865 26-03-2019 12:45:00 8.7 C 67 % 2.92 C
1866 26-03-2019 12:50:00 8.7 C 69 % 3.34 C
1867 26-03-2019 12:55:00 8.8 C 70 % 3.64 C
1868 26-03-2019 13:00:00 8.9 C 69 % 3.53 C
1869 26-03-2019 13:05:00 9 C 64 % 2.57 C
1870 26-03-2019 13:10:00 8.9 C 66 % 2.9 C
1871 26-03-2019 13:15:00 8.7 C 64 % 2.28 C
1872 26-03-2019 13:20:00 8.7 C 65 % 2.5 C
1873 26-03-2019 13:25:00 8.7 C 68 % 3.13 C
1874 26-03-2019 13:30:00 8.8 C 67 % 3.02 C
1875 26-03-2019 13:35:00 8.9 C 66 % 2.9 C
Sensor: Nr:Datum:Temp:Feuchte:Taupunkt:
Aussen-T/F 1876 26-03-2019 13:40:00 8.9 C 67 % 3.12 C
1877 26-03-2019 13:45:00 8.9 C 66 % 2.9 C
1878 26-03-2019 13:50:00 8.9 C 64 % 2.47 C
1879 26-03-2019 13:55:00 8.9 C 66 % 2.9 C
1880 26-03-2019 14:00:00 8.8 C 67 % 3.02 C
1881 26-03-2019 14:05:00 8.9 C 64 % 2.47 C
1882 26-03-2019 14:10:00 8.8 C 64 % 2.38 C
1883 26-03-2019 14:15:00 8.9 C 65 % 2.69 C
1884 26-03-2019 14:20:00 8.9 C 66 % 2.9 C
1885 26-03-2019 14:25:00 9 C 65 % 2.78 C
1886 26-03-2019 14:30:00 9.1 C 65 % 2.88 C
1887 26-03-2019 14:35:00 8.9 C 64 % 2.47 C
1888 26-03-2019 14:40:00 8.9 C 66 % 2.9 C
1889 26-03-2019 14:45:00 8.8 C 64 % 2.38 C
1890 26-03-2019 14:50:00 8.8 C 64 % 2.38 C
1891 26-03-2019 14:55:00 8.7 C 66 % 2.71 C
1892 26-03-2019 15:00:00 8.7 C 65 % 2.5 C
1893 26-03-2019 15:05:00 8.7 C 68 % 3.13 C
1894 26-03-2019 15:10:00 8.8 C 67 % 3.02 C
1895 26-03-2019 15:15:00 8.9 C 66 % 2.9 C
1896 26-03-2019 15:20:00 8.9 C 67 % 3.12 C
1897 26-03-2019 15:25:00 8.9 C 67 % 3.12 C
1898 26-03-2019 15:30:00 8.9 C 68 % 3.32 C
1899 26-03-2019 15:35:00 9 C 67 % 3.21 C
1900 26-03-2019 15:40:00 9.1 C 68 % 3.52 C
Sensor: Nr:Datum:Temp:Feuchte:Taupunkt:
Aussen-T/F 1901 26-03-2019 15:45:00 9.2 C 66 % 3.19 C
1902 26-03-2019 15:50:00 9.5 C 66 % 3.47 C
1903 26-03-2019 15:55:00 9.8 C 64 % 3.32 C
1904 26-03-2019 16:00:00 9.9 C 64 % 3.42 C
1905 26-03-2019 16:05:00 9.9 C 62 % 2.97 C
1906 26-03-2019 16:10:00 9.8 C 62 % 2.88 C
1907 26-03-2019 16:15:00 9.7 C 64 % 3.23 C
1908 26-03-2019 16:20:00 9.6 C 63 % 2.91 C
1909 26-03-2019 16:25:00 9.5 C 65 % 3.26 C
1910 26-03-2019 16:30:00 9.4 C 65 % 3.16 C
1911 26-03-2019 16:35:00 9.4 C 64 % 2.95 C
1912 26-03-2019 16:40:00 9.3 C 66 % 3.28 C
1913 26-03-2019 16:45:00 9.2 C 66 % 3.19 C
1914 26-03-2019 16:50:00 9.2 C 68 % 3.61 C
1915 26-03-2019 16:55:00 9 C 68 % 3.42 C
1916 26-03-2019 17:00:00 8.8 C 69 % 3.44 C
1917 26-03-2019 17:05:00 8.7 C 70 % 3.54 C
1918 26-03-2019 17:10:00 8.6 C 70 % 3.45 C
1919 26-03-2019 17:15:00 8.5 C 71 % 3.55 C
1920 26-03-2019 17:20:00 8.4 C 72 % 3.65 C
1921 26-03-2019 17:25:00 8.4 C 71 % 3.46 C
1922 26-03-2019 17:30:00 8.4 C 72 % 3.65 C
1923 26-03-2019 17:35:00 8.3 C 72 % 3.56 C
1924 26-03-2019 17:40:00 8.3 C 71 % 3.36 C
1925 26-03-2019 17:45:00 8.3 C 72 % 3.56 C
Sensor: Nr:Datum:Temp:Feuchte:Taupunkt:
Aussen-T/F 1926 26-03-2019 17:50:00 8.3 C 72 % 3.56 C
1927 26-03-2019 17:55:00 8.2 C 72 % 3.46 C
1928 26-03-2019 18:00:00 8.2 C 73 % 3.66 C
1929 26-03-2019 18:05:00 8.2 C 73 % 3.66 C
1930 26-03-2019 18:10:00 8.2 C 73 % 3.66 C
1931 26-03-2019 18:15:00 8.2 C 73 % 3.66 C
1932 26-03-2019 18:20:00 8.2 C 73 % 3.66 C
1933 26-03-2019 18:25:00 8.2 C 74 % 3.85 C
1934 26-03-2019 18:30:00 8.2 C 74 % 3.85 C
1935 26-03-2019 18:35:00 8.1 C 74 % 3.75 C
1936 26-03-2019 18:40:00 8.1 C 75 % 3.94 C
1937 26-03-2019 18:45:00 8 C 75 % 3.85 C
1938 26-03-2019 18:50:00 7.9 C 75 % 3.75 C
1939 26-03-2019 18:55:00 7.9 C 75 % 3.75 C
1940 26-03-2019 19:00:00 7.9 C 75 % 3.75 C
1941 26-03-2019 19:05:00 7.9 C 76 % 3.94 C
1942 26-03-2019 19:10:00 7.9 C 77 % 4.12 C
1943 26-03-2019 19:15:00 7.8 C 78 % 4.21 C
1944 26-03-2019 19:20:00 7.7 C 77 % 3.93 C
1945 26-03-2019 19:25:00 7.6 C 78 % 4.02 C
1946 26-03-2019 19:30:00 7.6 C 79 % 4.2 C
1947 26-03-2019 19:35:00 7.5 C 80 % 4.28 C
1948 26-03-2019 19:40:00 7.4 C 81 % 4.36 C
1949 26-03-2019 19:45:00 7.3 C 81 % 4.26 C
1950 26-03-2019 19:50:00 7.3 C 81 % 4.26 C
Sensor: Nr:Datum:Temp:Feuchte:Taupunkt:
Aussen-T/F 1951 26-03-2019 19:55:00 7.2 C 81 % 4.16 C
1952 26-03-2019 20:00:00 7.2 C 82 % 4.34 C
1953 26-03-2019 20:05:00 7.1 C 81 % 4.07 C
1954 26-03-2019 20:10:00 7.1 C 82 % 4.24 C
1955 26-03-2019 20:15:00 7.1 C 82 % 4.24 C
1956 26-03-2019 20:20:00 7.1 C 82 % 4.24 C
1957 26-03-2019 20:25:00 7.1 C 82 % 4.24 C
1958 26-03-2019 20:30:00 7.1 C 82 % 4.24 C
1959 26-03-2019 20:35:00 7.1 C 82 % 4.24 C
1960 26-03-2019 20:40:00 7 C 82 % 4.14 C
1961 26-03-2019 20:45:00 7 C 83 % 4.32 C
1962 26-03-2019 20:50:00 7 C 83 % 4.32 C
1963 26-03-2019 20:55:00 7 C 83 % 4.32 C
1964 26-03-2019 21:00:00 6.9 C 83 % 4.22 C
1965 26-03-2019 21:05:00 6.9 C 83 % 4.22 C
1966 26-03-2019 21:10:00 6.9 C 83 % 4.22 C
1967 26-03-2019 21:15:00 6.9 C 84 % 4.39 C
1968 26-03-2019 21:20:00 6.9 C 84 % 4.39 C
1969 26-03-2019 21:25:00 6.8 C 84 % 4.29 C
1970 26-03-2019 21:30:00 6.8 C 84 % 4.29 C
1971 26-03-2019 21:35:00 6.8 C 84 % 4.29 C
1972 26-03-2019 21:40:00 6.8 C 85 % 4.46 C
1973 26-03-2019 21:45:00 6.7 C 85 % 4.36 C
1974 26-03-2019 21:50:00 6.7 C 85 % 4.36 C
1975 26-03-2019 21:55:00 6.7 C 85 % 4.36 C
Sensor: Nr:Datum:Temp:Feuchte:Taupunkt:
Aussen-T/F 1976 26-03-2019 22:00:00 6.6 C 85 % 4.26 C
1977 26-03-2019 22:05:00 6.6 C 85 % 4.26 C
1978 26-03-2019 22:10:00 6.6 C 86 % 4.43 C
1979 26-03-2019 22:15:00 6.6 C 86 % 4.43 C
1980 26-03-2019 22:20:00 6.6 C 86 % 4.43 C
1981 26-03-2019 22:25:00 6.6 C 86 % 4.43 C
1982 26-03-2019 22:30:00 6.5 C 86 % 4.33 C
1983 26-03-2019 22:35:00 6.5 C 87 % 4.5 C
1984 26-03-2019 22:40:00 6.4 C 87 % 4.4 C
1985 26-03-2019 22:45:00 6.4 C 87 % 4.4 C
1986 26-03-2019 22:50:00 6.4 C 87 % 4.4 C
1987 26-03-2019 22:55:00 6.4 C 87 % 4.4 C
1988 26-03-2019 23:00:00 6.3 C 87 % 4.3 C
1989 26-03-2019 23:05:00 6.3 C 87 % 4.3 C
1990 26-03-2019 23:10:00 6.3 C 87 % 4.3 C
1991 26-03-2019 23:15:00 6.3 C 87 % 4.3 C
1992 26-03-2019 23:20:00 6.3 C 87 % 4.3 C
1993 26-03-2019 23:25:00 6.2 C 87 % 4.2 C
1994 26-03-2019 23:30:00 6.2 C 87 % 4.2 C
1995 26-03-2019 23:35:00 6.2 C 87 % 4.2 C
1996 26-03-2019 23:40:00 6.2 C 88 % 4.36 C
1997 26-03-2019 23:45:00 6.2 C 87 % 4.2 C
1998 26-03-2019 23:50:00 6.2 C 87 % 4.2 C
1999 26-03-2019 23:55:00 6.2 C 87 % 4.2 C
2000 27-03-2019 00:00:00 6.2 C 88 % 4.36 C
Sensor: Nr:Datum:Temp:Feuchte:Taupunkt:
Aussen-T/F 2001 27-03-2019 00:05:00 6.2 C 87 % 4.2 C
2002 27-03-2019 00:10:00 6.2 C 87 % 4.2 C
2003 27-03-2019 00:15:00 6.2 C 87 % 4.2 C
2004 27-03-2019 00:20:00 6.2 C 87 % 4.2 C
2005 27-03-2019 00:25:00 6.2 C 87 % 4.2 C
2006 27-03-2019 00:30:00 6.1 C 87 % 4.1 C
2007 27-03-2019 00:35:00 6.1 C 88 % 4.27 C
2008 27-03-2019 00:40:00 6.1 C 88 % 4.27 C
2009 27-03-2019 00:45:00 6 C 88 % 4.17 C
2010 27-03-2019 00:50:00 5.9 C 88 % 4.07 C
2011 27-03-2019 00:55:00 5.9 C 88 % 4.07 C
2012 27-03-2019 01:00:00 5.8 C 88 % 3.97 C
2013 27-03-2019 01:05:00 5.8 C 89 % 4.13 C
2014 27-03-2019 01:10:00 5.8 C 89 % 4.13 C
2015 27-03-2019 01:15:00 5.7 C 89 % 4.03 C
2016 27-03-2019 01:20:00 5.7 C 89 % 4.03 C
2017 27-03-2019 01:25:00 5.7 C 89 % 4.03 C
2018 27-03-2019 01:30:00 5.6 C 89 % 3.93 C
2019 27-03-2019 01:35:00 5.5 C 89 % 3.84 C
2020 27-03-2019 01:40:00 5.4 C 89 % 3.74 C
2021 27-03-2019 01:45:00 5.3 C 89 % 3.64 C
2022 27-03-2019 01:50:00 5.3 C 90 % 3.8 C
2023 27-03-2019 01:55:00 5.3 C 90 % 3.8 C
2024 27-03-2019 02:00:00 5.3 C 90 % 3.8 C
2025 27-03-2019 02:05:00 5.3 C 90 % 3.8 C
Sensor: Nr:Datum:Temp:Feuchte:Taupunkt:
Aussen-T/F 2026 27-03-2019 02:10:00 5.3 C 90 % 3.8 C
2027 27-03-2019 02:15:00 5.3 C 90 % 3.8 C
2028 27-03-2019 02:20:00 5.3 C 90 % 3.8 C
2029 27-03-2019 02:25:00 5.3 C 91 % 3.95 C
2030 27-03-2019 02:30:00 5.3 C 91 % 3.95 C
2031 27-03-2019 02:35:00 5.2 C 91 % 3.85 C
2032 27-03-2019 02:40:00 5.2 C 91 % 3.85 C
2033 27-03-2019 02:45:00 5.2 C 91 % 3.85 C
2034 27-03-2019 02:50:00 5.2 C 90 % 3.7 C
2035 27-03-2019 02:55:00 5.1 C 91 % 3.76 C
2036 27-03-2019 03:00:00 5.1 C 90 % 3.6 C
2037 27-03-2019 03:05:00 5 C 90 % 3.5 C
2038 27-03-2019 03:10:00 5 C 91 % 3.66 C
2039 27-03-2019 03:15:00 5 C 91 % 3.66 C
2040 27-03-2019 03:20:00 5 C 91 % 3.66 C
2041 27-03-2019 03:25:00 4.9 C 91 % 3.56 C
2042 27-03-2019 03:30:00 4.9 C 91 % 3.56 C
2043 27-03-2019 03:35:00 4.9 C 91 % 3.56 C
2044 27-03-2019 03:40:00 4.9 C 91 % 3.56 C
2045 27-03-2019 03:45:00 4.8 C 91 % 3.46 C
2046 27-03-2019 03:50:00 4.7 C 90 % 3.2 C
2047 27-03-2019 03:55:00 4.6 C 90 % 3.1 C
2048 27-03-2019 04:00:00 4.5 C 91 % 3.16 C
2049 27-03-2019 04:05:00 4.4 C 91 % 3.06 C
2050 27-03-2019 04:10:00 4.3 C 91 % 2.96 C
Sensor: Nr:Datum:Temp:Feuchte:Taupunkt:
Aussen-T/F 2051 27-03-2019 04:15:00 4.2 C 91 % 2.87 C
2052 27-03-2019 04:20:00 4.2 C 91 % 2.87 C
2053 27-03-2019 04:25:00 4.2 C 91 % 2.87 C
2054 27-03-2019 04:30:00 4.1 C 91 % 2.77 C
2055 27-03-2019 04:35:00 4 C 91 % 2.67 C
2056 27-03-2019 04:40:00 3.8 C 91 % 2.47 C
2057 27-03-2019 04:45:00 3.8 C 91 % 2.47 C
2058 27-03-2019 04:50:00 3.7 C 91 % 2.37 C
2059 27-03-2019 04:55:00 3.5 C 91 % 2.17 C
2060 27-03-2019 05:00:00 3.3 C 91 % 1.98 C
2061 27-03-2019 05:05:00 3.2 C 91 % 1.88 C
2062 27-03-2019 05:10:00 3.2 C 92 % 2.03 C
2063 27-03-2019 05:15:00 3.1 C 92 % 1.93 C
2064 27-03-2019 05:20:00 3 C 92 % 1.83 C
2065 27-03-2019 05:25:00 2.9 C 92 % 1.73 C
2066 27-03-2019 05:30:00 2.9 C 92 % 1.73 C
2067 27-03-2019 05:35:00 2.9 C 92 % 1.73 C
2068 27-03-2019 05:40:00 2.8 C 93 % 1.78 C
2069 27-03-2019 05:45:00 2.7 C 92 % 1.53 C
2070 27-03-2019 05:50:00 2.6 C 92 % 1.43 C
2071 27-03-2019 05:55:00 2.4 C 92 % 1.24 C
2072 27-03-2019 06:00:00 2.4 C 93 % 1.39 C
2073 27-03-2019 06:05:00 2.3 C 93 % 1.29 C
2074 27-03-2019 06:10:00 2.2 C 93 % 1.19 C
2075 27-03-2019 06:15:00 2.1 C 93 % 1.09 C
Sensor: Nr:Datum:Temp:Feuchte:Taupunkt:
Aussen-T/F 2076 27-03-2019 06:20:00 2.1 C 93 % 1.09 C
2077 27-03-2019 06:25:00 2.1 C 93 % 1.09 C
2078 27-03-2019 06:30:00 2.1 C 93 % 1.09 C
2079 27-03-2019 06:35:00 2.1 C 94 % 1.24 C
2080 27-03-2019 06:40:00 2 C 94 % 1.14 C
2081 27-03-2019 06:45:00 1.9 C 94 % 1.04 C
2082 27-03-2019 06:50:00 1.9 C 94 % 1.04 C
2083 27-03-2019 06:55:00 2 C 94 % 1.14 C
2084 27-03-2019 07:00:00 2.1 C 94 % 1.24 C
2085 27-03-2019 07:05:00 2.2 C 94 % 1.34 C
2086 27-03-2019 07:10:00 2.2 C 94 % 1.34 C
2087 27-03-2019 07:15:00 2.2 C 94 % 1.34 C
2088 27-03-2019 07:20:00 2.3 C 94 % 1.44 C
2089 27-03-2019 07:25:00 2.3 C 95 % 1.58 C
2090 27-03-2019 07:30:00 2.5 C 95 % 1.78 C
2091 27-03-2019 07:35:00 2.7 C 95 % 1.98 C
2092 27-03-2019 07:40:00 2.9 C 95 % 2.18 C
2093 27-03-2019 07:45:00 3.1 C 95 % 2.38 C
2094 27-03-2019 07:50:00 3.3 C 95 % 2.58 C
2095 27-03-2019 07:55:00 3.4 C 95 % 2.68 C
2096 27-03-2019 08:00:00 3.6 C 95 % 2.88 C
2097 27-03-2019 08:05:00 3.6 C 95 % 2.88 C
2098 27-03-2019 08:10:00 3.7 C 95 % 2.98 C
2099 27-03-2019 08:15:00 3.7 C 94 % 2.83 C
2100 27-03-2019 08:20:00 3.7 C 94 % 2.83 C
Sensor: Nr:Datum:Temp:Feuchte:Taupunkt:
Aussen-T/F 2101 27-03-2019 08:25:00 3.8 C 94 % 2.93 C
2102 27-03-2019 08:30:00 3.8 C 95 % 3.07 C
2103 27-03-2019 08:35:00 3.9 C 95 % 3.17 C
2104 27-03-2019 08:40:00 4.1 C 94 % 3.22 C
2105 27-03-2019 08:45:00 4.1 C 95 % 3.37 C
2106 27-03-2019 08:50:00 4.2 C 95 % 3.47 C
2107 27-03-2019 08:55:00 4.4 C 95 % 3.67 C
2108 27-03-2019 09:00:00 4.6 C 95 % 3.87 C
2109 27-03-2019 09:05:00 4.8 C 94 % 3.92 C
2110 27-03-2019 09:10:00 4.9 C 94 % 4.02 C
2111 27-03-2019 09:15:00 5.2 C 93 % 4.16 C
2112 27-03-2019 09:20:00 5.4 C 93 % 4.36 C
2113 27-03-2019 09:25:00 5.7 C 93 % 4.66 C
2114 27-03-2019 09:30:00 5.8 C 92 % 4.6 C
2115 27-03-2019 09:35:00 6.1 C 91 % 4.74 C
2116 27-03-2019 09:40:00 6.3 C 91 % 4.94 C
2117 27-03-2019 09:45:00 6.7 C 89 % 5.02 C
2118 27-03-2019 09:50:00 6.9 C 89 % 5.22 C
2119 27-03-2019 09:55:00 7.2 C 88 % 5.35 C
2120 27-03-2019 10:00:00 7.4 C 87 % 5.38 C
2121 27-03-2019 10:05:00 7.7 C 86 % 5.51 C
2122 27-03-2019 10:10:00 7.8 C 84 % 5.27 C
2123 27-03-2019 10:15:00 7.9 C 84 % 5.37 C
2124 27-03-2019 10:20:00 7.9 C 84 % 5.37 C
2125 27-03-2019 10:25:00 8.1 C 84 % 5.56 C
Sensor: Nr:Datum:Temp:Feuchte:Taupunkt:
Aussen-T/F 2126 27-03-2019 10:30:00 8.2 C 83 % 5.49 C
2127 27-03-2019 10:35:00 8.3 C 83 % 5.59 C
2128 27-03-2019 10:40:00 8.5 C 83 % 5.78 C
2129 27-03-2019 10:45:00 8.6 C 83 % 5.88 C
2130 27-03-2019 10:50:00 8.7 C 82 % 5.8 C
2131 27-03-2019 10:55:00 8.9 C 82 % 6 C
2132 27-03-2019 11:00:00 9 C 79 % 5.56 C
2133 27-03-2019 11:05:00 9 C 79 % 5.56 C
2134 27-03-2019 11:10:00 9 C 78 % 5.38 C
2135 27-03-2019 11:15:00 9 C 79 % 5.56 C
2136 27-03-2019 11:20:00 9 C 77 % 5.19 C
2137 27-03-2019 11:25:00 9 C 76 % 5 C
2138 27-03-2019 11:30:00 9.1 C 77 % 5.29 C
2139 27-03-2019 11:35:00 9.1 C 76 % 5.1 C
2140 27-03-2019 11:40:00 9.3 C 76 % 5.29 C
2141 27-03-2019 11:45:00 9.4 C 75 % 5.2 C
2142 27-03-2019 11:50:00 9.4 C 73 % 4.81 C
2143 27-03-2019 11:55:00 9.3 C 73 % 4.72 C
2144 27-03-2019 12:00:00 9.3 C 74 % 4.91 C
2145 27-03-2019 12:05:00 9.3 C 73 % 4.72 C
2146 27-03-2019 12:10:00 9.4 C 71 % 4.42 C
2147 27-03-2019 12:15:00 9.5 C 71 % 4.51 C
2148 27-03-2019 12:20:00 9.7 C 72 % 4.9 C
2149 27-03-2019 12:25:00 9.9 C 71 % 4.9 C
2150 27-03-2019 12:30:00 10.2 C 71 % 5.18 C
Sensor: Nr:Datum:Temp:Feuchte:Taupunkt:
Aussen-T/F 2151 27-03-2019 12:35:00 10.4 C 70 % 5.17 C
2152 27-03-2019 12:40:00 10.6 C 67 % 4.74 C
2153 27-03-2019 12:45:00 10.8 C 67 % 4.93 C
2154 27-03-2019 12:50:00 10.8 C 63 % 4.05 C
2155 27-03-2019 12:55:00 10.7 C 64 % 4.18 C
2156 27-03-2019 13:00:00 10.6 C 65 % 4.3 C
2157 27-03-2019 13:05:00 10.6 C 63 % 3.86 C
2158 27-03-2019 13:10:00 10.7 C 64 % 4.18 C
2159 27-03-2019 13:15:00 11.1 C 62 % 4.11 C
2160 27-03-2019 13:20:00 11.2 C 62 % 4.2 C
2161 27-03-2019 13:25:00 11.1 C 61 % 3.87 C
2162 27-03-2019 13:30:00 10.8 C 63 % 4.05 C
2163 27-03-2019 13:35:00 10.7 C 65 % 4.4 C
2164 27-03-2019 13:40:00 10.7 C 65 % 4.4 C
2165 27-03-2019 13:45:00 10.6 C 65 % 4.3 C
2166 27-03-2019 13:50:00 10.7 C 64 % 4.18 C
2167 27-03-2019 13:55:00 10.8 C 64 % 4.27 C
2168 27-03-2019 14:00:00 10.8 C 63 % 4.05 C
2169 27-03-2019 14:05:00 10.7 C 63 % 3.95 C
2170 27-03-2019 14:10:00 10.8 C 63 % 4.05 C
2171 27-03-2019 14:15:00 10.8 C 63 % 4.05 C
2172 27-03-2019 14:20:00 10.8 C 61 % 3.59 C
2173 27-03-2019 14:25:00 10.9 C 62 % 3.92 C
2174 27-03-2019 14:30:00 10.9 C 62 % 3.92 C
2175 27-03-2019 14:35:00 11.1 C 59 % 3.4 C
Sensor: Nr:Datum:Temp:Feuchte:Taupunkt:
Aussen-T/F 2176 27-03-2019 14:40:00 11.3 C 60 % 3.83 C
2177 27-03-2019 14:45:00 11.5 C 59 % 3.78 C
2178 27-03-2019 14:50:00 11.6 C 59 % 3.87 C
2179 27-03-2019 14:55:00 11.4 C 58 % 3.44 C
2180 27-03-2019 15:00:00 11.3 C 61 % 4.06 C
2181 27-03-2019 15:05:00 11.3 C 61 % 4.06 C
2182 27-03-2019 15:10:00 11.3 C 59 % 3.59 C
2183 27-03-2019 15:15:00 11.2 C 59 % 3.5 C
2184 27-03-2019 15:20:00 11.1 C 57 % 2.92 C
2185 27-03-2019 15:25:00 11.1 C 59 % 3.4 C
2186 27-03-2019 15:30:00 11.1 C 61 % 3.87 C
2187 27-03-2019 15:35:00 11 C 61 % 3.78 C
2188 27-03-2019 15:40:00 11 C 62 % 4.01 C
2189 27-03-2019 15:45:00 11 C 61 % 3.78 C
2190 27-03-2019 15:50:00 11 C 61 % 3.78 C
2191 27-03-2019 15:55:00 10.9 C 61 % 3.69 C
2192 27-03-2019 16:00:00 11 C 61 % 3.78 C
2193 27-03-2019 16:05:00 11 C 61 % 3.78 C
2194 27-03-2019 16:10:00 11.1 C 61 % 3.87 C
2195 27-03-2019 16:15:00 11.1 C 60 % 3.64 C
2196 27-03-2019 16:20:00 11.1 C 59 % 3.4 C
2197 27-03-2019 16:25:00 11.1 C 58 % 3.16 C
2198 27-03-2019 16:30:00 11.3 C 61 % 4.06 C
2199 27-03-2019 16:35:00 11.6 C 58 % 3.63 C
2200 27-03-2019 16:40:00 11.4 C 58 % 3.44 C
Sensor: Nr:Datum:Temp:Feuchte:Taupunkt:
Aussen-T/F 2201 27-03-2019 16:45:00 11.4 C 59 % 3.68 C
2202 27-03-2019 16:50:00 11.4 C 58 % 3.44 C
2203 27-03-2019 16:55:00 11.3 C 57 % 3.1 C
2204 27-03-2019 17:00:00 11.2 C 58 % 3.25 C
2205 27-03-2019 17:05:00 11.2 C 58 % 3.25 C
2206 27-03-2019 17:10:00 11.2 C 57 % 3.01 C
2207 27-03-2019 17:15:00 11.2 C 58 % 3.25 C
2208 27-03-2019 17:20:00 11.1 C 59 % 3.4 C
2209 27-03-2019 17:25:00 11 C 60 % 3.55 C
2210 27-03-2019 17:30:00 10.9 C 61 % 3.69 C
2211 27-03-2019 17:35:00 10.8 C 61 % 3.59 C
2212 27-03-2019 17:40:00 10.7 C 61 % 3.5 C
2213 27-03-2019 17:45:00 10.7 C 62 % 3.73 C
2214 27-03-2019 17:50:00 10.8 C 62 % 3.82 C
2215 27-03-2019 17:55:00 10.9 C 62 % 3.92 C
2216 27-03-2019 18:00:00 10.8 C 62 % 3.82 C
2217 27-03-2019 18:05:00 10.7 C 62 % 3.73 C
2218 27-03-2019 18:10:00 10.7 C 66 % 4.62 C
2219 27-03-2019 18:15:00 10.5 C 66 % 4.43 C
2220 27-03-2019 18:20:00 10.3 C 68 % 4.66 C
2221 27-03-2019 18:25:00 10.1 C 71 % 5.09 C
2222 27-03-2019 18:30:00 9.8 C 70 % 4.6 C
2223 27-03-2019 18:35:00 9.4 C 71 % 4.42 C
2224 27-03-2019 18:40:00 9.2 C 70 % 4.02 C
2225 27-03-2019 18:45:00 9.1 C 72 % 4.33 C
Sensor: Nr:Datum:Temp:Feuchte:Taupunkt:
Aussen-T/F 2226 27-03-2019 18:50:00 8.8 C 73 % 4.24 C
2227 27-03-2019 18:55:00 8.6 C 72 % 3.85 C
2228 27-03-2019 19:00:00 8.5 C 73 % 3.95 C
2229 27-03-2019 19:05:00 8.3 C 75 % 4.14 C
2230 27-03-2019 19:10:00 8.2 C 76 % 4.23 C
2231 27-03-2019 19:15:00 7.9 C 76 % 3.94 C
2232 27-03-2019 19:20:00 7.8 C 77 % 4.03 C
2233 27-03-2019 19:25:00 7.6 C 77 % 3.83 C
2234 27-03-2019 19:30:00 7.5 C 77 % 3.74 C
2235 27-03-2019 19:35:00 7.4 C 78 % 3.82 C
2236 27-03-2019 19:40:00 7.3 C 79 % 3.91 C
2237 27-03-2019 19:45:00 7.2 C 79 % 3.81 C
2238 27-03-2019 19:50:00 7.1 C 80 % 3.89 C
2239 27-03-2019 19:55:00 6.9 C 80 % 3.7 C
2240 27-03-2019 20:00:00 6.8 C 81 % 3.77 C
2241 27-03-2019 20:05:00 6.6 C 81 % 3.58 C
2242 27-03-2019 20:10:00 6.7 C 80 % 3.5 C
2243 27-03-2019 20:15:00 6.7 C 81 % 3.68 C
2244 27-03-2019 20:20:00 6.6 C 81 % 3.58 C
2245 27-03-2019 20:25:00 6.6 C 81 % 3.58 C
2246 27-03-2019 20:30:00 6.4 C 82 % 3.56 C
2247 27-03-2019 20:35:00 6.4 C 82 % 3.56 C
2248 27-03-2019 20:40:00 6.3 C 82 % 3.46 C
2249 27-03-2019 20:45:00 6.3 C 83 % 3.63 C
2250 27-03-2019 20:50:00 6.3 C 83 % 3.63 C
Sensor: Nr:Datum:Temp:Feuchte:Taupunkt:
Aussen-T/F 2251 27-03-2019 20:55:00 6.2 C 83 % 3.53 C
2252 27-03-2019 21:00:00 6.2 C 84 % 3.7 C
2253 27-03-2019 21:05:00 6.1 C 84 % 3.61 C
2254 27-03-2019 21:10:00 6 C 84 % 3.51 C
2255 27-03-2019 21:15:00 5.9 C 84 % 3.41 C
2256 27-03-2019 21:20:00 5.8 C 84 % 3.31 C
2257 27-03-2019 21:25:00 5.7 C 85 % 3.38 C
2258 27-03-2019 21:30:00 5.6 C 85 % 3.28 C
2259 27-03-2019 21:35:00 5.5 C 85 % 3.18 C
2260 27-03-2019 21:40:00 5.5 C 86 % 3.35 C
2261 27-03-2019 21:45:00 5.4 C 86 % 3.25 C
2262 27-03-2019 21:50:00 5.3 C 86 % 3.15 C
2263 27-03-2019 21:55:00 5.3 C 86 % 3.15 C
2264 27-03-2019 22:00:00 5.2 C 86 % 3.05 C
2265 27-03-2019 22:05:00 5.2 C 87 % 3.22 C
2266 27-03-2019 22:10:00 5.1 C 86 % 2.96 C
2267 27-03-2019 22:15:00 5 C 86 % 2.86 C
2268 27-03-2019 22:20:00 4.9 C 86 % 2.76 C
2269 27-03-2019 22:25:00 4.8 C 86 % 2.66 C
2270 27-03-2019 22:30:00 4.7 C 87 % 2.73 C
2271 27-03-2019 22:35:00 4.6 C 87 % 2.63 C
2272 27-03-2019 22:40:00 4.5 C 88 % 2.69 C
2273 27-03-2019 22:45:00 4.4 C 88 % 2.59 C
2274 27-03-2019 22:50:00 4.2 C 87 % 2.23 C
2275 27-03-2019 22:55:00 4.1 C 88 % 2.3 C
Sensor: Nr:Datum:Temp:Feuchte:Taupunkt:
Aussen-T/F 2276 27-03-2019 23:00:00 4 C 89 % 2.36 C
2277 27-03-2019 23:05:00 3.9 C 89 % 2.26 C
2278 27-03-2019 23:10:00 3.8 C 89 % 2.16 C
2279 27-03-2019 23:15:00 3.7 C 89 % 2.06 C
2280 27-03-2019 23:20:00 3.6 C 89 % 1.96 C
2281 27-03-2019 23:25:00 3.4 C 90 % 1.92 C
2282 27-03-2019 23:30:00 3.4 C 90 % 1.92 C
2283 27-03-2019 23:35:00 3.3 C 90 % 1.82 C
2284 27-03-2019 23:40:00 3.2 C 91 % 1.88 C
2285 27-03-2019 23:45:00 3.2 C 91 % 1.88 C
2286 27-03-2019 23:50:00 3.1 C 91 % 1.78 C
2287 27-03-2019 23:55:00 3.1 C 91 % 1.78 C
2288 28-03-2019 00:00:00 3 C 91 % 1.68 C
2289 28-03-2019 00:05:00 3 C 91 % 1.68 C
2290 28-03-2019 00:10:00 3 C 92 % 1.83 C
2291 28-03-2019 00:15:00 2.9 C 92 % 1.73 C
2292 28-03-2019 00:20:00 3 C 92 % 1.83 C
2293 28-03-2019 00:25:00 2.9 C 92 % 1.73 C
2294 28-03-2019 00:30:00 2.9 C 92 % 1.73 C
2295 28-03-2019 00:35:00 2.9 C 92 % 1.73 C
2296 28-03-2019 00:40:00 2.9 C 92 % 1.73 C
2297 28-03-2019 00:45:00 2.9 C 92 % 1.73 C
2298 28-03-2019 00:50:00 2.9 C 92 % 1.73 C
2299 28-03-2019 00:55:00 2.8 C 92 % 1.63 C
2300 28-03-2019 01:00:00 2.8 C 92 % 1.63 C
Sensor: Nr:Datum:Temp:Feuchte:Taupunkt:
Aussen-T/F 2301 28-03-2019 01:05:00 2.7 C 92 % 1.53 C
2302 28-03-2019 01:10:00 2.6 C 92 % 1.43 C
2303 28-03-2019 01:15:00 2.5 C 92 % 1.34 C
2304 28-03-2019 01:20:00 2.4 C 92 % 1.24 C
2305 28-03-2019 01:25:00 2.5 C 92 % 1.34 C
2306 28-03-2019 01:30:00 2.4 C 92 % 1.24 C
2307 28-03-2019 01:35:00 2.3 C 92 % 1.14 C
2308 28-03-2019 01:40:00 2.3 C 93 % 1.29 C
2309 28-03-2019 01:45:00 2.4 C 93 % 1.39 C
2310 28-03-2019 01:50:00 2.4 C 93 % 1.39 C
2311 28-03-2019 01:55:00 2.4 C 93 % 1.39 C
2312 28-03-2019 02:00:00 2.3 C 93 % 1.29 C
2313 28-03-2019 02:05:00 2.2 C 93 % 1.19 C
2314 28-03-2019 02:10:00 2.2 C 93 % 1.19 C
2315 28-03-2019 02:15:00 2.1 C 93 % 1.09 C
2316 28-03-2019 02:20:00 2 C 93 % 0.99 C
2317 28-03-2019 02:25:00 2 C 93 % 0.99 C
2318 28-03-2019 02:30:00 1.9 C 93 % 0.89 C
2319 28-03-2019 02:35:00 1.9 C 93 % 0.89 C
2320 28-03-2019 02:40:00 1.8 C 93 % 0.79 C
2321 28-03-2019 02:45:00 1.8 C 93 % 0.79 C
2322 28-03-2019 02:50:00 1.8 C 93 % 0.79 C
2323 28-03-2019 02:55:00 1.7 C 93 % 0.69 C
2324 28-03-2019 03:00:00 1.7 C 93 % 0.69 C
2325 28-03-2019 03:05:00 1.7 C 93 % 0.69 C
Sensor: Nr:Datum:Temp:Feuchte:Taupunkt:
Aussen-T/F 2326 28-03-2019 03:10:00 1.6 C 94 % 0.74 C
2327 28-03-2019 03:15:00 1.6 C 94 % 0.74 C
2328 28-03-2019 03:20:00 1.5 C 94 % 0.64 C
2329 28-03-2019 03:25:00 1.6 C 94 % 0.74 C
2330 28-03-2019 03:30:00 1.7 C 94 % 0.84 C
2331 28-03-2019 03:35:00 1.8 C 94 % 0.94 C
2332 28-03-2019 03:40:00 1.7 C 94 % 0.84 C
2333 28-03-2019 03:45:00 1.6 C 94 % 0.74 C
2334 28-03-2019 03:50:00 1.4 C 93 % 0.4 C
2335 28-03-2019 03:55:00 1.4 C 94 % 0.54 C
2336 28-03-2019 04:00:00 1.4 C 94 % 0.54 C
2337 28-03-2019 04:05:00 1.6 C 94 % 0.74 C
2338 28-03-2019 04:10:00 1.6 C 94 % 0.74 C
2339 28-03-2019 04:15:00 1.5 C 94 % 0.64 C
2340 28-03-2019 04:20:00 1.5 C 94 % 0.64 C
2341 28-03-2019 04:25:00 1.4 C 94 % 0.54 C
2342 28-03-2019 04:30:00 1.2 C 94 % 0.34 C
2343 28-03-2019 04:35:00 1.2 C 94 % 0.34 C
2344 28-03-2019 04:40:00 1.3 C 94 % 0.44 C
2345 28-03-2019 04:45:00 1.3 C 94 % 0.44 C
2346 28-03-2019 04:50:00 1.3 C 94 % 0.44 C
2347 28-03-2019 04:55:00 1.2 C 94 % 0.34 C
2348 28-03-2019 05:00:00 1.1 C 94 % 0.24 C
2349 28-03-2019 05:05:00 1 C 94 % 0.15 C
2350 28-03-2019 05:10:00 1 C 94 % 0.15 C
Sensor: Nr:Datum:Temp:Feuchte:Taupunkt:
Aussen-T/F 2351 28-03-2019 05:15:00 1 C 94 % 0.15 C
2352 28-03-2019 05:20:00 0.9 C 94 % 0.05 C
2353 28-03-2019 05:25:00 0.9 C 94 % 0.05 C
2354 28-03-2019 05:30:00 1 C 95 % 0.29 C
2355 28-03-2019 05:35:00 1.2 C 95 % 0.49 C
2356 28-03-2019 05:40:00 1.3 C 95 % 0.59 C
2357 28-03-2019 05:45:00 1.4 C 95 % 0.69 C
2358 28-03-2019 05:50:00 1.4 C 95 % 0.69 C
2359 28-03-2019 05:55:00 1.4 C 95 % 0.69 C
2360 28-03-2019 06:00:00 1.4 C 95 % 0.69 C
2361 28-03-2019 06:05:00 1.4 C 95 % 0.69 C
2362 28-03-2019 06:10:00 1.4 C 95 % 0.69 C
2363 28-03-2019 06:15:00 1.6 C 95 % 0.89 C
2364 28-03-2019 06:20:00 1.6 C 95 % 0.89 C
2365 28-03-2019 06:25:00 1.6 C 95 % 0.89 C
2366 28-03-2019 06:30:00 1.6 C 95 % 0.89 C
2367 28-03-2019 06:35:00 1.6 C 95 % 0.89 C
2368 28-03-2019 06:40:00 1.6 C 95 % 0.89 C
2369 28-03-2019 06:45:00 1.7 C 95 % 0.99 C
2370 28-03-2019 06:50:00 1.8 C 95 % 1.09 C
2371 28-03-2019 06:55:00 1.8 C 95 % 1.09 C
2372 28-03-2019 07:00:00 1.9 C 95 % 1.19 C
2373 28-03-2019 07:05:00 1.9 C 95 % 1.19 C
2374 28-03-2019 07:10:00 1.9 C 95 % 1.19 C
2375 28-03-2019 07:15:00 2 C 95 % 1.29 C
Sensor: Nr:Datum:Temp:Feuchte:Taupunkt:
Aussen-T/F 2376 28-03-2019 07:20:00 2 C 95 % 1.29 C
2377 28-03-2019 07:25:00 2.1 C 95 % 1.38 C
2378 28-03-2019 07:30:00 2.2 C 95 % 1.48 C
2379 28-03-2019 07:35:00 2.2 C 95 % 1.48 C
2380 28-03-2019 07:40:00 2.2 C 95 % 1.48 C
2381 28-03-2019 07:45:00 2.3 C 95 % 1.58 C
2382 28-03-2019 07:50:00 2.3 C 95 % 1.58 C
2383 28-03-2019 07:55:00 2.4 C 95 % 1.68 C
2384 28-03-2019 08:00:00 2.4 C 95 % 1.68 C
2385 28-03-2019 08:05:00 2.6 C 95 % 1.88 C
2386 28-03-2019 08:10:00 2.7 C 95 % 1.98 C
2387 28-03-2019 08:15:00 2.7 C 95 % 1.98 C
2388 28-03-2019 08:20:00 2.7 C 95 % 1.98 C
2389 28-03-2019 08:25:00 2.7 C 94 % 1.83 C
2390 28-03-2019 08:30:00 2.8 C 94 % 1.93 C
2391 28-03-2019 08:35:00 2.8 C 95 % 2.08 C
2392 28-03-2019 08:40:00 2.9 C 95 % 2.18 C
2393 28-03-2019 08:45:00 2.9 C 94 % 2.03 C
2394 28-03-2019 08:50:00 3.1 C 95 % 2.38 C
2395 28-03-2019 08:55:00 3.2 C 95 % 2.48 C
2396 28-03-2019 09:00:00 3.3 C 94 % 2.43 C
2397 28-03-2019 09:05:00 3.6 C 95 % 2.88 C
2398 28-03-2019 09:10:00 3.8 C 94 % 2.93 C
2399 28-03-2019 09:15:00 3.9 C 94 % 3.02 C
2400 28-03-2019 09:20:00 4.2 C 93 % 3.17 C
Sensor: Nr:Datum:Temp:Feuchte:Taupunkt:
Aussen-T/F 2401 28-03-2019 09:25:00 4.3 C 93 % 3.27 C
2402 28-03-2019 09:30:00 4.5 C 92 % 3.32 C
2403 28-03-2019 09:35:00 4.7 C 92 % 3.51 C
2404 28-03-2019 09:40:00 4.8 C 92 % 3.61 C
2405 28-03-2019 09:45:00 5.1 C 92 % 3.91 C
2406 28-03-2019 09:50:00 5.3 C 91 % 3.95 C
2407 28-03-2019 09:55:00 5.6 C 91 % 4.25 C
2408 28-03-2019 10:00:00 5.8 C 90 % 4.29 C
2409 28-03-2019 10:05:00 6.1 C 89 % 4.43 C
2410 28-03-2019 10:10:00 6.4 C 88 % 4.56 C
2411 28-03-2019 10:15:00 6.8 C 87 % 4.79 C
2412 28-03-2019 10:20:00 7 C 86 % 4.82 C
2413 28-03-2019 10:25:00 7.3 C 85 % 4.95 C
2414 28-03-2019 10:30:00 7.5 C 84 % 4.98 C
2415 28-03-2019 10:35:00 7.7 C 83 % 5 C
2416 28-03-2019 10:40:00 7.9 C 83 % 5.2 C
2417 28-03-2019 10:45:00 8.1 C 81 % 5.04 C
2418 28-03-2019 10:50:00 8.4 C 80 % 5.16 C
2419 28-03-2019 10:55:00 8.7 C 80 % 5.45 C
2420 28-03-2019 11:00:00 8.9 C 79 % 5.46 C
2421 28-03-2019 11:05:00 9.2 C 78 % 5.57 C
2422 28-03-2019 11:10:00 9.5 C 78 % 5.86 C
2423 28-03-2019 11:15:00 9.7 C 78 % 6.06 C
2424 28-03-2019 11:20:00 9.9 C 76 % 5.87 C
2425 28-03-2019 11:25:00 10.2 C 76 % 6.16 C
Sensor: Nr:Datum:Temp:Feuchte:Taupunkt:
Aussen-T/F 2426 28-03-2019 11:30:00 10.4 C 76 % 6.36 C
2427 28-03-2019 11:35:00 10.6 C 76 % 6.55 C
2428 28-03-2019 11:40:00 10.9 C 75 % 6.65 C
2429 28-03-2019 11:45:00 11.2 C 75 % 6.94 C
2430 28-03-2019 11:50:00 11.6 C 73 % 6.93 C
2431 28-03-2019 11:55:00 11.8 C 70 % 6.51 C
2432 28-03-2019 12:00:00 12 C 69 % 6.5 C
2433 28-03-2019 12:05:00 12.2 C 68 % 6.48 C
2434 28-03-2019 12:10:00 12.3 C 67 % 6.36 C
2435 28-03-2019 12:15:00 12.5 C 67 % 6.55 C
2436 28-03-2019 12:20:00 12.6 C 66 % 6.42 C
2437 28-03-2019 12:25:00 12.6 C 66 % 6.42 C
2438 28-03-2019 12:30:00 12.6 C 66 % 6.42 C
2439 28-03-2019 12:35:00 12.6 C 65 % 6.2 C
2440 28-03-2019 12:40:00 12.7 C 67 % 6.74 C
2441 28-03-2019 12:45:00 12.7 C 67 % 6.74 C
2442 28-03-2019 12:50:00 12.8 C 68 % 7.05 C
2443 28-03-2019 12:55:00 12.8 C 66 % 6.61 C
2444 28-03-2019 13:00:00 12.7 C 67 % 6.74 C
2445 28-03-2019 13:05:00 12.8 C 67 % 6.83 C
2446 28-03-2019 13:10:00 12.9 C 67 % 6.93 C
2447 28-03-2019 13:15:00 13.2 C 67 % 7.21 C
2448 28-03-2019 13:20:00 13.4 C 66 % 7.19 C
2449 28-03-2019 13:25:00 13.4 C 64 % 6.74 C
2450 28-03-2019 13:30:00 13.4 C 65 % 6.96 C
Sensor: Nr:Datum:Temp:Feuchte:Taupunkt:
Aussen-T/F 2451 28-03-2019 13:35:00 13.2 C 64 % 6.55 C
2452 28-03-2019 13:40:00 13.2 C 64 % 6.55 C
2453 28-03-2019 13:45:00 13.2 C 68 % 7.43 C
2454 28-03-2019 13:50:00 13.5 C 67 % 7.5 C
2455 28-03-2019 13:55:00 13.7 C 64 % 7.02 C
2456 28-03-2019 14:00:00 13.6 C 63 % 6.7 C
2457 28-03-2019 14:05:00 13.5 C 64 % 6.83 C
2458 28-03-2019 14:10:00 13.5 C 64 % 6.83 C
2459 28-03-2019 14:15:00 13.4 C 64 % 6.74 C
2460 28-03-2019 14:20:00 13.4 C 65 % 6.96 C
2461 28-03-2019 14:25:00 13.4 C 64 % 6.74 C
2462 28-03-2019 14:30:00 13.6 C 65 % 7.15 C
2463 28-03-2019 14:35:00 13.7 C 65 % 7.25 C
2464 28-03-2019 14:40:00 13.7 C 63 % 6.79 C
2465 28-03-2019 14:45:00 13.5 C 64 % 6.83 C
2466 28-03-2019 14:50:00 13.4 C 65 % 6.96 C
2467 28-03-2019 14:55:00 13.3 C 65 % 6.87 C
2468 28-03-2019 15:00:00 13.3 C 65 % 6.87 C
2469 28-03-2019 15:05:00 13.3 C 64 % 6.64 C
2470 28-03-2019 15:10:00 13.3 C 64 % 6.64 C
2471 28-03-2019 15:15:00 13.4 C 64 % 6.74 C
2472 28-03-2019 15:20:00 13.4 C 64 % 6.74 C
2473 28-03-2019 15:25:00 13.4 C 64 % 6.74 C
2474 28-03-2019 15:30:00 13.4 C 63 % 6.51 C
2475 28-03-2019 15:35:00 13.4 C 63 % 6.51 C
Sensor: Nr:Datum:Temp:Feuchte:Taupunkt:
Aussen-T/F 2476 28-03-2019 15:40:00 13.4 C 63 % 6.51 C
2477 28-03-2019 15:45:00 13.5 C 64 % 6.83 C
2478 28-03-2019 15:50:00 13.5 C 63 % 6.6 C
2479 28-03-2019 15:55:00 13.5 C 63 % 6.6 C
2480 28-03-2019 16:00:00 13.5 C 63 % 6.6 C
2481 28-03-2019 16:05:00 13.5 C 63 % 6.6 C
2482 28-03-2019 16:10:00 13.5 C 63 % 6.6 C
2483 28-03-2019 16:15:00 13.6 C 62 % 6.47 C
2484 28-03-2019 16:20:00 13.5 C 62 % 6.37 C
2485 28-03-2019 16:25:00 13.5 C 63 % 6.6 C
2486 28-03-2019 16:30:00 13.5 C 62 % 6.37 C
2487 28-03-2019 16:35:00 13.5 C 63 % 6.6 C
2488 28-03-2019 16:40:00 13.4 C 63 % 6.51 C
2489 28-03-2019 16:45:00 13.4 C 63 % 6.51 C
2490 28-03-2019 16:50:00 13.3 C 63 % 6.41 C
2491 28-03-2019 16:55:00 13.3 C 63 % 6.41 C
2492 28-03-2019 17:00:00 13.3 C 63 % 6.41 C
2493 28-03-2019 17:05:00 13.3 C 64 % 6.64 C
2494 28-03-2019 17:10:00 13.3 C 63 % 6.41 C
2495 28-03-2019 17:15:00 13.3 C 63 % 6.41 C
2496 28-03-2019 17:20:00 13.2 C 63 % 6.32 C
2497 28-03-2019 17:25:00 13.2 C 63 % 6.32 C
2498 28-03-2019 17:30:00 13.2 C 64 % 6.55 C
2499 28-03-2019 17:35:00 13.2 C 64 % 6.55 C
2500 28-03-2019 17:40:00 13.1 C 64 % 6.45 C
Sensor: Nr:Datum:Temp:Feuchte:Taupunkt:
Aussen-T/F 2501 28-03-2019 17:45:00 13.1 C 65 % 6.68 C
2502 28-03-2019 17:50:00 13.1 C 64 % 6.45 C
2503 28-03-2019 17:55:00 13 C 65 % 6.58 C
2504 28-03-2019 18:00:00 13 C 68 % 7.24 C
2505 28-03-2019 18:05:00 12.9 C 66 % 6.71 C
2506 28-03-2019 18:10:00 12.8 C 67 % 6.83 C
2507 28-03-2019 18:15:00 12.8 C 67 % 6.83 C
2508 28-03-2019 18:20:00 12.7 C 70 % 7.38 C
2509 28-03-2019 18:25:00 12.6 C 70 % 7.28 C
2510 28-03-2019 18:30:00 12.3 C 71 % 7.2 C
2511 28-03-2019 18:35:00 12.1 C 72 % 7.21 C
2512 28-03-2019 18:40:00 11.7 C 72 % 6.83 C
2513 28-03-2019 18:45:00 11.3 C 73 % 6.64 C
2514 28-03-2019 18:50:00 11 C 74 % 6.55 C
2515 28-03-2019 18:55:00 10.8 C 75 % 6.55 C
2516 28-03-2019 19:00:00 10.5 C 76 % 6.45 C
2517 28-03-2019 19:05:00 10.4 C 77 % 6.55 C
2518 28-03-2019 19:10:00 10.3 C 78 % 6.64 C
2519 28-03-2019 19:15:00 10.3 C 78 % 6.64 C
2520 28-03-2019 19:20:00 10.3 C 79 % 6.82 C
2521 28-03-2019 19:25:00 10.3 C 79 % 6.82 C
2522 28-03-2019 19:30:00 10.3 C 79 % 6.82 C
2523 28-03-2019 19:35:00 10.3 C 79 % 6.82 C
2524 28-03-2019 19:40:00 10.4 C 79 % 6.92 C
2525 28-03-2019 19:45:00 10.4 C 78 % 6.74 C
Sensor: Nr:Datum:Temp:Feuchte:Taupunkt:
Aussen-T/F 2526 28-03-2019 19:50:00 10.4 C 78 % 6.74 C
2527 28-03-2019 19:55:00 10.5 C 78 % 6.83 C
2528 28-03-2019 20:00:00 10.5 C 78 % 6.83 C
2529 28-03-2019 20:05:00 10.5 C 78 % 6.83 C
2530 28-03-2019 20:10:00 10.4 C 78 % 6.74 C
2531 28-03-2019 20:15:00 10.4 C 78 % 6.74 C
2532 28-03-2019 20:20:00 10.4 C 78 % 6.74 C
2533 28-03-2019 20:25:00 10.3 C 78 % 6.64 C
2534 28-03-2019 20:30:00 10.2 C 78 % 6.54 C
2535 28-03-2019 20:35:00 10.1 C 78 % 6.44 C
2536 28-03-2019 20:40:00 10.1 C 79 % 6.63 C
2537 28-03-2019 20:45:00 10 C 79 % 6.53 C
2538 28-03-2019 20:50:00 10 C 80 % 6.71 C
2539 28-03-2019 20:55:00 9.9 C 80 % 6.62 C
2540 28-03-2019 21:00:00 9.9 C 80 % 6.62 C
2541 28-03-2019 21:05:00 9.9 C 80 % 6.62 C
2542 28-03-2019 21:10:00 9.9 C 80 % 6.62 C
2543 28-03-2019 21:15:00 9.8 C 80 % 6.52 C
2544 28-03-2019 21:20:00 9.8 C 80 % 6.52 C
2545 28-03-2019 21:25:00 9.7 C 80 % 6.42 C
2546 28-03-2019 21:30:00 9.6 C 79 % 6.14 C
2547 28-03-2019 21:35:00 9.4 C 79 % 5.95 C
2548 28-03-2019 21:40:00 9.3 C 79 % 5.85 C
2549 28-03-2019 21:45:00 9.1 C 80 % 5.84 C
2550 28-03-2019 21:50:00 8.9 C 80 % 5.64 C
Sensor: Nr:Datum:Temp:Feuchte:Taupunkt:
Aussen-T/F 2551 28-03-2019 21:55:00 8.8 C 81 % 5.72 C
2552 28-03-2019 22:00:00 8.6 C 81 % 5.53 C
2553 28-03-2019 22:05:00 8.4 C 82 % 5.51 C
2554 28-03-2019 22:10:00 8.3 C 82 % 5.41 C
2555 28-03-2019 22:15:00 8.2 C 83 % 5.49 C
2556 28-03-2019 22:20:00 8.1 C 83 % 5.39 C
2557 28-03-2019 22:25:00 7.9 C 84 % 5.37 C
2558 28-03-2019 22:30:00 7.8 C 84 % 5.27 C
2559 28-03-2019 22:35:00 7.7 C 85 % 5.34 C
2560 28-03-2019 22:40:00 7.6 C 85 % 5.24 C
2561 28-03-2019 22:45:00 7.4 C 85 % 5.05 C
2562 28-03-2019 22:50:00 7.3 C 86 % 5.12 C
2563 28-03-2019 22:55:00 7.3 C 86 % 5.12 C
2564 28-03-2019 23:00:00 7.2 C 86 % 5.02 C
2565 28-03-2019 23:05:00 7 C 86 % 4.82 C
2566 28-03-2019 23:10:00 6.8 C 86 % 4.63 C
2567 28-03-2019 23:15:00 6.5 C 86 % 4.33 C
2568 28-03-2019 23:20:00 6.3 C 88 % 4.46 C
2569 28-03-2019 23:25:00 6.3 C 88 % 4.46 C
2570 28-03-2019 23:30:00 6.2 C 88 % 4.36 C
2571 28-03-2019 23:35:00 6.1 C 88 % 4.27 C
2572 28-03-2019 23:40:00 5.9 C 89 % 4.23 C
2573 28-03-2019 23:45:00 5.8 C 89 % 4.13 C
2574 28-03-2019 23:50:00 5.8 C 90 % 4.29 C
2575 28-03-2019 23:55:00 5.7 C 90 % 4.19 C
Sensor: Nr:Datum:Temp:Feuchte:Taupunkt:
Aussen-T/F 2576 29-03-2019 00:00:00 5.7 C 90 % 4.19 C
2577 29-03-2019 00:05:00 5.6 C 90 % 4.09 C
2578 29-03-2019 00:10:00 5.6 C 90 % 4.09 C
2579 29-03-2019 00:15:00 5.4 C 90 % 3.89 C
2580 29-03-2019 00:20:00 5.2 C 90 % 3.7 C
2581 29-03-2019 00:25:00 5.3 C 91 % 3.95 C
2582 29-03-2019 00:30:00 5.3 C 91 % 3.95 C
2583 29-03-2019 00:35:00 5.2 C 91 % 3.85 C
2584 29-03-2019 00:40:00 5.2 C 91 % 3.85 C
2585 29-03-2019 00:45:00 5.1 C 91 % 3.76 C
2586 29-03-2019 00:50:00 5 C 91 % 3.66 C
2587 29-03-2019 00:55:00 4.8 C 91 % 3.46 C
2588 29-03-2019 01:00:00 4.7 C 91 % 3.36 C
2589 29-03-2019 01:05:00 4.6 C 92 % 3.42 C
2590 29-03-2019 01:10:00 4.6 C 92 % 3.42 C
2591 29-03-2019 01:15:00 4.5 C 92 % 3.32 C
2592 29-03-2019 01:20:00 4.4 C 92 % 3.22 C
2593 29-03-2019 01:25:00 4.3 C 92 % 3.12 C
2594 29-03-2019 01:30:00 4.4 C 93 % 3.37 C
2595 29-03-2019 01:35:00 4.3 C 93 % 3.27 C
2596 29-03-2019 01:40:00 4.2 C 92 % 3.02 C
2597 29-03-2019 01:45:00 4.1 C 92 % 2.92 C
2598 29-03-2019 01:50:00 4 C 93 % 2.97 C
2599 29-03-2019 01:55:00 4.1 C 93 % 3.07 C
2600 29-03-2019 02:00:00 4.1 C 93 % 3.07 C
Sensor: Nr:Datum:Temp:Feuchte:Taupunkt:
Aussen-T/F 2601 29-03-2019 02:05:00 3.9 C 93 % 2.87 C
2602 29-03-2019 02:10:00 4 C 94 % 3.12 C
2603 29-03-2019 02:15:00 4 C 93 % 2.97 C
2604 29-03-2019 02:20:00 3.9 C 93 % 2.87 C
2605 29-03-2019 02:25:00 3.8 C 93 % 2.77 C
2606 29-03-2019 02:30:00 3.8 C 93 % 2.77 C
2607 29-03-2019 02:35:00 3.9 C 94 % 3.02 C
2608 29-03-2019 02:40:00 3.8 C 94 % 2.93 C
2609 29-03-2019 02:45:00 3.8 C 94 % 2.93 C
2610 29-03-2019 02:50:00 3.7 C 94 % 2.83 C
2611 29-03-2019 02:55:00 3.6 C 94 % 2.73 C
2612 29-03-2019 03:00:00 3.6 C 94 % 2.73 C
2613 29-03-2019 03:05:00 3.5 C 94 % 2.63 C
2614 29-03-2019 03:10:00 3.3 C 94 % 2.43 C
2615 29-03-2019 03:15:00 3.2 C 94 % 2.33 C
2616 29-03-2019 03:20:00 3.1 C 94 % 2.23 C
2617 29-03-2019 03:25:00 2.9 C 94 % 2.03 C
2618 29-03-2019 03:30:00 2.8 C 94 % 1.93 C
2619 29-03-2019 03:35:00 2.8 C 94 % 1.93 C
2620 29-03-2019 03:40:00 2.8 C 94 % 1.93 C
2621 29-03-2019 03:45:00 2.9 C 94 % 2.03 C
2622 29-03-2019 03:50:00 2.9 C 94 % 2.03 C
2623 29-03-2019 03:55:00 2.9 C 94 % 2.03 C
2624 29-03-2019 04:00:00 2.9 C 95 % 2.18 C
2625 29-03-2019 04:05:00 2.9 C 95 % 2.18 C
Sensor: Nr:Datum:Temp:Feuchte:Taupunkt:
Aussen-T/F 2626 29-03-2019 04:10:00 3 C 95 % 2.28 C
2627 29-03-2019 04:15:00 3 C 95 % 2.28 C
2628 29-03-2019 04:20:00 2.9 C 95 % 2.18 C
2629 29-03-2019 04:25:00 2.8 C 95 % 2.08 C
2630 29-03-2019 04:30:00 2.8 C 95 % 2.08 C
2631 29-03-2019 04:35:00 2.9 C 95 % 2.18 C
2632 29-03-2019 04:40:00 3.1 C 95 % 2.38 C
2633 29-03-2019 04:45:00 2.9 C 95 % 2.18 C
2634 29-03-2019 04:50:00 2.8 C 95 % 2.08 C
2635 29-03-2019 04:55:00 2.7 C 95 % 1.98 C
2636 29-03-2019 05:00:00 2.6 C 95 % 1.88 C
2637 29-03-2019 05:05:00 2.5 C 95 % 1.78 C
2638 29-03-2019 05:10:00 2.3 C 95 % 1.58 C
2639 29-03-2019 05:15:00 2.3 C 95 % 1.58 C
2640 29-03-2019 05:20:00 2.3 C 95 % 1.58 C
2641 29-03-2019 05:25:00 2.2 C 95 % 1.48 C
2642 29-03-2019 05:30:00 2.1 C 95 % 1.38 C
2643 29-03-2019 05:35:00 2.2 C 95 % 1.48 C
2644 29-03-2019 05:40:00 2.1 C 95 % 1.38 C
2645 29-03-2019 05:45:00 1.9 C 95 % 1.19 C
2646 29-03-2019 05:50:00 1.8 C 95 % 1.09 C
2647 29-03-2019 05:55:00 1.9 C 95 % 1.19 C
2648 29-03-2019 06:00:00 2 C 95 % 1.29 C
2649 29-03-2019 06:05:00 2.1 C 95 % 1.38 C
2650 29-03-2019 06:10:00 2.1 C 95 % 1.38 C
Sensor: Nr:Datum:Temp:Feuchte:Taupunkt:
Aussen-T/F 2651 29-03-2019 06:15:00 2.1 C 95 % 1.38 C
2652 29-03-2019 06:20:00 2 C 95 % 1.29 C
2653 29-03-2019 06:25:00 2 C 95 % 1.29 C
2654 29-03-2019 06:30:00 2.1 C 95 % 1.38 C
2655 29-03-2019 06:35:00 2.1 C 95 % 1.38 C
2656 29-03-2019 06:40:00 2.1 C 95 % 1.38 C
2657 29-03-2019 06:45:00 2.1 C 95 % 1.38 C
2658 29-03-2019 06:50:00 2.1 C 95 % 1.38 C
2659 29-03-2019 06:55:00 2.1 C 95 % 1.38 C
2660 29-03-2019 07:00:00 2.1 C 96 % 1.53 C
2661 29-03-2019 07:05:00 2.1 C 95 % 1.38 C
2662 29-03-2019 07:10:00 2 C 95 % 1.29 C
2663 29-03-2019 07:15:00 2 C 96 % 1.43 C
2664 29-03-2019 07:20:00 2 C 96 % 1.43 C
2665 29-03-2019 07:25:00 2.1 C 96 % 1.53 C
2666 29-03-2019 07:30:00 2.1 C 96 % 1.53 C
2667 29-03-2019 07:35:00 2.2 C 96 % 1.63 C
2668 29-03-2019 07:40:00 2.3 C 96 % 1.73 C
2669 29-03-2019 07:45:00 2.4 C 96 % 1.83 C
2670 29-03-2019 07:50:00 2.4 C 96 % 1.83 C
2671 29-03-2019 07:55:00 2.4 C 96 % 1.83 C
2672 29-03-2019 08:00:00 2.4 C 96 % 1.83 C
2673 29-03-2019 08:05:00 2.5 C 96 % 1.93 C
2674 29-03-2019 08:10:00 2.6 C 96 % 2.03 C
2675 29-03-2019 08:15:00 2.7 C 96 % 2.13 C
Sensor: Nr:Datum:Temp:Feuchte:Taupunkt:
Aussen-T/F 2676 29-03-2019 08:20:00 2.8 C 96 % 2.23 C
2677 29-03-2019 08:25:00 2.8 C 96 % 2.23 C
2678 29-03-2019 08:30:00 2.9 C 96 % 2.33 C
2679 29-03-2019 08:35:00 3.1 C 96 % 2.53 C
2680 29-03-2019 08:40:00 3.2 C 96 % 2.63 C
2681 29-03-2019 08:45:00 3.3 C 96 % 2.72 C
2682 29-03-2019 08:50:00 3.4 C 97 % 2.97 C
2683 29-03-2019 08:55:00 3.5 C 96 % 2.92 C
2684 29-03-2019 09:00:00 3.7 C 96 % 3.12 C
2685 29-03-2019 09:05:00 3.9 C 97 % 3.47 C
2686 29-03-2019 09:10:00 4.1 C 97 % 3.67 C
2687 29-03-2019 09:15:00 4.3 C 97 % 3.87 C
2688 29-03-2019 09:20:00 4.5 C 97 % 4.07 C
2689 29-03-2019 09:25:00 4.7 C 97 % 4.27 C
2690 29-03-2019 09:30:00 5 C 97 % 4.56 C
2691 29-03-2019 09:35:00 5.3 C 97 % 4.86 C
2692 29-03-2019 09:40:00 5.5 C 97 % 5.06 C
2693 29-03-2019 09:45:00 5.8 C 97 % 5.36 C
2694 29-03-2019 09:50:00 6.1 C 97 % 5.66 C
2695 29-03-2019 09:55:00 6.4 C 97 % 5.96 C
2696 29-03-2019 10:00:00 6.8 C 97 % 6.36 C
2697 29-03-2019 10:05:00 7 C 97 % 6.56 C
2698 29-03-2019 10:10:00 7.2 C 97 % 6.76 C
2699 29-03-2019 10:15:00 7.4 C 97 % 6.96 C
2700 29-03-2019 10:20:00 7.6 C 97 % 7.16 C
Sensor: Nr:Datum:Temp:Feuchte:Taupunkt:
Aussen-T/F 2701 29-03-2019 10:25:00 7.8 C 97 % 7.35 C
2702 29-03-2019 10:30:00 8.1 C 97 % 7.65 C
2703 29-03-2019 10:35:00 8.4 C 96 % 7.8 C
2704 29-03-2019 10:40:00 8.7 C 96 % 8.1 C
2705 29-03-2019 10:45:00 9 C 95 % 8.24 C
2706 29-03-2019 10:50:00 9.3 C 93 % 8.23 C
2707 29-03-2019 10:55:00 9.8 C 92 % 8.56 C
2708 29-03-2019 11:00:00 10.2 C 90 % 8.64 C
2709 29-03-2019 11:05:00 10.8 C 87 % 8.73 C
2710 29-03-2019 11:10:00 11.4 C 83 % 8.62 C
2711 29-03-2019 11:15:00 11.8 C 81 % 8.65 C
2712 29-03-2019 11:20:00 12.1 C 80 % 8.76 C
2713 29-03-2019 11:25:00 12.6 C 76 % 8.49 C
2714 29-03-2019 11:30:00 12.9 C 77 % 8.97 C
2715 29-03-2019 11:35:00 13.1 C 75 % 8.77 C
2716 29-03-2019 11:40:00 13.3 C 73 % 8.57 C
2717 29-03-2019 11:45:00 13.7 C 70 % 8.33 C
2718 29-03-2019 11:50:00 13.9 C 72 % 8.94 C
2719 29-03-2019 11:55:00 14 C 69 % 8.41 C
2720 29-03-2019 12:00:00 14.2 C 69 % 8.6 C
2721 29-03-2019 12:05:00 14.2 C 68 % 8.39 C
2722 29-03-2019 12:10:00 14.2 C 68 % 8.39 C
2723 29-03-2019 12:15:00 14.2 C 67 % 8.17 C
2724 29-03-2019 12:20:00 14.3 C 67 % 8.26 C
2725 29-03-2019 12:25:00 14.3 C 67 % 8.26 C
Sensor: Nr:Datum:Temp:Feuchte:Taupunkt:
Aussen-T/F 2726 29-03-2019 12:30:00 14.5 C 66 % 8.23 C
2727 29-03-2019 12:35:00 14.7 C 66 % 8.42 C
2728 29-03-2019 12:40:00 14.7 C 66 % 8.42 C
2729 29-03-2019 12:45:00 14.7 C 66 % 8.42 C
2730 29-03-2019 12:50:00 14.8 C 66 % 8.52 C
2731 29-03-2019 12:55:00 14.9 C 65 % 8.39 C
2732 29-03-2019 13:00:00 15 C 65 % 8.48 C
2733 29-03-2019 13:05:00 15.3 C 64 % 8.54 C
2734 29-03-2019 13:10:00 15.6 C 61 % 8.11 C
2735 29-03-2019 13:15:00 15.9 C 60 % 8.15 C
2736 29-03-2019 13:20:00 16 C 59 % 8 C
2737 29-03-2019 13:25:00 16 C 61 % 8.49 C
2738 29-03-2019 13:30:00 16 C 60 % 8.25 C
2739 29-03-2019 13:35:00 16.1 C 59 % 8.09 C
2740 29-03-2019 13:40:00 16.2 C 58 % 7.94 C
2741 29-03-2019 13:45:00 16.3 C 57 % 7.77 C
2742 29-03-2019 13:50:00 16.3 C 59 % 8.28 C
2743 29-03-2019 13:55:00 16.5 C 57 % 7.96 C
2744 29-03-2019 14:00:00 16.6 C 56 % 7.8 C
2745 29-03-2019 14:05:00 16.7 C 56 % 7.89 C
2746 29-03-2019 14:10:00 16.7 C 57 % 8.15 C
2747 29-03-2019 14:15:00 16.8 C 57 % 8.24 C
2748 29-03-2019 14:20:00 16.9 C 54 % 7.54 C
2749 29-03-2019 14:25:00 16.8 C 54 % 7.45 C
2750 29-03-2019 14:30:00 16.8 C 54 % 7.45 C
Sensor: Nr:Datum:Temp:Feuchte:Taupunkt:
Aussen-T/F 2751 29-03-2019 14:35:00 16.8 C 55 % 7.72 C
2752 29-03-2019 14:40:00 16.9 C 56 % 8.07 C
2753 29-03-2019 14:45:00 17 C 55 % 7.9 C
2754 29-03-2019 14:50:00 17.1 C 55 % 8 C
2755 29-03-2019 14:55:00 16.9 C 54 % 7.54 C
2756 29-03-2019 15:00:00 16.9 C 54 % 7.54 C
2757 29-03-2019 15:05:00 17.1 C 54 % 7.73 C
2758 29-03-2019 15:10:00 17.1 C 54 % 7.73 C
2759 29-03-2019 15:15:00 17.2 C 54 % 7.82 C
2760 29-03-2019 15:20:00 17.3 C 53 % 7.64 C
2761 29-03-2019 15:25:00 17.4 C 53 % 7.73 C
2762 29-03-2019 15:30:00 17.5 C 52 % 7.54 C
2763 29-03-2019 15:35:00 17.7 C 52 % 7.73 C
2764 29-03-2019 15:40:00 17.8 C 52 % 7.82 C
2765 29-03-2019 15:45:00 17.9 C 50 % 7.34 C
2766 29-03-2019 15:50:00 17.9 C 50 % 7.34 C
2767 29-03-2019 15:55:00 17.9 C 51 % 7.63 C
2768 29-03-2019 16:00:00 17.9 C 50 % 7.34 C
2769 29-03-2019 16:05:00 18 C 50 % 7.43 C
2770 29-03-2019 16:10:00 18.1 C 50 % 7.52 C
2771 29-03-2019 16:15:00 18.1 C 51 % 7.81 C
2772 29-03-2019 16:20:00 18.3 C 50 % 7.71 C
2773 29-03-2019 16:25:00 18.5 C 50 % 7.89 C
2774 29-03-2019 16:30:00 18.8 C 49 % 7.87 C
2775 29-03-2019 16:35:00 18.7 C 48 % 7.48 C
Sensor: Nr:Datum:Temp:Feuchte:Taupunkt:
Aussen-T/F 2776 29-03-2019 16:40:00 18.4 C 50 % 7.8 C
2777 29-03-2019 16:45:00 18.4 C 48 % 7.2 C
2778 29-03-2019 16:50:00 18.7 C 51 % 8.37 C
2779 29-03-2019 16:55:00 19.1 C 49 % 8.15 C
2780 29-03-2019 17:00:00 19 C 47 % 7.44 C
2781 29-03-2019 17:05:00 18.9 C 48 % 7.66 C
2782 29-03-2019 17:10:00 18.7 C 47 % 7.17 C
2783 29-03-2019 17:15:00 18.8 C 52 % 8.75 C
2784 29-03-2019 17:20:00 19.1 C 47 % 7.53 C
2785 29-03-2019 17:25:00 19.2 C 48 % 7.93 C
2786 29-03-2019 17:30:00 19.1 C 46 % 7.22 C
2787 29-03-2019 17:35:00 19.1 C 46 % 7.22 C
2788 29-03-2019 17:40:00 19.1 C 45 % 6.9 C
2789 29-03-2019 17:45:00 18.9 C 46 % 7.04 C
2790 29-03-2019 17:50:00 18.7 C 47 % 7.17 C
2791 29-03-2019 17:55:00 18.7 C 50 % 8.08 C
2792 29-03-2019 18:00:00 18.6 C 48 % 7.39 C
2793 29-03-2019 18:05:00 18.4 C 52 % 8.38 C
2794 29-03-2019 18:10:00 18.3 C 47 % 6.8 C
2795 29-03-2019 18:15:00 18.1 C 47 % 6.62 C
2796 29-03-2019 18:20:00 17.9 C 52 % 7.91 C
2797 29-03-2019 18:25:00 17.7 C 53 % 8.01 C
2798 29-03-2019 18:30:00 17.3 C 53 % 7.64 C
2799 29-03-2019 18:35:00 16.9 C 55 % 7.81 C
2800 29-03-2019 18:40:00 16.3 C 56 % 7.52 C
Sensor: Nr:Datum:Temp:Feuchte:Taupunkt:
Aussen-T/F 2801 29-03-2019 18:45:00 15.4 C 59 % 7.44 C
2802 29-03-2019 18:50:00 14.7 C 61 % 7.27 C
2803 29-03-2019 18:55:00 13.9 C 63 % 6.98 C
2804 29-03-2019 19:00:00 13.2 C 64 % 6.55 C
2805 29-03-2019 19:05:00 12.7 C 67 % 6.74 C
2806 29-03-2019 19:10:00 12.3 C 68 % 6.57 C
2807 29-03-2019 19:15:00 11.9 C 69 % 6.4 C
2808 29-03-2019 19:20:00 11.6 C 70 % 6.32 C
2809 29-03-2019 19:25:00 11.4 C 71 % 6.34 C
2810 29-03-2019 19:30:00 11.2 C 71 % 6.14 C
2811 29-03-2019 19:35:00 11.1 C 72 % 6.25 C
2812 29-03-2019 19:40:00 10.9 C 72 % 6.06 C
2813 29-03-2019 19:45:00 10.8 C 72 % 5.96 C
2814 29-03-2019 19:50:00 10.8 C 72 % 5.96 C
2815 29-03-2019 19:55:00 10.7 C 73 % 6.07 C
2816 29-03-2019 20:00:00 10.6 C 73 % 5.97 C
2817 29-03-2019 20:05:00 10.5 C 74 % 6.07 C
2818 29-03-2019 20:10:00 10.4 C 74 % 5.97 C
2819 29-03-2019 20:15:00 10.3 C 75 % 6.07 C
2820 29-03-2019 20:20:00 10.1 C 75 % 5.88 C
2821 29-03-2019 20:25:00 9.9 C 76 % 5.87 C
2822 29-03-2019 20:30:00 9.8 C 77 % 5.97 C
2823 29-03-2019 20:35:00 9.7 C 78 % 6.06 C
2824 29-03-2019 20:40:00 9.5 C 77 % 5.68 C
2825 29-03-2019 20:45:00 9.3 C 78 % 5.67 C
Sensor: Nr:Datum:Temp:Feuchte:Taupunkt:
Aussen-T/F 2826 29-03-2019 20:50:00 9.2 C 79 % 5.75 C
2827 29-03-2019 20:55:00 9.1 C 79 % 5.66 C
2828 29-03-2019 21:00:00 8.9 C 80 % 5.64 C
2829 29-03-2019 21:05:00 8.8 C 79 % 5.36 C
2830 29-03-2019 21:10:00 8.6 C 80 % 5.35 C
2831 29-03-2019 21:15:00 8.6 C 81 % 5.53 C
2832 29-03-2019 21:20:00 8.4 C 81 % 5.33 C
2833 29-03-2019 21:25:00 8.2 C 81 % 5.14 C
2834 29-03-2019 21:30:00 8 C 81 % 4.94 C
2835 29-03-2019 21:35:00 7.8 C 82 % 4.92 C
2836 29-03-2019 21:40:00 7.8 C 82 % 4.92 C
2837 29-03-2019 21:45:00 7.6 C 82 % 4.73 C
2838 29-03-2019 21:50:00 7.3 C 83 % 4.61 C
2839 29-03-2019 21:55:00 7.3 C 84 % 4.78 C
2840 29-03-2019 22:00:00 7.2 C 84 % 4.68 C
2841 29-03-2019 22:05:00 7.1 C 83 % 4.41 C
2842 29-03-2019 22:10:00 7.1 C 84 % 4.58 C
2843 29-03-2019 22:15:00 6.9 C 84 % 4.39 C
2844 29-03-2019 22:20:00 6.8 C 84 % 4.29 C
2845 29-03-2019 22:25:00 6.8 C 85 % 4.46 C
2846 29-03-2019 22:30:00 6.7 C 85 % 4.36 C
2847 29-03-2019 22:35:00 6.6 C 85 % 4.26 C
2848 29-03-2019 22:40:00 6.4 C 85 % 4.07 C
2849 29-03-2019 22:45:00 6.3 C 85 % 3.97 C
2850 29-03-2019 22:50:00 6.3 C 85 % 3.97 C
Sensor: Nr:Datum:Temp:Feuchte:Taupunkt:
Aussen-T/F 2851 29-03-2019 22:55:00 6.2 C 85 % 3.87 C
2852 29-03-2019 23:00:00 6.1 C 86 % 3.94 C
2853 29-03-2019 23:05:00 5.9 C 86 % 3.74 C
2854 29-03-2019 23:10:00 5.8 C 86 % 3.64 C
2855 29-03-2019 23:15:00 5.8 C 87 % 3.81 C
2856 29-03-2019 23:20:00 5.8 C 87 % 3.81 C
2857 29-03-2019 23:25:00 5.7 C 87 % 3.71 C
2858 29-03-2019 23:30:00 5.6 C 87 % 3.61 C
2859 29-03-2019 23:35:00 5.4 C 87 % 3.41 C
2860 29-03-2019 23:40:00 5.3 C 88 % 3.48 C
2861 29-03-2019 23:45:00 5.2 C 88 % 3.38 C
2862 29-03-2019 23:50:00 5.2 C 89 % 3.54 C
2863 29-03-2019 23:55:00 5.1 C 88 % 3.28 C
2864 30-03-2019 00:00:00 4.9 C 88 % 3.08 C
2865 30-03-2019 00:05:00 4.8 C 89 % 3.14 C
2866 30-03-2019 00:10:00 4.8 C 89 % 3.14 C
2867 30-03-2019 00:15:00 4.7 C 89 % 3.05 C
2868 30-03-2019 00:20:00 4.7 C 90 % 3.2 C
2869 30-03-2019 00:25:00 4.6 C 90 % 3.1 C
2870 30-03-2019 00:30:00 4.6 C 90 % 3.1 C
2871 30-03-2019 00:35:00 4.5 C 90 % 3.01 C
2872 30-03-2019 00:40:00 4.4 C 90 % 2.91 C
2873 30-03-2019 00:45:00 4.4 C 91 % 3.06 C
2874 30-03-2019 00:50:00 4.4 C 91 % 3.06 C
2875 30-03-2019 00:55:00 4.3 C 91 % 2.96 C
Sensor: Nr:Datum:Temp:Feuchte:Taupunkt:
Aussen-T/F 2876 30-03-2019 01:00:00 4.3 C 91 % 2.96 C
2877 30-03-2019 01:05:00 4.2 C 91 % 2.87 C
2878 30-03-2019 01:10:00 4.1 C 91 % 2.77 C
2879 30-03-2019 01:15:00 4 C 91 % 2.67 C
2880 30-03-2019 01:20:00 3.9 C 91 % 2.57 C
2881 30-03-2019 01:25:00 4 C 92 % 2.82 C
2882 30-03-2019 01:30:00 4 C 92 % 2.82 C
2883 30-03-2019 01:35:00 4 C 92 % 2.82 C
2884 30-03-2019 01:40:00 3.9 C 92 % 2.72 C
2885 30-03-2019 01:45:00 3.9 C 92 % 2.72 C
2886 30-03-2019 01:50:00 3.9 C 92 % 2.72 C
2887 30-03-2019 01:55:00 3.8 C 92 % 2.62 C
2888 30-03-2019 02:00:00 3.8 C 92 % 2.62 C
2889 30-03-2019 02:05:00 3.8 C 92 % 2.62 C
2890 30-03-2019 02:10:00 3.7 C 92 % 2.52 C
2891 30-03-2019 02:15:00 3.6 C 92 % 2.42 C
2892 30-03-2019 02:20:00 3.4 C 92 % 2.23 C
2893 30-03-2019 02:25:00 3.3 C 92 % 2.13 C
2894 30-03-2019 02:30:00 3.4 C 93 % 2.38 C
2895 30-03-2019 02:35:00 3.4 C 93 % 2.38 C
2896 30-03-2019 02:40:00 3.4 C 93 % 2.38 C
2897 30-03-2019 02:45:00 3.3 C 92 % 2.13 C
2898 30-03-2019 02:50:00 3.2 C 92 % 2.03 C
2899 30-03-2019 02:55:00 3.1 C 93 % 2.08 C
2900 30-03-2019 03:00:00 3 C 93 % 1.98 C
Sensor: Nr:Datum:Temp:Feuchte:Taupunkt:
Aussen-T/F 2901 30-03-2019 03:05:00 2.9 C 93 % 1.88 C
2902 30-03-2019 03:10:00 2.8 C 93 % 1.78 C
2903 30-03-2019 03:15:00 2.8 C 93 % 1.78 C
2904 30-03-2019 03:20:00 2.8 C 94 % 1.93 C
2905 30-03-2019 03:25:00 2.9 C 94 % 2.03 C
2906 30-03-2019 03:30:00 2.8 C 94 % 1.93 C
2907 30-03-2019 03:35:00 2.8 C 93 % 1.78 C
2908 30-03-2019 03:40:00 2.8 C 94 % 1.93 C
2909 30-03-2019 03:45:00 2.7 C 94 % 1.83 C
2910 30-03-2019 03:50:00 2.7 C 94 % 1.83 C
2911 30-03-2019 03:55:00 2.6 C 94 % 1.73 C
2912 30-03-2019 04:00:00 2.6 C 94 % 1.73 C
2913 30-03-2019 04:05:00 2.5 C 94 % 1.63 C
2914 30-03-2019 04:10:00 2.4 C 94 % 1.54 C
2915 30-03-2019 04:15:00 2.7 C 94 % 1.83 C
2916 30-03-2019 04:20:00 2.7 C 94 % 1.83 C
2917 30-03-2019 04:25:00 2.7 C 94 % 1.83 C
2918 30-03-2019 04:30:00 2.7 C 94 % 1.83 C
2919 30-03-2019 04:35:00 2.6 C 94 % 1.73 C
2920 30-03-2019 04:40:00 2.4 C 94 % 1.54 C
2921 30-03-2019 04:45:00 2.3 C 94 % 1.44 C
2922 30-03-2019 04:50:00 2.1 C 94 % 1.24 C
2923 30-03-2019 04:55:00 2.1 C 94 % 1.24 C
2924 30-03-2019 05:00:00 2 C 94 % 1.14 C
2925 30-03-2019 05:05:00 2.1 C 94 % 1.24 C
Sensor: Nr:Datum:Temp:Feuchte:Taupunkt:
Aussen-T/F 2926 30-03-2019 05:10:00 2.2 C 94 % 1.34 C
2927 30-03-2019 05:15:00 2.1 C 94 % 1.24 C
2928 30-03-2019 05:20:00 1.9 C 94 % 1.04 C
2929 30-03-2019 05:25:00 1.8 C 94 % 0.94 C
2930 30-03-2019 05:30:00 1.8 C 94 % 0.94 C
2931 30-03-2019 05:35:00 1.7 C 94 % 0.84 C
2932 30-03-2019 05:40:00 1.7 C 94 % 0.84 C
2933 30-03-2019 05:45:00 1.7 C 95 % 0.99 C
2934 30-03-2019 05:50:00 1.7 C 95 % 0.99 C
2935 30-03-2019 05:55:00 1.8 C 95 % 1.09 C
2936 30-03-2019 06:00:00 2 C 95 % 1.29 C
2937 30-03-2019 06:05:00 1.9 C 95 % 1.19 C
2938 30-03-2019 06:10:00 1.9 C 95 % 1.19 C
2939 30-03-2019 06:15:00 1.9 C 95 % 1.19 C
2940 30-03-2019 06:20:00 1.7 C 95 % 0.99 C
2941 30-03-2019 06:25:00 1.7 C 95 % 0.99 C
2942 30-03-2019 06:30:00 1.6 C 95 % 0.89 C
2943 30-03-2019 06:35:00 1.6 C 95 % 0.89 C
2944 30-03-2019 06:40:00 1.7 C 95 % 0.99 C
2945 30-03-2019 06:45:00 1.6 C 95 % 0.89 C
2946 30-03-2019 06:50:00 1.6 C 95 % 0.89 C
2947 30-03-2019 06:55:00 1.6 C 95 % 0.89 C
2948 30-03-2019 07:00:00 1.7 C 95 % 0.99 C
2949 30-03-2019 07:05:00 1.8 C 95 % 1.09 C
2950 30-03-2019 07:10:00 1.8 C 95 % 1.09 C
Sensor: Nr:Datum:Temp:Feuchte:Taupunkt:
Aussen-T/F 2951 30-03-2019 07:15:00 1.8 C 95 % 1.09 C
2952 30-03-2019 07:20:00 1.9 C 96 % 1.33 C
2953 30-03-2019 07:25:00 2.1 C 96 % 1.53 C
2954 30-03-2019 07:30:00 2.2 C 96 % 1.63 C
2955 30-03-2019 07:35:00 2.2 C 96 % 1.63 C
2956 30-03-2019 07:40:00 2.3 C 96 % 1.73 C
2957 30-03-2019 07:45:00 2.4 C 96 % 1.83 C
2958 30-03-2019 07:50:00 2.6 C 96 % 2.03 C
2959 30-03-2019 07:55:00 2.6 C 96 % 2.03 C
2960 30-03-2019 08:00:00 2.7 C 96 % 2.13 C
2961 30-03-2019 08:05:00 2.7 C 96 % 2.13 C
2962 30-03-2019 08:10:00 2.8 C 96 % 2.23 C
2963 30-03-2019 08:15:00 2.9 C 96 % 2.33 C
2964 30-03-2019 08:20:00 3.1 C 96 % 2.53 C
2965 30-03-2019 08:25:00 3.2 C 96 % 2.63 C
2966 30-03-2019 08:30:00 3.3 C 96 % 2.72 C
2967 30-03-2019 08:35:00 3.6 C 96 % 3.02 C
2968 30-03-2019 08:40:00 3.7 C 96 % 3.12 C
2969 30-03-2019 08:45:00 3.9 C 96 % 3.32 C
2970 30-03-2019 08:50:00 4.1 C 97 % 3.67 C
2971 30-03-2019 08:55:00 4.3 C 96 % 3.72 C
2972 30-03-2019 09:00:00 4.3 C 96 % 3.72 C
2973 30-03-2019 09:05:00 4.4 C 96 % 3.82 C
2974 30-03-2019 09:10:00 4.7 C 96 % 4.12 C
2975 30-03-2019 09:15:00 4.9 C 97 % 4.46 C
Sensor: Nr:Datum:Temp:Feuchte:Taupunkt:
Aussen-T/F 2976 30-03-2019 09:20:00 5.1 C 97 % 4.66 C
2977 30-03-2019 09:25:00 5.3 C 97 % 4.86 C
2978 30-03-2019 09:30:00 5.5 C 97 % 5.06 C
2979 30-03-2019 09:35:00 5.7 C 97 % 5.26 C
2980 30-03-2019 09:40:00 5.9 C 97 % 5.46 C
2981 30-03-2019 09:45:00 6.2 C 97 % 5.76 C
2982 30-03-2019 09:50:00 6.6 C 97 % 6.16 C
2983 30-03-2019 09:55:00 6.8 C 96 % 6.21 C
2984 30-03-2019 10:00:00 7.2 C 96 % 6.61 C
2985 30-03-2019 10:05:00 7.4 C 95 % 6.65 C
2986 30-03-2019 10:10:00 7.7 C 95 % 6.95 C
2987 30-03-2019 10:15:00 8 C 94 % 7.09 C
2988 30-03-2019 10:20:00 8.3 C 93 % 7.24 C
2989 30-03-2019 10:25:00 8.6 C 92 % 7.38 C
2990 30-03-2019 10:30:00 8.9 C 91 % 7.51 C
2991 30-03-2019 10:35:00 9.2 C 89 % 7.48 C
2992 30-03-2019 10:40:00 9.6 C 89 % 7.88 C
2993 30-03-2019 10:45:00 10 C 87 % 7.94 C
2994 30-03-2019 10:50:00 10.4 C 85 % 7.99 C
2995 30-03-2019 10:55:00 10.8 C 84 % 8.21 C
2996 30-03-2019 11:00:00 11.2 C 82 % 8.25 C
2997 30-03-2019 11:05:00 11.6 C 80 % 8.27 C
2998 30-03-2019 11:10:00 12 C 80 % 8.66 C
2999 30-03-2019 11:15:00 12.4 C 76 % 8.29 C
3000 30-03-2019 11:20:00 12.9 C 73 % 8.18 C
Sensor: Nr:Datum:Temp:Feuchte:Taupunkt:
Aussen-T/F 3001 30-03-2019 11:25:00 13.5 C 72 % 8.56 C
3002 30-03-2019 11:30:00 14.1 C 69 % 8.5 C
3003 30-03-2019 11:35:00 14.6 C 67 % 8.55 C
3004 30-03-2019 11:40:00 15 C 67 % 8.93 C
3005 30-03-2019 11:45:00 15.5 C 62 % 8.26 C
3006 30-03-2019 11:50:00 15.9 C 59 % 7.91 C
3007 30-03-2019 11:55:00 16.2 C 58 % 7.94 C
3008 30-03-2019 12:00:00 16.6 C 56 % 7.8 C
3009 30-03-2019 12:05:00 16.9 C 54 % 7.54 C
3010 30-03-2019 12:10:00 17.1 C 54 % 7.73 C
3011 30-03-2019 12:15:00 17.2 C 52 % 7.27 C
3012 30-03-2019 12:20:00 17.4 C 50 % 6.88 C
3013 30-03-2019 12:25:00 17.6 C 50 % 7.06 C
3014 30-03-2019 12:30:00 17.8 C 50 % 7.25 C
3015 30-03-2019 12:35:00 17.9 C 48 % 6.75 C
3016 30-03-2019 12:40:00 18 C 49 % 7.14 C
3017 30-03-2019 12:45:00 18.2 C 47 % 6.71 C
3018 30-03-2019 12:50:00 18.2 C 46 % 6.4 C
3019 30-03-2019 12:55:00 18.3 C 44 % 5.85 C
3020 30-03-2019 13:00:00 18.5 C 44 % 6.03 C
3021 30-03-2019 13:05:00 18.7 C 42 % 5.54 C
3022 30-03-2019 13:10:00 18.8 C 42 % 5.63 C
3023 30-03-2019 13:15:00 18.9 C 41 % 5.37 C
3024 30-03-2019 13:20:00 19.1 C 42 % 5.9 C
3025 30-03-2019 13:25:00 19.3 C 41 % 5.73 C
Sensor: Nr:Datum:Temp:Feuchte:Taupunkt:
Aussen-T/F 3026 30-03-2019 13:30:00 19.4 C 40 % 5.47 C
3027 30-03-2019 13:35:00 19.6 C 40 % 5.64 C
3028 30-03-2019 13:40:00 19.7 C 41 % 6.09 C
3029 30-03-2019 13:45:00 19.8 C 41 % 6.18 C
3030 30-03-2019 13:50:00 19.9 C 40 % 5.91 C
3031 30-03-2019 13:55:00 20 C 41 % 6.36 C
3032 30-03-2019 14:00:00 19.9 C 40 % 5.91 C
3033 30-03-2019 14:05:00 20 C 39 % 5.64 C
3034 30-03-2019 14:10:00 20.1 C 40 % 6.09 C
3035 30-03-2019 14:15:00 20 C 38 % 5.26 C
3036 30-03-2019 14:20:00 19.9 C 38 % 5.18 C
3037 30-03-2019 14:25:00 19.9 C 37 % 4.79 C
3038 30-03-2019 14:30:00 19.9 C 38 % 5.18 C
3039 30-03-2019 14:35:00 19.9 C 37 % 4.79 C
3040 30-03-2019 14:40:00 19.9 C 37 % 4.79 C
3041 30-03-2019 14:45:00 19.9 C 38 % 5.18 C
3042 30-03-2019 14:50:00 19.9 C 38 % 5.18 C
3043 30-03-2019 14:55:00 19.9 C 38 % 5.18 C
3044 30-03-2019 15:00:00 19.9 C 38 % 5.18 C
3045 30-03-2019 15:05:00 19.9 C 38 % 5.18 C
3046 30-03-2019 15:10:00 19.9 C 38 % 5.18 C
3047 30-03-2019 15:15:00 20 C 37 % 4.88 C
3048 30-03-2019 15:20:00 20.2 C 37 % 5.06 C
3049 30-03-2019 15:25:00 20.4 C 38 % 5.62 C
3050 30-03-2019 15:30:00 20.6 C 37 % 5.41 C
Sensor: Nr:Datum:Temp:Feuchte:Taupunkt:
Aussen-T/F 3051 30-03-2019 15:35:00 20.6 C 37 % 5.41 C
3052 30-03-2019 15:40:00 20.7 C 36 % 5.11 C
3053 30-03-2019 15:45:00 20.8 C 35 % 4.79 C
3054 30-03-2019 15:50:00 21 C 37 % 5.77 C
3055 30-03-2019 15:55:00 21 C 36 % 5.37 C
3056 30-03-2019 16:00:00 20.9 C 37 % 5.68 C
3057 30-03-2019 16:05:00 21.2 C 37 % 5.94 C
3058 30-03-2019 16:10:00 21.5 C 35 % 5.41 C
3059 30-03-2019 16:15:00 21.7 C 37 % 6.39 C
3060 30-03-2019 16:20:00 21.4 C 36 % 5.73 C
3061 30-03-2019 16:25:00 20.8 C 36 % 5.2 C
3062 30-03-2019 16:30:00 20.3 C 38 % 5.53 C
3063 30-03-2019 16:35:00 19.9 C 42 % 6.62 C
3064 30-03-2019 16:40:00 19.7 C 43 % 6.78 C
3065 30-03-2019 16:45:00 19.6 C 43 % 6.69 C
3066 30-03-2019 16:50:00 19.7 C 41 % 6.09 C
3067 30-03-2019 16:55:00 19.8 C 42 % 6.53 C
3068 30-03-2019 17:00:00 19.8 C 40 % 5.82 C
3069 30-03-2019 17:05:00 20.1 C 38 % 5.35 C
3070 30-03-2019 17:10:00 20.1 C 40 % 6.09 C
3071 30-03-2019 17:15:00 19.9 C 43 % 6.96 C
3072 30-03-2019 17:20:00 19.9 C 40 % 5.91 C
3073 30-03-2019 17:25:00 19.9 C 41 % 6.27 C
3074 30-03-2019 17:30:00 19.7 C 43 % 6.78 C
3075 30-03-2019 17:35:00 19.4 C 43 % 6.51 C
Sensor: Nr:Datum:Temp:Feuchte:Taupunkt:
Aussen-T/F 3076 30-03-2019 17:40:00 19.2 C 46 % 7.31 C
3077 30-03-2019 17:45:00 18.8 C 46 % 6.95 C
3078 30-03-2019 17:50:00 18.5 C 46 % 6.67 C
3079 30-03-2019 17:55:00 18.3 C 51 % 8 C
3080 30-03-2019 18:00:00 18.4 C 50 % 7.8 C
3081 30-03-2019 18:05:00 18.4 C 51 % 8.09 C
3082 30-03-2019 18:10:00 18.3 C 51 % 8 C
3083 30-03-2019 18:15:00 18.1 C 52 % 8.1 C
3084 30-03-2019 18:20:00 17.7 C 52 % 7.73 C
3085 30-03-2019 18:25:00 17.4 C 54 % 8.01 C
3086 30-03-2019 18:30:00 17.2 C 55 % 8.09 C
3087 30-03-2019 18:35:00 16.9 C 54 % 7.54 C
3088 30-03-2019 18:40:00 16.7 C 54 % 7.36 C
3089 30-03-2019 18:45:00 16.5 C 56 % 7.7 C
3090 30-03-2019 18:50:00 16.2 C 56 % 7.42 C
3091 30-03-2019 18:55:00 15.9 C 57 % 7.4 C
3092 30-03-2019 19:00:00 15.7 C 57 % 7.21 C
3093 30-03-2019 19:05:00 15.4 C 58 % 7.19 C
3094 30-03-2019 19:10:00 15.1 C 58 % 6.91 C
3095 30-03-2019 19:15:00 14.9 C 59 % 6.97 C
3096 30-03-2019 19:20:00 14.7 C 60 % 7.03 C
3097 30-03-2019 19:25:00 14.6 C 59 % 6.69 C
3098 30-03-2019 19:30:00 14.7 C 59 % 6.78 C
3099 30-03-2019 19:35:00 14.7 C 60 % 7.03 C
3100 30-03-2019 19:40:00 14.8 C 59 % 6.87 C
Sensor: Nr:Datum:Temp:Feuchte:Taupunkt:
Aussen-T/F 3101 30-03-2019 19:45:00 14.8 C 60 % 7.12 C
3102 30-03-2019 19:50:00 14.7 C 62 % 7.5 C
3103 30-03-2019 19:55:00 14.5 C 61 % 7.08 C
3104 30-03-2019 20:00:00 14.4 C 62 % 7.22 C
3105 30-03-2019 20:05:00 14.2 C 63 % 7.27 C
3106 30-03-2019 20:10:00 14.1 C 63 % 7.17 C
3107 30-03-2019 20:15:00 13.9 C 64 % 7.21 C
3108 30-03-2019 20:20:00 13.8 C 65 % 7.34 C
3109 30-03-2019 20:25:00 13.8 C 64 % 7.12 C
3110 30-03-2019 20:30:00 13.7 C 65 % 7.25 C
3111 30-03-2019 20:35:00 13.7 C 65 % 7.25 C
3112 30-03-2019 20:40:00 13.7 C 66 % 7.47 C
3113 30-03-2019 20:45:00 13.5 C 65 % 7.06 C
3114 30-03-2019 20:50:00 13.4 C 65 % 6.96 C
3115 30-03-2019 20:55:00 13.3 C 65 % 6.87 C
3116 30-03-2019 21:00:00 13.1 C 66 % 6.9 C
3117 30-03-2019 21:05:00 12.9 C 66 % 6.71 C
3118 30-03-2019 21:10:00 12.7 C 67 % 6.74 C
3119 30-03-2019 21:15:00 12.6 C 68 % 6.86 C
3120 30-03-2019 21:20:00 12.4 C 68 % 6.67 C
3121 30-03-2019 21:25:00 12.4 C 70 % 7.09 C
3122 30-03-2019 21:30:00 12.3 C 71 % 7.2 C
3123 30-03-2019 21:35:00 12.3 C 71 % 7.2 C
3124 30-03-2019 21:40:00 12.2 C 72 % 7.31 C
3125 30-03-2019 21:45:00 12.2 C 72 % 7.31 C
Sensor: Nr:Datum:Temp:Feuchte:Taupunkt:
Aussen-T/F 3126 30-03-2019 21:50:00 11.9 C 72 % 7.02 C
3127 30-03-2019 21:55:00 11.8 C 72 % 6.92 C
3128 30-03-2019 22:00:00 11.7 C 73 % 7.03 C
3129 30-03-2019 22:05:00 11.6 C 74 % 7.13 C
3130 30-03-2019 22:10:00 11.3 C 75 % 7.04 C
3131 30-03-2019 22:15:00 11.2 C 75 % 6.94 C
3132 30-03-2019 22:20:00 11.1 C 75 % 6.84 C
3133 30-03-2019 22:25:00 11.1 C 75 % 6.84 C
3134 30-03-2019 22:30:00 11 C 75 % 6.75 C
3135 30-03-2019 22:35:00 10.9 C 75 % 6.65 C
3136 30-03-2019 22:40:00 10.9 C 75 % 6.65 C
3137 30-03-2019 22:45:00 10.9 C 75 % 6.65 C
3138 30-03-2019 22:50:00 10.9 C 76 % 6.84 C
3139 30-03-2019 22:55:00 10.9 C 77 % 7.03 C
3140 30-03-2019 23:00:00 10.9 C 76 % 6.84 C
3141 30-03-2019 23:05:00 10.9 C 75 % 6.65 C
3142 30-03-2019 23:10:00 10.9 C 76 % 6.84 C
3143 30-03-2019 23:15:00 10.9 C 75 % 6.65 C
3144 30-03-2019 23:20:00 10.9 C 76 % 6.84 C
3145 30-03-2019 23:25:00 10.9 C 76 % 6.84 C
3146 30-03-2019 23:30:00 10.9 C 76 % 6.84 C
3147 30-03-2019 23:35:00 10.9 C 75 % 6.65 C
3148 30-03-2019 23:40:00 10.8 C 75 % 6.55 C
3149 30-03-2019 23:45:00 10.7 C 75 % 6.46 C
3150 30-03-2019 23:50:00 10.6 C 76 % 6.55 C
Sensor: Nr:Datum:Temp:Feuchte:Taupunkt:
Aussen-T/F 3151 30-03-2019 23:55:00 10.4 C 76 % 6.36 C
3152 31-03-2019 00:00:00 10.3 C 76 % 6.26 C
3153 31-03-2019 00:05:00 10.3 C 77 % 6.45 C
3154 31-03-2019 00:10:00 10.2 C 76 % 6.16 C
3155 31-03-2019 00:15:00 10 C 76 % 5.97 C
3156 31-03-2019 00:20:00 9.8 C 76 % 5.78 C
3157 31-03-2019 00:25:00 9.7 C 76 % 5.68 C
3158 31-03-2019 00:30:00 9.5 C 77 % 5.68 C
3159 31-03-2019 00:35:00 9.3 C 77 % 5.48 C
3160 31-03-2019 00:40:00 9.2 C 77 % 5.38 C
3161 31-03-2019 00:45:00 8.9 C 78 % 5.28 C
3162 31-03-2019 00:50:00 8.8 C 79 % 5.36 C
3163 31-03-2019 00:55:00 8.7 C 80 % 5.45 C
3164 31-03-2019 01:00:00 8.6 C 81 % 5.53 C
3165 31-03-2019 01:05:00 8.6 C 81 % 5.53 C
3166 31-03-2019 01:10:00 8.6 C 82 % 5.71 C
3167 31-03-2019 01:15:00 8.6 C 82 % 5.71 C
3168 31-03-2019 01:20:00 8.6 C 82 % 5.71 C
3169 31-03-2019 01:25:00 8.5 C 82 % 5.61 C
3170 31-03-2019 01:30:00 8.5 C 82 % 5.61 C
3171 31-03-2019 01:35:00 8.4 C 82 % 5.51 C
3172 31-03-2019 01:40:00 8.3 C 82 % 5.41 C
3173 31-03-2019 01:45:00 8.1 C 81 % 5.04 C
3174 31-03-2019 01:50:00 8 C 82 % 5.12 C
3175 31-03-2019 01:55:00 7.8 C 82 % 4.92 C
Sensor: Nr:Datum:Temp:Feuchte:Taupunkt:
Aussen-T/F 3176 31-03-2019 02:00:00 7.7 C 82 % 4.83 C
3177 31-03-2019 02:05:00 7.5 C 82 % 4.63 C
3178 31-03-2019 02:10:00 7.4 C 84 % 4.88 C
3179 31-03-2019 02:15:00 7.5 C 85 % 5.15 C
3180 31-03-2019 02:20:00 7.6 C 84 % 5.07 C
3181 31-03-2019 02:25:00 7.6 C 84 % 5.07 C
3182 31-03-2019 02:30:00 7.4 C 83 % 4.71 C
3183 31-03-2019 02:35:00 7.2 C 84 % 4.68 C
3184 31-03-2019 02:40:00 7.1 C 84 % 4.58 C
3185 31-03-2019 02:45:00 6.9 C 85 % 4.56 C
3186 31-03-2019 02:50:00 6.9 C 86 % 4.72 C
3187 31-03-2019 02:55:00 6.9 C 85 % 4.56 C
3188 31-03-2019 04:00:00 6.9 C 85 % 4.56 C
3189 31-03-2019 04:05:00 6.7 C 85 % 4.36 C
3190 31-03-2019 04:10:00 6.6 C 85 % 4.26 C
3191 31-03-2019 04:15:00 6.6 C 86 % 4.43 C
3192 31-03-2019 04:20:00 6.5 C 86 % 4.33 C
3193 31-03-2019 04:25:00 6.5 C 87 % 4.5 C
3194 31-03-2019 04:30:00 6.6 C 86 % 4.43 C
3195 31-03-2019 04:35:00 6.4 C 86 % 4.23 C
3196 31-03-2019 04:40:00 6.4 C 86 % 4.23 C
3197 31-03-2019 04:45:00 6.3 C 86 % 4.14 C
3198 31-03-2019 04:50:00 6.1 C 86 % 3.94 C
3199 31-03-2019 04:55:00 5.8 C 86 % 3.64 C
3200 31-03-2019 05:00:00 5.7 C 87 % 3.71 C
Sensor: Nr:Datum:Temp:Feuchte:Taupunkt:
Aussen-T/F 3201 31-03-2019 05:05:00 5.6 C 87 % 3.61 C
3202 31-03-2019 05:10:00 5.4 C 88 % 3.58 C
3203 31-03-2019 05:15:00 5.3 C 88 % 3.48 C
3204 31-03-2019 05:20:00 5.2 C 88 % 3.38 C
3205 31-03-2019 05:25:00 5.1 C 89 % 3.44 C
3206 31-03-2019 05:30:00 5 C 89 % 3.34 C
3207 31-03-2019 05:35:00 4.9 C 89 % 3.24 C
3208 31-03-2019 05:40:00 4.9 C 90 % 3.4 C
3209 31-03-2019 05:45:00 4.8 C 90 % 3.3 C
3210 31-03-2019 05:50:00 4.8 C 90 % 3.3 C
3211 31-03-2019 05:55:00 5.1 C 91 % 3.76 C
3212 31-03-2019 06:00:00 5.1 C 91 % 3.76 C
3213 31-03-2019 06:05:00 5.2 C 91 % 3.85 C
3214 31-03-2019 06:10:00 5.2 C 90 % 3.7 C
3215 31-03-2019 06:15:00 5.1 C 90 % 3.6 C
3216 31-03-2019 06:20:00 5 C 90 % 3.5 C
3217 31-03-2019 06:25:00 4.8 C 89 % 3.14 C
3218 31-03-2019 06:30:00 4.8 C 90 % 3.3 C
3219 31-03-2019 06:35:00 4.9 C 91 % 3.56 C
3220 31-03-2019 06:40:00 4.9 C 91 % 3.56 C
3221 31-03-2019 06:45:00 4.8 C 91 % 3.46 C
3222 31-03-2019 06:50:00 4.8 C 91 % 3.46 C
3223 31-03-2019 06:55:00 4.8 C 91 % 3.46 C
3224 31-03-2019 07:00:00 4.8 C 91 % 3.46 C
3225 31-03-2019 07:05:00 4.8 C 91 % 3.46 C
Sensor: Nr:Datum:Temp:Feuchte:Taupunkt:
Aussen-T/F 3226 31-03-2019 07:10:00 4.9 C 91 % 3.56 C
3227 31-03-2019 07:15:00 5 C 91 % 3.66 C
3228 31-03-2019 07:20:00 4.9 C 91 % 3.56 C
3229 31-03-2019 07:25:00 4.9 C 91 % 3.56 C
3230 31-03-2019 07:30:00 4.9 C 91 % 3.56 C
3231 31-03-2019 07:35:00 4.9 C 91 % 3.56 C
3232 31-03-2019 07:40:00 4.7 C 90 % 3.2 C
3233 31-03-2019 07:45:00 4.6 C 90 % 3.1 C
3234 31-03-2019 07:50:00 4.5 C 91 % 3.16 C
3235 31-03-2019 07:55:00 4.5 C 91 % 3.16 C
3236 31-03-2019 08:00:00 4.6 C 91 % 3.26 C
3237 31-03-2019 08:05:00 4.6 C 92 % 3.42 C
3238 31-03-2019 08:10:00 4.6 C 92 % 3.42 C
3239 31-03-2019 08:15:00 4.7 C 92 % 3.51 C
3240 31-03-2019 08:20:00 4.6 C 92 % 3.42 C
3241 31-03-2019 08:25:00 4.7 C 92 % 3.51 C
3242 31-03-2019 08:30:00 4.7 C 92 % 3.51 C
3243 31-03-2019 08:35:00 4.8 C 92 % 3.61 C
3244 31-03-2019 08:40:00 4.8 C 92 % 3.61 C
3245 31-03-2019 08:45:00 4.8 C 92 % 3.61 C
3246 31-03-2019 08:50:00 4.8 C 92 % 3.61 C
3247 31-03-2019 08:55:00 4.8 C 92 % 3.61 C
3248 31-03-2019 09:00:00 4.9 C 92 % 3.71 C
3249 31-03-2019 09:05:00 4.9 C 93 % 3.87 C
3250 31-03-2019 09:10:00 5.1 C 93 % 4.06 C
Sensor: Nr:Datum:Temp:Feuchte:Taupunkt:
Aussen-T/F 3251 31-03-2019 09:15:00 5.2 C 93 % 4.16 C
3252 31-03-2019 09:20:00 5.3 C 93 % 4.26 C
3253 31-03-2019 09:25:00 5.4 C 93 % 4.36 C
3254 31-03-2019 09:30:00 5.5 C 93 % 4.46 C
3255 31-03-2019 09:35:00 5.7 C 93 % 4.66 C
3256 31-03-2019 09:40:00 5.8 C 93 % 4.76 C
3257 31-03-2019 09:45:00 5.9 C 93 % 4.86 C
3258 31-03-2019 09:50:00 6.1 C 93 % 5.06 C
3259 31-03-2019 09:55:00 6.3 C 93 % 5.25 C
3260 31-03-2019 10:00:00 6.6 C 93 % 5.55 C
3261 31-03-2019 10:05:00 6.9 C 93 % 5.85 C
3262 31-03-2019 10:10:00 7.2 C 93 % 6.15 C
3263 31-03-2019 10:15:00 7.4 C 93 % 6.34 C
3264 31-03-2019 10:20:00 7.7 C 92 % 6.48 C
3265 31-03-2019 10:25:00 7.9 C 92 % 6.68 C
3266 31-03-2019 10:30:00 8.1 C 91 % 6.72 C
3267 31-03-2019 10:35:00 8.3 C 90 % 6.76 C
3268 31-03-2019 10:40:00 8.6 C 90 % 7.06 C
3269 31-03-2019 10:45:00 8.8 C 90 % 7.25 C
3270 31-03-2019 10:50:00 9.1 C 89 % 7.39 C
3271 31-03-2019 10:55:00 9.4 C 88 % 7.52 C
3272 31-03-2019 11:00:00 9.7 C 86 % 7.47 C
3273 31-03-2019 11:05:00 10 C 84 % 7.43 C
3274 31-03-2019 11:10:00 10.5 C 83 % 7.74 C
3275 31-03-2019 11:15:00 10.9 C 83 % 8.13 C
Sensor: Nr:Datum:Temp:Feuchte:Taupunkt:
Aussen-T/F 3276 31-03-2019 11:20:00 11.2 C 80 % 7.88 C
3277 31-03-2019 11:25:00 11.4 C 80 % 8.08 C
3278 31-03-2019 11:30:00 11.7 C 78 % 8 C
3279 31-03-2019 11:35:00 11.9 C 76 % 7.81 C
3280 31-03-2019 11:40:00 12.2 C 74 % 7.71 C
3281 31-03-2019 11:45:00 12.6 C 74 % 8.09 C
3282 31-03-2019 11:50:00 12.9 C 74 % 8.38 C
3283 31-03-2019 11:55:00 13.2 C 71 % 8.06 C
3284 31-03-2019 12:00:00 13.3 C 70 % 7.95 C
3285 31-03-2019 12:05:00 13.6 C 69 % 8.03 C
3286 31-03-2019 12:10:00 13.8 C 68 % 8 C
3287 31-03-2019 12:15:00 14.1 C 67 % 8.07 C
3288 31-03-2019 12:20:00 14.3 C 66 % 8.04 C
3289 31-03-2019 12:25:00 14.5 C 67 % 8.45 C
3290 31-03-2019 12:30:00 14.7 C 66 % 8.42 C
3291 31-03-2019 12:35:00 14.9 C 65 % 8.39 C
3292 31-03-2019 12:40:00 15.2 C 64 % 8.44 C
3293 31-03-2019 12:45:00 15.3 C 63 % 8.31 C
3294 31-03-2019 12:50:00 15.4 C 63 % 8.4 C
3295 31-03-2019 12:55:00 15.7 C 63 % 8.68 C
3296 31-03-2019 13:00:00 15.8 C 61 % 8.3 C
3297 31-03-2019 13:05:00 16.1 C 60 % 8.34 C
3298 31-03-2019 13:10:00 16.2 C 59 % 8.19 C
3299 31-03-2019 13:15:00 16.3 C 58 % 8.03 C
3300 31-03-2019 13:20:00 16.5 C 58 % 8.22 C
Sensor: Nr:Datum:Temp:Feuchte:Taupunkt:
Aussen-T/F 3301 31-03-2019 13:25:00 16.7 C 56 % 7.89 C
3302 31-03-2019 13:30:00 16.8 C 55 % 7.72 C
3303 31-03-2019 13:35:00 17 C 53 % 7.36 C
3304 31-03-2019 13:40:00 17.2 C 53 % 7.55 C
3305 31-03-2019 13:45:00 17.3 C 52 % 7.36 C
3306 31-03-2019 13:50:00 17.4 C 52 % 7.45 C
3307 31-03-2019 13:55:00 17.6 C 51 % 7.35 C
3308 31-03-2019 14:00:00 17.6 C 52 % 7.64 C
3309 31-03-2019 14:05:00 17.7 C 52 % 7.73 C
3310 31-03-2019 14:10:00 17.9 C 51 % 7.63 C
3311 31-03-2019 14:15:00 18.1 C 49 % 7.23 C
3312 31-03-2019 14:20:00 18.2 C 51 % 7.91 C
3313 31-03-2019 14:25:00 18.3 C 53 % 8.56 C
3314 31-03-2019 14:30:00 18.5 C 51 % 8.18 C
3315 31-03-2019 14:35:00 18.5 C 50 % 7.89 C
3316 31-03-2019 14:40:00 18.6 C 50 % 7.98 C
3317 31-03-2019 14:45:00 18.7 C 50 % 8.08 C
3318 31-03-2019 14:50:00 18.9 C 49 % 7.96 C
3319 31-03-2019 14:55:00 19.1 C 47 % 7.53 C
3320 31-03-2019 15:00:00 19.3 C 48 % 8.03 C
3321 31-03-2019 15:05:00 19.5 C 48 % 8.21 C
3322 31-03-2019 15:10:00 19.7 C 48 % 8.39 C
3323 31-03-2019 15:15:00 19.8 C 48 % 8.48 C
3324 31-03-2019 15:20:00 19.4 C 45 % 7.17 C
3325 31-03-2019 15:25:00 19 C 47 % 7.44 C
Sensor: Nr:Datum:Temp:Feuchte:Taupunkt:
Aussen-T/F 3326 31-03-2019 15:30:00 18.7 C 47 % 7.17 C
3327 31-03-2019 15:35:00 18.4 C 49 % 7.5 C
3328 31-03-2019 15:40:00 18.3 C 49 % 7.41 C
3329 31-03-2019 15:45:00 18.1 C 49 % 7.23 C
3330 31-03-2019 15:50:00 17.9 C 50 % 7.34 C
3331 31-03-2019 15:55:00 17.8 C 50 % 7.25 C
3332 31-03-2019 16:00:00 17.7 C 51 % 7.45 C
3333 31-03-2019 16:05:00 17.5 C 52 % 7.54 C
3334 31-03-2019 16:10:00 17.3 C 55 % 8.18 C
3335 31-03-2019 16:15:00 16.9 C 62 % 9.58 C
3336 31-03-2019 16:20:00 16.4 C 75 % 11.96 C
3337 31-03-2019 16:25:00 15.9 C 78 % 12.07 C
3338 31-03-2019 16:30:00 15.6 C 80 % 12.16 C
3339 31-03-2019 16:35:00 15.4 C 84 % 12.71 C
3340 31-03-2019 16:40:00 15.1 C 83 % 12.24 C
3341 31-03-2019 16:45:00 14.8 C 84 % 12.12 C
3342 31-03-2019 16:50:00 14.4 C 85 % 11.91 C
3343 31-03-2019 16:55:00 14.1 C 85 % 11.62 C
3344 31-03-2019 17:00:00 13.7 C 86 % 11.4 C
3345 31-03-2019 17:05:00 13.5 C 87 % 11.38 C
3346 31-03-2019 17:10:00 13.3 C 88 % 11.36 C
3347 31-03-2019 17:15:00 13.3 C 90 % 11.7 C
3348 31-03-2019 17:20:00 13.6 C 92 % 12.33 C
3349 31-03-2019 17:25:00 13.9 C 93 % 12.79 C
3350 31-03-2019 17:30:00 14.3 C 93 % 13.18 C
Sensor: Nr:Datum:Temp:Feuchte:Taupunkt:
Aussen-T/F 3351 31-03-2019 17:35:00 14.6 C 92 % 13.32 C
3352 31-03-2019 17:40:00 14.7 C 90 % 13.08 C
3353 31-03-2019 17:45:00 14.9 C 91 % 13.44 C
3354 31-03-2019 17:50:00 15.2 C 89 % 13.4 C
3355 31-03-2019 17:55:00 15.4 C 85 % 12.89 C
3356 31-03-2019 18:00:00 15.6 C 78 % 11.78 C
3357 31-03-2019 18:05:00 15.6 C 78 % 11.78 C
3358 31-03-2019 18:10:00 15.6 C 79 % 11.97 C
3359 31-03-2019 18:15:00 15.5 C 77 % 11.49 C
3360 31-03-2019 18:20:00 15.4 C 75 % 11 C
3361 31-03-2019 18:25:00 15.4 C 75 % 11 C
3362 31-03-2019 18:30:00 15.3 C 74 % 10.7 C
3363 31-03-2019 18:35:00 15.2 C 76 % 11 C
3364 31-03-2019 18:40:00 15.2 C 76 % 11 C
3365 31-03-2019 18:45:00 15 C 77 % 11 C
3366 31-03-2019 18:50:00 14.9 C 76 % 10.71 C
3367 31-03-2019 18:55:00 14.7 C 72 % 9.71 C
3368 31-03-2019 19:00:00 14.4 C 74 % 9.83 C
3369 31-03-2019 19:05:00 14.2 C 75 % 9.84 C
3370 31-03-2019 19:10:00 13.8 C 78 % 10.03 C
3371 31-03-2019 19:15:00 13.4 C 78 % 9.65 C
3372 31-03-2019 19:20:00 13.2 C 79 % 9.64 C
3373 31-03-2019 19:25:00 12.9 C 81 % 9.72 C
3374 31-03-2019 19:30:00 12.6 C 82 % 9.61 C
3375 31-03-2019 19:35:00 12.3 C 83 % 9.5 C
Sensor: Nr:Datum:Temp:Feuchte:Taupunkt:
Aussen-T/F 3376 31-03-2019 19:40:00 12 C 84 % 9.38 C
3377 31-03-2019 19:45:00 11.7 C 84 % 9.09 C
3378 31-03-2019 19:50:00 11.3 C 85 % 8.87 C
3379 31-03-2019 19:55:00 11.1 C 85 % 8.68 C
3380 31-03-2019 20:00:00 10.9 C 86 % 8.65 C
3381 31-03-2019 20:05:00 10.7 C 86 % 8.46 C
3382 31-03-2019 20:10:00 10.6 C 87 % 8.53 C
3383 31-03-2019 20:15:00 10.4 C 87 % 8.33 C
3384 31-03-2019 20:20:00 10.3 C 87 % 8.23 C
3385 31-03-2019 20:25:00 10.2 C 87 % 8.14 C
3386 31-03-2019 20:30:00 10 C 87 % 7.94 C
3387 31-03-2019 20:35:00 9.8 C 87 % 7.74 C
3388 31-03-2019 20:40:00 9.8 C 87 % 7.74 C
3389 31-03-2019 20:45:00 9.7 C 88 % 7.81 C
3390 31-03-2019 20:50:00 9.6 C 87 % 7.55 C
3391 31-03-2019 20:55:00 9.4 C 88 % 7.52 C
3392 31-03-2019 21:00:00 9.3 C 88 % 7.42 C
3393 31-03-2019 21:05:00 9.2 C 88 % 7.32 C
3394 31-03-2019 21:10:00 9.2 C 88 % 7.32 C
3395 31-03-2019 21:15:00 9.1 C 88 % 7.22 C
3396 31-03-2019 21:20:00 9.1 C 88 % 7.22 C
3397 31-03-2019 21:25:00 8.9 C 88 % 7.02 C
3398 31-03-2019 21:30:00 8.9 C 88 % 7.02 C
3399 31-03-2019 21:35:00 8.9 C 88 % 7.02 C
3400 31-03-2019 21:40:00 8.8 C 88 % 6.93 C
Sensor: Nr:Datum:Temp:Feuchte:Taupunkt:
Aussen-T/F 3401 31-03-2019 21:45:00 8.7 C 88 % 6.83 C
3402 31-03-2019 21:50:00 8.7 C 87 % 6.66 C
3403 31-03-2019 21:55:00 8.6 C 87 % 6.56 C
3404 31-03-2019 22:00:00 8.5 C 87 % 6.46 C
3405 31-03-2019 22:05:00 8.4 C 88 % 6.53 C
3406 31-03-2019 22:10:00 8.3 C 87 % 6.27 C
3407 31-03-2019 22:15:00 8.2 C 88 % 6.33 C
3408 31-03-2019 22:20:00 8.1 C 88 % 6.24 C
3409 31-03-2019 22:25:00 8.1 C 88 % 6.24 C
3410 31-03-2019 22:30:00 8 C 88 % 6.14 C
3411 31-03-2019 22:35:00 7.9 C 87 % 5.87 C
3412 31-03-2019 22:40:00 7.9 C 88 % 6.04 C
3413 31-03-2019 22:45:00 7.8 C 88 % 5.94 C
3414 31-03-2019 22:50:00 7.7 C 88 % 5.84 C
3415 31-03-2019 22:55:00 7.6 C 88 % 5.74 C
3416 31-03-2019 23:00:00 7.5 C 88 % 5.64 C
3417 31-03-2019 23:05:00 7.4 C 88 % 5.55 C
3418 31-03-2019 23:10:00 7.4 C 88 % 5.55 C
3419 31-03-2019 23:15:00 7.4 C 88 % 5.55 C
3420 31-03-2019 23:20:00 7.4 C 88 % 5.55 C
3421 31-03-2019 23:25:00 7.4 C 88 % 5.55 C
3422 31-03-2019 23:30:00 7.3 C 88 % 5.45 C
3423 31-03-2019 23:35:00 7.2 C 88 % 5.35 C
3424 31-03-2019 23:40:00 7.1 C 88 % 5.25 C
3425 31-03-2019 23:45:00 6.9 C 88 % 5.05 C
Sensor: Nr:Datum:Temp:Feuchte:Taupunkt:
Aussen-T/F 3426 31-03-2019 23:50:00 6.8 C 88 % 4.96 C
3427 31-03-2019 23:55:00 6.8 C 88 % 4.96 C
3428 01-04-2019 00:00:00 6.7 C 89 % 5.02 C
3429 01-04-2019 00:05:00 6.6 C 89 % 4.92 C
3430 01-04-2019 00:10:00 6.6 C 89 % 4.92 C
3431 01-04-2019 00:15:00 6.5 C 89 % 4.82 C
3432 01-04-2019 00:20:00 6.4 C 89 % 4.72 C
3433 01-04-2019 00:25:00 6.4 C 89 % 4.72 C
3434 01-04-2019 00:30:00 6.3 C 89 % 4.62 C
3435 01-04-2019 00:35:00 6.3 C 89 % 4.62 C
3436 01-04-2019 00:40:00 6.2 C 89 % 4.53 C
3437 01-04-2019 00:45:00 6.2 C 89 % 4.53 C
3438 01-04-2019 00:50:00 6.1 C 89 % 4.43 C
3439 01-04-2019 00:55:00 6.1 C 89 % 4.43 C
3440 01-04-2019 01:00:00 6 C 89 % 4.33 C
3441 01-04-2019 01:05:00 6 C 89 % 4.33 C
3442 01-04-2019 01:10:00 5.9 C 89 % 4.23 C
3443 01-04-2019 01:15:00 5.9 C 89 % 4.23 C
3444 01-04-2019 01:20:00 5.8 C 89 % 4.13 C
3445 01-04-2019 01:25:00 5.8 C 89 % 4.13 C
3446 01-04-2019 01:30:00 5.7 C 89 % 4.03 C
3447 01-04-2019 01:35:00 5.6 C 89 % 3.93 C
3448 01-04-2019 01:40:00 5.6 C 90 % 4.09 C
3449 01-04-2019 01:45:00 5.6 C 90 % 4.09 C
3450 01-04-2019 01:50:00 5.5 C 90 % 3.99 C
Sensor: Nr:Datum:Temp:Feuchte:Taupunkt:
Aussen-T/F 3451 01-04-2019 01:55:00 5.5 C 90 % 3.99 C
3452 01-04-2019 02:00:00 5.5 C 90 % 3.99 C
3453 01-04-2019 02:05:00 5.4 C 90 % 3.89 C
3454 01-04-2019 02:10:00 5.4 C 90 % 3.89 C
3455 01-04-2019 02:15:00 5.4 C 90 % 3.89 C
3456 01-04-2019 02:20:00 5.3 C 90 % 3.8 C
3457 01-04-2019 02:25:00 5.3 C 90 % 3.8 C
3458 01-04-2019 02:30:00 5.3 C 90 % 3.8 C
3459 01-04-2019 02:35:00 5.2 C 90 % 3.7 C
3460 01-04-2019 02:40:00 5.2 C 90 % 3.7 C
3461 01-04-2019 02:45:00 5.1 C 90 % 3.6 C
3462 01-04-2019 02:50:00 5 C 90 % 3.5 C
3463 01-04-2019 02:55:00 4.9 C 90 % 3.4 C
3464 01-04-2019 03:00:00 4.9 C 90 % 3.4 C
3465 01-04-2019 03:05:00 4.8 C 90 % 3.3 C
3466 01-04-2019 03:10:00 4.8 C 91 % 3.46 C
3467 01-04-2019 03:15:00 4.8 C 91 % 3.46 C
3468 01-04-2019 03:20:00 4.8 C 91 % 3.46 C
3469 01-04-2019 03:25:00 4.7 C 91 % 3.36 C
3470 01-04-2019 03:30:00 4.7 C 90 % 3.2 C
3471 01-04-2019 03:35:00 4.6 C 90 % 3.1 C
3472 01-04-2019 03:40:00 4.6 C 91 % 3.26 C
3473 01-04-2019 03:45:00 4.6 C 91 % 3.26 C
3474 01-04-2019 03:50:00 4.5 C 91 % 3.16 C
3475 01-04-2019 03:55:00 4.5 C 91 % 3.16 C
Sensor: Nr:Datum:Temp:Feuchte:Taupunkt:
Aussen-T/F 3476 01-04-2019 04:00:00 4.4 C 91 % 3.06 C
3477 01-04-2019 04:05:00 4.4 C 90 % 2.91 C
3478 01-04-2019 04:10:00 4.4 C 91 % 3.06 C
3479 01-04-2019 04:15:00 4.3 C 91 % 2.96 C
3480 01-04-2019 04:20:00 4.3 C 91 % 2.96 C
3481 01-04-2019 04:25:00 4.3 C 91 % 2.96 C
3482 01-04-2019 04:30:00 4.3 C 91 % 2.96 C
3483 01-04-2019 04:35:00 4.3 C 91 % 2.96 C
3484 01-04-2019 04:40:00 4.3 C 91 % 2.96 C
3485 01-04-2019 04:45:00 4.3 C 91 % 2.96 C
3486 01-04-2019 04:50:00 4.2 C 91 % 2.87 C
3487 01-04-2019 04:55:00 4.3 C 91 % 2.96 C
3488 01-04-2019 05:00:00 4.3 C 91 % 2.96 C
3489 01-04-2019 05:05:00 4.2 C 91 % 2.87 C
3490 01-04-2019 05:10:00 4.2 C 91 % 2.87 C
3491 01-04-2019 05:15:00 4.2 C 91 % 2.87 C
3492 01-04-2019 05:20:00 4.1 C 91 % 2.77 C
3493 01-04-2019 05:25:00 4 C 91 % 2.67 C
3494 01-04-2019 05:30:00 3.9 C 91 % 2.57 C
3495 01-04-2019 05:35:00 3.8 C 91 % 2.47 C
3496 01-04-2019 05:40:00 3.8 C 91 % 2.47 C
3497 01-04-2019 05:45:00 3.8 C 91 % 2.47 C
3498 01-04-2019 05:50:00 3.7 C 91 % 2.37 C
3499 01-04-2019 05:55:00 3.7 C 92 % 2.52 C
3500 01-04-2019 06:00:00 3.7 C 92 % 2.52 C
Sensor: Nr:Datum:Temp:Feuchte:Taupunkt:
Aussen-T/F 3501 01-04-2019 06:05:00 3.7 C 92 % 2.52 C
3502 01-04-2019 06:10:00 3.7 C 92 % 2.52 C
3503 01-04-2019 06:15:00 3.7 C 91 % 2.37 C
3504 01-04-2019 06:20:00 3.6 C 91 % 2.27 C
3505 01-04-2019 06:25:00 3.6 C 91 % 2.27 C
3506 01-04-2019 06:30:00 3.6 C 92 % 2.42 C
3507 01-04-2019 06:35:00 3.5 C 92 % 2.33 C
3508 01-04-2019 06:40:00 3.5 C 92 % 2.33 C
3509 01-04-2019 06:45:00 3.4 C 92 % 2.23 C
3510 01-04-2019 06:50:00 3.4 C 92 % 2.23 C
3511 01-04-2019 06:55:00 3.4 C 92 % 2.23 C
3512 01-04-2019 07:00:00 3.3 C 92 % 2.13 C
3513 01-04-2019 07:05:00 3.3 C 92 % 2.13 C
3514 01-04-2019 07:10:00 3.2 C 92 % 2.03 C
3515 01-04-2019 07:15:00 3.2 C 92 % 2.03 C
3516 01-04-2019 07:20:00 3.2 C 92 % 2.03 C
3517 01-04-2019 07:25:00 3.1 C 92 % 1.93 C
3518 01-04-2019 07:30:00 3.1 C 92 % 1.93 C
3519 01-04-2019 07:35:00 3.1 C 92 % 1.93 C
3520 01-04-2019 07:40:00 3 C 92 % 1.83 C
3521 01-04-2019 07:45:00 3.1 C 93 % 2.08 C
3522 01-04-2019 07:50:00 3.1 C 93 % 2.08 C
3523 01-04-2019 07:55:00 3.1 C 93 % 2.08 C
3524 01-04-2019 08:00:00 3 C 93 % 1.98 C
3525 01-04-2019 08:05:00 3.1 C 93 % 2.08 C
Sensor: Nr:Datum:Temp:Feuchte:Taupunkt:
Aussen-T/F 3526 01-04-2019 08:10:00 3.1 C 93 % 2.08 C
3527 01-04-2019 08:15:00 3.1 C 93 % 2.08 C
3528 01-04-2019 08:20:00 3.1 C 93 % 2.08 C
3529 01-04-2019 08:25:00 3.1 C 93 % 2.08 C
3530 01-04-2019 08:30:00 3.1 C 93 % 2.08 C
3531 01-04-2019 08:35:00 3.2 C 93 % 2.18 C
3532 01-04-2019 08:40:00 3.2 C 93 % 2.18 C
3533 01-04-2019 08:45:00 3.3 C 94 % 2.43 C
3534 01-04-2019 08:50:00 3.3 C 94 % 2.43 C
3535 01-04-2019 08:55:00 3.4 C 94 % 2.53 C
3536 01-04-2019 09:00:00 3.6 C 94 % 2.73 C
3537 01-04-2019 09:05:00 3.7 C 94 % 2.83 C
3538 01-04-2019 09:10:00 3.8 C 94 % 2.93 C
3539 01-04-2019 09:15:00 4 C 94 % 3.12 C
3540 01-04-2019 09:20:00 4.1 C 93 % 3.07 C
3541 01-04-2019 09:25:00 4.2 C 93 % 3.17 C
3542 01-04-2019 09:30:00 4.4 C 93 % 3.37 C
3543 01-04-2019 09:35:00 4.5 C 92 % 3.32 C
3544 01-04-2019 09:40:00 4.6 C 92 % 3.42 C
3545 01-04-2019 09:45:00 4.7 C 92 % 3.51 C
3546 01-04-2019 09:50:00 4.9 C 91 % 3.56 C
3547 01-04-2019 09:55:00 5 C 91 % 3.66 C
3548 01-04-2019 10:00:00 5.2 C 90 % 3.7 C
3549 01-04-2019 10:05:00 5.4 C 89 % 3.74 C
3550 01-04-2019 10:10:00 5.7 C 88 % 3.87 C
Sensor: Nr:Datum:Temp:Feuchte:Taupunkt:
Aussen-T/F 3551 01-04-2019 10:15:00 5.8 C 87 % 3.81 C
3552 01-04-2019 10:20:00 6.1 C 86 % 3.94 C
3553 01-04-2019 10:25:00 6.4 C 83 % 3.73 C
3554 01-04-2019 10:30:00 6.9 C 80 % 3.7 C
3555 01-04-2019 10:35:00 7.2 C 82 % 4.34 C
3556 01-04-2019 10:40:00 7.4 C 80 % 4.18 C
3557 01-04-2019 10:45:00 7.6 C 81 % 4.55 C
3558 01-04-2019 10:50:00 7.9 C 78 % 4.31 C
3559 01-04-2019 10:55:00 8.2 C 78 % 4.6 C
3560 01-04-2019 11:00:00 8.4 C 76 % 4.42 C
3561 01-04-2019 11:05:00 8.7 C 74 % 4.33 C
3562 01-04-2019 11:10:00 8.9 C 72 % 4.14 C
3563 01-04-2019 11:15:00 9.2 C 72 % 4.42 C
3564 01-04-2019 11:20:00 9.4 C 75 % 5.2 C
3565 01-04-2019 11:25:00 9.5 C 71 % 4.51 C
3566 01-04-2019 11:30:00 9.7 C 70 % 4.5 C
3567 01-04-2019 11:35:00 9.9 C 70 % 4.69 C
3568 01-04-2019 11:40:00 10 C 69 % 4.58 C
3569 01-04-2019 11:45:00 10.1 C 69 % 4.68 C
3570 01-04-2019 11:50:00 10.3 C 68 % 4.66 C
3571 01-04-2019 11:55:00 10.3 C 69 % 4.87 C
3572 01-04-2019 12:00:00 10.5 C 69 % 5.06 C
3573 01-04-2019 12:05:00 10.7 C 67 % 4.83 C
3574 01-04-2019 12:10:00 10.8 C 67 % 4.93 C
3575 01-04-2019 12:15:00 10.9 C 66 % 4.81 C
Sensor: Nr:Datum:Temp:Feuchte:Taupunkt:
Aussen-T/F 3576 01-04-2019 12:20:00 11.1 C 66 % 5 C
3577 01-04-2019 12:25:00 11.2 C 66 % 5.09 C
3578 01-04-2019 12:30:00 11.3 C 66 % 5.19 C
3579 01-04-2019 12:35:00 11.5 C 65 % 5.16 C
3580 01-04-2019 12:40:00 11.7 C 64 % 5.13 C
3581 01-04-2019 12:45:00 11.8 C 64 % 5.22 C
3582 01-04-2019 12:50:00 11.9 C 65 % 5.54 C
3583 01-04-2019 12:55:00 12 C 64 % 5.41 C
3584 01-04-2019 13:00:00 12.2 C 62 % 5.14 C
3585 01-04-2019 13:05:00 12.3 C 63 % 5.47 C
3586 01-04-2019 13:10:00 12.4 C 62 % 5.33 C
3587 01-04-2019 13:15:00 12.6 C 63 % 5.75 C
3588 01-04-2019 13:20:00 12.7 C 62 % 5.62 C
3589 01-04-2019 13:25:00 12.8 C 62 % 5.71 C
3590 01-04-2019 13:30:00 13.1 C 61 % 5.76 C
3591 01-04-2019 13:35:00 13.3 C 61 % 5.95 C
3592 01-04-2019 13:40:00 13.4 C 60 % 5.8 C
3593 01-04-2019 13:45:00 13.6 C 61 % 6.23 C
3594 01-04-2019 13:50:00 13.8 C 60 % 6.18 C
3595 01-04-2019 13:55:00 13.9 C 59 % 6.03 C
3596 01-04-2019 14:00:00 14.1 C 60 % 6.46 C
3597 01-04-2019 14:05:00 14.3 C 58 % 6.16 C
3598 01-04-2019 14:10:00 14.4 C 58 % 6.25 C
3599 01-04-2019 14:15:00 14.6 C 58 % 6.44 C
3600 01-04-2019 14:20:00 14.8 C 58 % 6.63 C
Sensor: Nr:Datum:Temp:Feuchte:Taupunkt:
Aussen-T/F 3601 01-04-2019 14:25:00 14.9 C 57 % 6.47 C
3602 01-04-2019 14:30:00 15 C 56 % 6.3 C
3603 01-04-2019 14:35:00 15.1 C 56 % 6.4 C
3604 01-04-2019 14:40:00 15.2 C 55 % 6.23 C
3605 01-04-2019 14:45:00 15.3 C 56 % 6.58 C
3606 01-04-2019 14:50:00 15.5 C 56 % 6.77 C
3607 01-04-2019 14:55:00 15.8 C 55 % 6.79 C
3608 01-04-2019 15:00:00 15.9 C 57 % 7.4 C
3609 01-04-2019 15:05:00 16 C 53 % 6.44 C
3610 01-04-2019 15:10:00 16.1 C 54 % 6.8 C
3611 01-04-2019 15:15:00 16.1 C 54 % 6.8 C
3612 01-04-2019 15:20:00 16.2 C 55 % 7.16 C
3613 01-04-2019 15:25:00 16.3 C 54 % 6.98 C
3614 01-04-2019 15:30:00 16.4 C 55 % 7.35 C
3615 01-04-2019 15:35:00 16.6 C 54 % 7.26 C
3616 01-04-2019 15:40:00 16.6 C 53 % 6.99 C
3617 01-04-2019 15:45:00 16.8 C 52 % 6.9 C
3618 01-04-2019 15:50:00 16.9 C 52 % 6.99 C
3619 01-04-2019 15:55:00 16.8 C 52 % 6.9 C
3620 01-04-2019 16:00:00 16.8 C 51 % 6.62 C
3621 01-04-2019 16:05:00 16.9 C 51 % 6.71 C
3622 01-04-2019 16:10:00 16.9 C 52 % 6.99 C
3623 01-04-2019 16:15:00 17 C 52 % 7.08 C
3624 01-04-2019 16:20:00 17.2 C 53 % 7.55 C
3625 01-04-2019 16:25:00 17.6 C 52 % 7.64 C
Sensor: Nr:Datum:Temp:Feuchte:Taupunkt:
Aussen-T/F 3626 01-04-2019 16:30:00 17.8 C 51 % 7.54 C
3627 01-04-2019 16:35:00 17.8 C 48 % 6.65 C
3628 01-04-2019 16:40:00 17.8 C 49 % 6.95 C
3629 01-04-2019 16:45:00 17.9 C 51 % 7.63 C
3630 01-04-2019 16:50:00 18.2 C 48 % 7.02 C
3631 01-04-2019 16:55:00 18.1 C 48 % 6.93 C
3632 01-04-2019 17:00:00 18 C 49 % 7.14 C
3633 01-04-2019 17:05:00 18.2 C 49 % 7.32 C
3634 01-04-2019 17:10:00 18.3 C 47 % 6.8 C
3635 01-04-2019 17:15:00 18.3 C 48 % 7.11 C
3636 01-04-2019 17:20:00 18.5 C 50 % 7.89 C
3637 01-04-2019 17:25:00 18.7 C 48 % 7.48 C
3638 01-04-2019 17:30:00 18.5 C 47 % 6.99 C
3639 01-04-2019 17:35:00 18.3 C 48 % 7.11 C
3640 01-04-2019 17:40:00 18.2 C 46 % 6.4 C
3641 01-04-2019 17:45:00 18.1 C 47 % 6.62 C
3642 01-04-2019 17:50:00 18.1 C 47 % 6.62 C
3643 01-04-2019 17:55:00 18.1 C 46 % 6.31 C
3644 01-04-2019 18:00:00 18 C 47 % 6.53 C
3645 01-04-2019 18:05:00 18 C 47 % 6.53 C
3646 01-04-2019 18:10:00 18.2 C 47 % 6.71 C
3647 01-04-2019 18:15:00 18.3 C 47 % 6.8 C
3648 01-04-2019 18:20:00 18.1 C 46 % 6.31 C
3649 01-04-2019 18:25:00 18 C 47 % 6.53 C
3650 01-04-2019 18:30:00 17.9 C 48 % 6.75 C
Sensor: Nr:Datum:Temp:Feuchte:Taupunkt:
Aussen-T/F 3651 01-04-2019 18:35:00 17.9 C 47 % 6.44 C
3652 01-04-2019 18:40:00 17.8 C 47 % 6.35 C
3653 01-04-2019 18:45:00 17.6 C 47 % 6.17 C
3654 01-04-2019 18:50:00 17.4 C 48 % 6.29 C
3655 01-04-2019 18:55:00 17.3 C 50 % 6.79 C
3656 01-04-2019 19:00:00 17.3 C 49 % 6.5 C
3657 01-04-2019 19:05:00 17.2 C 52 % 7.27 C
3658 01-04-2019 19:10:00 17.1 C 49 % 6.31 C
3659 01-04-2019 19:15:00 16.9 C 51 % 6.71 C
3660 01-04-2019 19:20:00 16.9 C 55 % 7.81 C
3661 01-04-2019 19:25:00 16.7 C 56 % 7.89 C
3662 01-04-2019 19:30:00 16.3 C 57 % 7.77 C
3663 01-04-2019 19:35:00 15.8 C 55 % 6.79 C
3664 01-04-2019 19:40:00 15.3 C 59 % 7.34 C
3665 01-04-2019 19:45:00 14.7 C 61 % 7.27 C
3666 01-04-2019 19:50:00 14.1 C 63 % 7.17 C
3667 01-04-2019 19:55:00 13.7 C 64 % 7.02 C
3668 01-04-2019 20:00:00 13.2 C 66 % 7 C
3669 01-04-2019 20:05:00 12.8 C 67 % 6.83 C
3670 01-04-2019 20:10:00 12.5 C 68 % 6.76 C
3671 01-04-2019 20:15:00 12.2 C 69 % 6.69 C
3672 01-04-2019 20:20:00 12 C 70 % 6.71 C
3673 01-04-2019 20:25:00 11.7 C 71 % 6.62 C
3674 01-04-2019 20:30:00 11.6 C 71 % 6.53 C
3675 01-04-2019 20:35:00 11.3 C 72 % 6.44 C
Sensor: Nr:Datum:Temp:Feuchte:Taupunkt:
Aussen-T/F 3676 01-04-2019 20:40:00 11.2 C 72 % 6.35 C
3677 01-04-2019 20:45:00 11.1 C 73 % 6.45 C
3678 01-04-2019 20:50:00 10.9 C 73 % 6.26 C
3679 01-04-2019 20:55:00 10.8 C 74 % 6.36 C
3680 01-04-2019 21:00:00 10.7 C 74 % 6.26 C
3681 01-04-2019 21:05:00 10.6 C 75 % 6.36 C
3682 01-04-2019 21:10:00 10.4 C 75 % 6.17 C
3683 01-04-2019 21:15:00 10.3 C 75 % 6.07 C
3684 01-04-2019 21:20:00 10.3 C 75 % 6.07 C
3685 01-04-2019 21:25:00 10.2 C 76 % 6.16 C
3686 01-04-2019 21:30:00 10.1 C 76 % 6.07 C
3687 01-04-2019 21:35:00 10 C 76 % 5.97 C
3688 01-04-2019 21:40:00 9.9 C 76 % 5.87 C
3689 01-04-2019 21:45:00 9.9 C 76 % 5.87 C
3690 01-04-2019 21:50:00 9.8 C 77 % 5.97 C
3691 01-04-2019 21:55:00 9.7 C 77 % 5.87 C
3692 01-04-2019 22:00:00 9.7 C 77 % 5.87 C
3693 01-04-2019 22:05:00 9.6 C 77 % 5.77 C
3694 01-04-2019 22:10:00 9.5 C 77 % 5.68 C
3695 01-04-2019 22:15:00 9.4 C 77 % 5.58 C
3696 01-04-2019 22:20:00 9.4 C 77 % 5.58 C
3697 01-04-2019 22:25:00 9.4 C 77 % 5.58 C
3698 01-04-2019 22:30:00 9.3 C 77 % 5.48 C
3699 01-04-2019 22:35:00 9.2 C 78 % 5.57 C
3700 01-04-2019 22:40:00 9.2 C 77 % 5.38 C
Sensor: Nr:Datum:Temp:Feuchte:Taupunkt:
Aussen-T/F 3701 01-04-2019 22:45:00 9.1 C 77 % 5.29 C
3702 01-04-2019 22:50:00 9.2 C 77 % 5.38 C
3703 01-04-2019 22:55:00 9.2 C 77 % 5.38 C
3704 01-04-2019 23:00:00 9.2 C 76 % 5.2 C
3705 01-04-2019 23:05:00 9.1 C 76 % 5.1 C
3706 01-04-2019 23:10:00 9 C 77 % 5.19 C
3707 01-04-2019 23:15:00 8.9 C 77 % 5.09 C
3708 01-04-2019 23:20:00 8.9 C 77 % 5.09 C
3709 01-04-2019 23:25:00 8.8 C 77 % 5 C
3710 01-04-2019 23:30:00 8.8 C 77 % 5 C
3711 01-04-2019 23:35:00 8.7 C 78 % 5.08 C
3712 01-04-2019 23:40:00 8.6 C 78 % 4.99 C
3713 01-04-2019 23:45:00 8.6 C 78 % 4.99 C
3714 01-04-2019 23:50:00 8.5 C 79 % 5.07 C
3715 01-04-2019 23:55:00 8.4 C 79 % 4.98 C
3716 02-04-2019 00:00:00 8.3 C 79 % 4.88 C
3717 02-04-2019 00:05:00 8.3 C 80 % 5.06 C
3718 02-04-2019 00:10:00 8.2 C 80 % 4.96 C
3719 02-04-2019 00:15:00 8.1 C 80 % 4.86 C
3720 02-04-2019 00:20:00 8.1 C 80 % 4.86 C
3721 02-04-2019 00:25:00 7.9 C 80 % 4.67 C
3722 02-04-2019 00:30:00 7.9 C 81 % 4.85 C
3723 02-04-2019 00:35:00 7.8 C 81 % 4.75 C
3724 02-04-2019 00:40:00 7.8 C 81 % 4.75 C
3725 02-04-2019 00:45:00 7.7 C 81 % 4.65 C
Sensor: Nr:Datum:Temp:Feuchte:Taupunkt:
Aussen-T/F 3726 02-04-2019 00:50:00 7.6 C 81 % 4.55 C
3727 02-04-2019 00:55:00 7.5 C 82 % 4.63 C
3728 02-04-2019 01:00:00 7.4 C 82 % 4.53 C
3729 02-04-2019 01:05:00 7.3 C 82 % 4.44 C
3730 02-04-2019 01:10:00 7.2 C 83 % 4.51 C
3731 02-04-2019 01:15:00 7.2 C 83 % 4.51 C
3732 02-04-2019 01:20:00 7.1 C 83 % 4.41 C
3733 02-04-2019 01:25:00 7.1 C 83 % 4.41 C
3734 02-04-2019 01:30:00 7 C 83 % 4.32 C
3735 02-04-2019 01:35:00 6.9 C 83 % 4.22 C
3736 02-04-2019 01:40:00 6.9 C 84 % 4.39 C
3737 02-04-2019 01:45:00 6.8 C 84 % 4.29 C
3738 02-04-2019 01:50:00 6.8 C 84 % 4.29 C
3739 02-04-2019 01:55:00 6.8 C 84 % 4.29 C
3740 02-04-2019 02:00:00 6.7 C 84 % 4.19 C
3741 02-04-2019 02:05:00 6.7 C 84 % 4.19 C
3742 02-04-2019 02:10:00 6.6 C 84 % 4.1 C
3743 02-04-2019 02:15:00 6.5 C 84 % 4 C
3744 02-04-2019 02:20:00 6.4 C 84 % 3.9 C
3745 02-04-2019 02:25:00 6.4 C 85 % 4.07 C
3746 02-04-2019 02:30:00 6.4 C 85 % 4.07 C
3747 02-04-2019 02:35:00 6.3 C 84 % 3.8 C
3748 02-04-2019 02:40:00 6.1 C 85 % 3.77 C
3749 02-04-2019 02:45:00 5.9 C 85 % 3.58 C
3750 02-04-2019 02:50:00 5.8 C 86 % 3.64 C
Sensor: Nr:Datum:Temp:Feuchte:Taupunkt:
Aussen-T/F 3751 02-04-2019 02:55:00 5.8 C 86 % 3.64 C
3752 02-04-2019 03:00:00 5.7 C 86 % 3.55 C
3753 02-04-2019 03:05:00 5.6 C 86 % 3.45 C
3754 02-04-2019 03:10:00 5.4 C 86 % 3.25 C
3755 02-04-2019 03:15:00 5.3 C 87 % 3.32 C
3756 02-04-2019 03:20:00 5.2 C 87 % 3.22 C
3757 02-04-2019 03:25:00 5.2 C 88 % 3.38 C
3758 02-04-2019 03:30:00 5.1 C 88 % 3.28 C
3759 02-04-2019 03:35:00 4.9 C 88 % 3.08 C
3760 02-04-2019 03:40:00 4.8 C 88 % 2.99 C
3761 02-04-2019 03:45:00 4.7 C 88 % 2.89 C
3762 02-04-2019 03:50:00 4.6 C 89 % 2.95 C
3763 02-04-2019 03:55:00 4.6 C 89 % 2.95 C
3764 02-04-2019 04:00:00 4.6 C 89 % 2.95 C
3765 02-04-2019 04:05:00 4.6 C 90 % 3.1 C
3766 02-04-2019 04:10:00 4.6 C 90 % 3.1 C
3767 02-04-2019 04:15:00 4.5 C 89 % 2.85 C
3768 02-04-2019 04:20:00 4.4 C 90 % 2.91 C
3769 02-04-2019 04:25:00 4.4 C 90 % 2.91 C
3770 02-04-2019 04:30:00 4.3 C 90 % 2.81 C
3771 02-04-2019 04:35:00 4.3 C 90 % 2.81 C
3772 02-04-2019 04:40:00 4.3 C 90 % 2.81 C
3773 02-04-2019 04:45:00 4.3 C 91 % 2.96 C
3774 02-04-2019 04:50:00 4.2 C 91 % 2.87 C
3775 02-04-2019 04:55:00 4.2 C 91 % 2.87 C
Sensor: Nr:Datum:Temp:Feuchte:Taupunkt:
Aussen-T/F 3776 02-04-2019 05:00:00 4.2 C 91 % 2.87 C
3777 02-04-2019 05:05:00 4.1 C 91 % 2.77 C
3778 02-04-2019 05:10:00 4.1 C 91 % 2.77 C
3779 02-04-2019 05:15:00 4.1 C 91 % 2.77 C
3780 02-04-2019 05:20:00 4.1 C 91 % 2.77 C
3781 02-04-2019 05:25:00 4.1 C 91 % 2.77 C
3782 02-04-2019 05:30:00 3.9 C 91 % 2.57 C
3783 02-04-2019 05:35:00 3.9 C 91 % 2.57 C
3784 02-04-2019 05:40:00 3.8 C 91 % 2.47 C
3785 02-04-2019 05:45:00 3.8 C 91 % 2.47 C
3786 02-04-2019 05:50:00 3.8 C 92 % 2.62 C
3787 02-04-2019 05:55:00 3.7 C 92 % 2.52 C
3788 02-04-2019 06:00:00 3.7 C 92 % 2.52 C
3789 02-04-2019 06:05:00 3.8 C 92 % 2.62 C
3790 02-04-2019 06:10:00 4 C 93 % 2.97 C
3791 02-04-2019 06:15:00 4.1 C 92 % 2.92 C
3792 02-04-2019 06:20:00 4.1 C 92 % 2.92 C
3793 02-04-2019 06:25:00 3.9 C 92 % 2.72 C
3794 02-04-2019 06:30:00 3.9 C 92 % 2.72 C
3795 02-04-2019 06:35:00 3.8 C 92 % 2.62 C
3796 02-04-2019 06:40:00 3.9 C 92 % 2.72 C
3797 02-04-2019 06:45:00 3.8 C 92 % 2.62 C
3798 02-04-2019 06:50:00 3.8 C 92 % 2.62 C
3799 02-04-2019 06:55:00 3.8 C 92 % 2.62 C
3800 02-04-2019 07:00:00 3.8 C 92 % 2.62 C
Sensor: Nr:Datum:Temp:Feuchte:Taupunkt:
Aussen-T/F 3801 02-04-2019 07:05:00 3.8 C 92 % 2.62 C
3802 02-04-2019 07:10:00 3.7 C 92 % 2.52 C
3803 02-04-2019 07:15:00 3.8 C 93 % 2.77 C
3804 02-04-2019 07:20:00 3.8 C 93 % 2.77 C
3805 02-04-2019 07:25:00 3.9 C 93 % 2.87 C
3806 02-04-2019 07:30:00 4 C 93 % 2.97 C
3807 02-04-2019 07:35:00 4.1 C 93 % 3.07 C
3808 02-04-2019 07:40:00 4.2 C 94 % 3.32 C
3809 02-04-2019 07:45:00 4.3 C 94 % 3.42 C
3810 02-04-2019 07:50:00 4.3 C 93 % 3.27 C
3811 02-04-2019 07:55:00 4.4 C 93 % 3.37 C
3812 02-04-2019 08:00:00 4.4 C 93 % 3.37 C
3813 02-04-2019 08:05:00 4.5 C 93 % 3.47 C
3814 02-04-2019 08:10:00 4.6 C 93 % 3.57 C
3815 02-04-2019 08:15:00 4.6 C 93 % 3.57 C
3816 02-04-2019 08:20:00 4.7 C 93 % 3.67 C
3817 02-04-2019 08:25:00 4.8 C 94 % 3.92 C
3818 02-04-2019 08:30:00 5 C 93 % 3.96 C
3819 02-04-2019 08:35:00 5.2 C 93 % 4.16 C
3820 02-04-2019 08:40:00 5.3 C 93 % 4.26 C
3821 02-04-2019 08:45:00 5.4 C 93 % 4.36 C
3822 02-04-2019 08:50:00 5.6 C 92 % 4.41 C
3823 02-04-2019 08:55:00 5.7 C 92 % 4.5 C
3824 02-04-2019 09:00:00 5.8 C 92 % 4.6 C
3825 02-04-2019 09:05:00 5.9 C 91 % 4.55 C
Sensor: Nr:Datum:Temp:Feuchte:Taupunkt:
Aussen-T/F 3826 02-04-2019 09:10:00 6 C 91 % 4.65 C
3827 02-04-2019 09:15:00 6.1 C 91 % 4.74 C
3828 02-04-2019 09:20:00 6.3 C 90 % 4.78 C
3829 02-04-2019 09:25:00 6.4 C 90 % 4.88 C
3830 02-04-2019 09:30:00 6.6 C 89 % 4.92 C
3831 02-04-2019 09:35:00 6.8 C 89 % 5.12 C
3832 02-04-2019 09:40:00 6.9 C 88 % 5.05 C
3833 02-04-2019 09:45:00 7.1 C 87 % 5.09 C
3834 02-04-2019 09:50:00 7.2 C 87 % 5.19 C
3835 02-04-2019 09:55:00 7.3 C 87 % 5.28 C
3836 02-04-2019 10:00:00 7.6 C 86 % 5.41 C
3837 02-04-2019 10:05:00 7.7 C 84 % 5.17 C
3838 02-04-2019 10:10:00 7.8 C 83 % 5.1 C
3839 02-04-2019 10:15:00 8.1 C 83 % 5.39 C
3840 02-04-2019 10:20:00 8.3 C 83 % 5.59 C
3841 02-04-2019 10:25:00 8.5 C 83 % 5.78 C
3842 02-04-2019 10:30:00 8.8 C 83 % 6.08 C
3843 02-04-2019 10:35:00 9 C 81 % 5.92 C
3844 02-04-2019 10:40:00 9.3 C 81 % 6.21 C
3845 02-04-2019 10:45:00 9.6 C 80 % 6.32 C
3846 02-04-2019 10:50:00 9.8 C 79 % 6.34 C
3847 02-04-2019 10:55:00 10.1 C 78 % 6.44 C
3848 02-04-2019 11:00:00 10.4 C 78 % 6.74 C
3849 02-04-2019 11:05:00 10.8 C 76 % 6.75 C
3850 02-04-2019 11:10:00 11.1 C 76 % 7.04 C
Sensor: Nr:Datum:Temp:Feuchte:Taupunkt:
Aussen-T/F 3851 02-04-2019 11:15:00 11.4 C 75 % 7.13 C
3852 02-04-2019 11:20:00 11.7 C 75 % 7.42 C
3853 02-04-2019 11:25:00 11.9 C 74 % 7.42 C
3854 02-04-2019 11:30:00 12.1 C 76 % 8 C
3855 02-04-2019 11:35:00 12.3 C 75 % 8 C
3856 02-04-2019 11:40:00 12.5 C 74 % 8 C
3857 02-04-2019 11:45:00 12.8 C 74 % 8.29 C
3858 02-04-2019 11:50:00 13.1 C 73 % 8.38 C
3859 02-04-2019 11:55:00 13.3 C 73 % 8.57 C
3860 02-04-2019 12:00:00 13.6 C 72 % 8.65 C
3861 02-04-2019 12:05:00 13.9 C 71 % 8.73 C
3862 02-04-2019 12:10:00 14.2 C 70 % 8.81 C
3863 02-04-2019 12:15:00 14.5 C 69 % 8.89 C
3864 02-04-2019 12:20:00 14.7 C 67 % 8.64 C
3865 02-04-2019 12:25:00 15 C 66 % 8.71 C
3866 02-04-2019 12:30:00 15.2 C 66 % 8.9 C
3867 02-04-2019 12:35:00 15.3 C 64 % 8.54 C
3868 02-04-2019 12:40:00 15.6 C 65 % 9.05 C
3869 02-04-2019 12:45:00 15.8 C 64 % 9.01 C
3870 02-04-2019 12:50:00 16.1 C 64 % 9.29 C
3871 02-04-2019 12:55:00 16.3 C 63 % 9.25 C
3872 02-04-2019 13:00:00 16.4 C 63 % 9.35 C
3873 02-04-2019 13:05:00 16.6 C 62 % 9.3 C
3874 02-04-2019 13:10:00 16.6 C 62 % 9.3 C
3875 02-04-2019 13:15:00 16.7 C 61 % 9.15 C
Sensor: Nr:Datum:Temp:Feuchte:Taupunkt:
Aussen-T/F 3876 02-04-2019 13:20:00 16.7 C 62 % 9.39 C
3877 02-04-2019 13:25:00 16.7 C 61 % 9.15 C
3878 02-04-2019 13:30:00 16.8 C 60 % 9 C
3879 02-04-2019 13:35:00 16.8 C 59 % 8.75 C
3880 02-04-2019 13:40:00 16.8 C 60 % 9 C
3881 02-04-2019 13:45:00 16.9 C 59 % 8.84 C
3882 02-04-2019 13:50:00 17.2 C 60 % 9.37 C
3883 02-04-2019 13:55:00 17.5 C 61 % 9.9 C
3884 02-04-2019 14:00:00 17.7 C 58 % 9.34 C
3885 02-04-2019 14:05:00 17.9 C 60 % 10.03 C
3886 02-04-2019 14:10:00 18 C 57 % 9.36 C
3887 02-04-2019 14:15:00 18 C 58 % 9.62 C
3888 02-04-2019 14:20:00 18 C 58 % 9.62 C
3889 02-04-2019 14:25:00 18.2 C 58 % 9.81 C
3890 02-04-2019 14:30:00 18.3 C 58 % 9.9 C
3891 02-04-2019 14:35:00 18.3 C 57 % 9.64 C
3892 02-04-2019 14:40:00 18.2 C 57 % 9.55 C
3893 02-04-2019 14:45:00 17.9 C 58 % 9.53 C
3894 02-04-2019 14:50:00 17.7 C 59 % 9.59 C
3895 02-04-2019 14:55:00 17.5 C 59 % 9.41 C
3896 02-04-2019 15:00:00 17.3 C 60 % 9.47 C
3897 02-04-2019 15:05:00 16.8 C 65 % 10.19 C
3898 02-04-2019 15:10:00 16.2 C 68 % 10.29 C
3899 02-04-2019 15:15:00 15.9 C 72 % 10.86 C
3900 02-04-2019 15:20:00 15.8 C 71 % 10.56 C
Sensor: Nr:Datum:Temp:Feuchte:Taupunkt:
Aussen-T/F 390